<?xml version="1.0" encoding="UTF-8" standalone="no" ?>
<gpx xmlns="http://www.topografix.com/GPX/1/1" xmlns:xsi="http://www.w3.org/2001/XMLSchema-instance" xsi:schemaLocation="http://www.topografix.com/GPX/1/1 http://www.topografix.com/GPX/1/1/gpx.xsd" version="1.1" creator="VisuGPX - https://www.visugpx.com">
  <metadata>
    <name>sortie CAF Trail Bouconne 01/02/2015</name>
    <desc><![CDATA[sortie Trail Bouconne 01/02/2015]]></desc>
  </metadata>
  <trk>
    <name><![CDATA[Pujaudran Course à pied]]></name>
    <desc><![CDATA[Sortie CAF Bouconne 01 Février 2015]]></desc>
    <trkseg>
      <trkpt lat="43.59847" lon="1.18672">
        <ele>253</ele>
        <time>2015-02-01T08:37:38.000Z</time>
      </trkpt>
      <trkpt lat="43.59858" lon="1.18667">
        <ele>253</ele>
        <time>2015-02-01T08:37:45.000Z</time>
      </trkpt>
      <trkpt lat="43.59865" lon="1.18668">
        <ele>253.19999694824</ele>
        <time>2015-02-01T08:37:50.000Z</time>
      </trkpt>
      <trkpt lat="43.59871" lon="1.18672">
        <ele>253.19999694824</ele>
        <time>2015-02-01T08:37:53.000Z</time>
      </trkpt>
      <trkpt lat="43.59876" lon="1.18675">
        <ele>253.19999694824</ele>
        <time>2015-02-01T08:37:56.000Z</time>
      </trkpt>
      <trkpt lat="43.59889" lon="1.18677">
        <ele>253.39999389648</ele>
        <time>2015-02-01T08:38:02.000Z</time>
      </trkpt>
      <trkpt lat="43.59899" lon="1.18672">
        <ele>253.60000610352</ele>
        <time>2015-02-01T08:38:07.000Z</time>
      </trkpt>
      <trkpt lat="43.59903" lon="1.18669">
        <ele>253.60000610352</ele>
        <time>2015-02-01T08:38:09.000Z</time>
      </trkpt>
      <trkpt lat="43.59911" lon="1.18672">
        <ele>253.80000305176</ele>
        <time>2015-02-01T08:38:12.000Z</time>
      </trkpt>
      <trkpt lat="43.59926" lon="1.18683">
        <ele>253.80000305176</ele>
        <time>2015-02-01T08:38:19.000Z</time>
      </trkpt>
      <trkpt lat="43.59938" lon="1.18692">
        <ele>254</ele>
        <time>2015-02-01T08:38:25.000Z</time>
      </trkpt>
      <trkpt lat="43.5995" lon="1.18701">
        <ele>254.39999389648</ele>
        <time>2015-02-01T08:38:31.000Z</time>
      </trkpt>
      <trkpt lat="43.5996" lon="1.18709">
        <ele>254.60000610352</ele>
        <time>2015-02-01T08:38:36.000Z</time>
      </trkpt>
      <trkpt lat="43.5997" lon="1.18717">
        <ele>254.80000305176</ele>
        <time>2015-02-01T08:38:41.000Z</time>
      </trkpt>
      <trkpt lat="43.59979" lon="1.18725">
        <ele>255</ele>
        <time>2015-02-01T08:38:46.000Z</time>
      </trkpt>
      <trkpt lat="43.59988" lon="1.18732">
        <ele>255.19999694824</ele>
        <time>2015-02-01T08:38:51.000Z</time>
      </trkpt>
      <trkpt lat="43.59998" lon="1.1874">
        <ele>255.39999389648</ele>
        <time>2015-02-01T08:38:56.000Z</time>
      </trkpt>
      <trkpt lat="43.6" lon="1.18745">
        <ele>255.39999389648</ele>
        <time>2015-02-01T08:38:58.000Z</time>
      </trkpt>
      <trkpt lat="43.59997" lon="1.18758">
        <ele>255.19999694824</ele>
        <time>2015-02-01T08:39:02.000Z</time>
      </trkpt>
      <trkpt lat="43.59989" lon="1.18774">
        <ele>254.80000305176</ele>
        <time>2015-02-01T08:39:08.000Z</time>
      </trkpt>
      <trkpt lat="43.59984" lon="1.18787">
        <ele>254.80000305176</ele>
        <time>2015-02-01T08:39:13.000Z</time>
      </trkpt>
      <trkpt lat="43.59976" lon="1.18804">
        <ele>255</ele>
        <time>2015-02-01T08:39:19.000Z</time>
      </trkpt>
      <trkpt lat="43.59961" lon="1.18838">
        <ele>254.60000610352</ele>
        <time>2015-02-01T08:39:31.000Z</time>
      </trkpt>
      <trkpt lat="43.59955" lon="1.18853">
        <ele>254</ele>
        <time>2015-02-01T08:39:36.000Z</time>
      </trkpt>
      <trkpt lat="43.59948" lon="1.18872">
        <ele>253.19999694824</ele>
        <time>2015-02-01T08:39:42.000Z</time>
      </trkpt>
      <trkpt lat="43.59943" lon="1.18887">
        <ele>252.39999389648</ele>
        <time>2015-02-01T08:39:47.000Z</time>
      </trkpt>
      <trkpt lat="43.59936" lon="1.18903">
        <ele>251.39999389648</ele>
        <time>2015-02-01T08:39:52.000Z</time>
      </trkpt>
      <trkpt lat="43.5993" lon="1.18914">
        <ele>249.80000305176</ele>
        <time>2015-02-01T08:39:56.000Z</time>
      </trkpt>
      <trkpt lat="43.59922" lon="1.18929">
        <ele>247.60000610352</ele>
        <time>2015-02-01T08:40:01.000Z</time>
      </trkpt>
      <trkpt lat="43.59916" lon="1.18945">
        <ele>245.60000610352</ele>
        <time>2015-02-01T08:40:06.000Z</time>
      </trkpt>
      <trkpt lat="43.59908" lon="1.18961">
        <ele>243.60000610352</ele>
        <time>2015-02-01T08:40:11.000Z</time>
      </trkpt>
      <trkpt lat="43.59898" lon="1.18982">
        <ele>240.80000305176</ele>
        <time>2015-02-01T08:40:18.000Z</time>
      </trkpt>
      <trkpt lat="43.5989" lon="1.19005">
        <ele>238.60000610352</ele>
        <time>2015-02-01T08:40:25.000Z</time>
      </trkpt>
      <trkpt lat="43.59884" lon="1.19022">
        <ele>236.39999389648</ele>
        <time>2015-02-01T08:40:31.000Z</time>
      </trkpt>
      <trkpt lat="43.59877" lon="1.19038">
        <ele>233.80000305176</ele>
        <time>2015-02-01T08:40:37.000Z</time>
      </trkpt>
      <trkpt lat="43.5987" lon="1.19051">
        <ele>231.60000610352</ele>
        <time>2015-02-01T08:40:42.000Z</time>
      </trkpt>
      <trkpt lat="43.59864" lon="1.19065">
        <ele>229.39999389648</ele>
        <time>2015-02-01T08:40:47.000Z</time>
      </trkpt>
      <trkpt lat="43.59864" lon="1.19067">
        <ele>229.19999694824</ele>
        <time>2015-02-01T08:40:48.000Z</time>
      </trkpt>
      <trkpt lat="43.59869" lon="1.19072">
        <ele>229.19999694824</ele>
        <time>2015-02-01T08:40:52.000Z</time>
      </trkpt>
      <trkpt lat="43.59872" lon="1.19072">
        <ele>229.39999389648</ele>
        <time>2015-02-01T08:40:54.000Z</time>
      </trkpt>
      <trkpt lat="43.59886" lon="1.19072">
        <ele>231.60000610352</ele>
        <time>2015-02-01T08:41:01.000Z</time>
      </trkpt>
      <trkpt lat="43.59894" lon="1.19074">
        <ele>232.39999389648</ele>
        <time>2015-02-01T08:41:06.000Z</time>
      </trkpt>
      <trkpt lat="43.59902" lon="1.19075">
        <ele>233.60000610352</ele>
        <time>2015-02-01T08:41:10.000Z</time>
      </trkpt>
      <trkpt lat="43.59906" lon="1.19074">
        <ele>234.19999694824</ele>
        <time>2015-02-01T08:41:12.000Z</time>
      </trkpt>
      <trkpt lat="43.59923" lon="1.1908">
        <ele>235.80000305176</ele>
        <time>2015-02-01T08:41:20.000Z</time>
      </trkpt>
      <trkpt lat="43.59945" lon="1.19087">
        <ele>237.19999694824</ele>
        <time>2015-02-01T08:41:31.000Z</time>
      </trkpt>
      <trkpt lat="43.59954" lon="1.19089">
        <ele>237.60000610352</ele>
        <time>2015-02-01T08:41:35.000Z</time>
      </trkpt>
      <trkpt lat="43.59958" lon="1.19091">
        <ele>237.60000610352</ele>
        <time>2015-02-01T08:41:37.000Z</time>
      </trkpt>
      <trkpt lat="43.59965" lon="1.19092">
        <ele>237.80000305176</ele>
        <time>2015-02-01T08:41:41.000Z</time>
      </trkpt>
      <trkpt lat="43.59971" lon="1.19096">
        <ele>237.60000610352</ele>
        <time>2015-02-01T08:41:45.000Z</time>
      </trkpt>
      <trkpt lat="43.59973" lon="1.19097">
        <ele>237.60000610352</ele>
        <time>2015-02-01T08:41:46.000Z</time>
      </trkpt>
      <trkpt lat="43.59975" lon="1.19097">
        <ele>237.80000305176</ele>
        <time>2015-02-01T08:41:47.000Z</time>
      </trkpt>
      <trkpt lat="43.59983" lon="1.19095">
        <ele>238.60000610352</ele>
        <time>2015-02-01T08:41:51.000Z</time>
      </trkpt>
      <trkpt lat="43.59987" lon="1.19094">
        <ele>239</ele>
        <time>2015-02-01T08:41:53.000Z</time>
      </trkpt>
      <trkpt lat="43.59999" lon="1.19092">
        <ele>240.19999694824</ele>
        <time>2015-02-01T08:41:58.000Z</time>
      </trkpt>
      <trkpt lat="43.60007" lon="1.1909">
        <ele>241</ele>
        <time>2015-02-01T08:42:02.000Z</time>
      </trkpt>
      <trkpt lat="43.60013" lon="1.19088">
        <ele>241.80000305176</ele>
        <time>2015-02-01T08:42:05.000Z</time>
      </trkpt>
      <trkpt lat="43.60024" lon="1.19082">
        <ele>243.19999694824</ele>
        <time>2015-02-01T08:42:10.000Z</time>
      </trkpt>
      <trkpt lat="43.60045" lon="1.1907">
        <ele>244.39999389648</ele>
        <time>2015-02-01T08:42:20.000Z</time>
      </trkpt>
      <trkpt lat="43.60053" lon="1.19069">
        <ele>244.19999694824</ele>
        <time>2015-02-01T08:42:24.000Z</time>
      </trkpt>
      <trkpt lat="43.60067" lon="1.19065">
        <ele>244</ele>
        <time>2015-02-01T08:42:30.000Z</time>
      </trkpt>
      <trkpt lat="43.60071" lon="1.19064">
        <ele>244</ele>
        <time>2015-02-01T08:42:32.000Z</time>
      </trkpt>
      <trkpt lat="43.6008" lon="1.19069">
        <ele>243.19999694824</ele>
        <time>2015-02-01T08:42:37.000Z</time>
      </trkpt>
      <trkpt lat="43.60088" lon="1.19074">
        <ele>242.60000610352</ele>
        <time>2015-02-01T08:42:41.000Z</time>
      </trkpt>
      <trkpt lat="43.6009" lon="1.19076">
        <ele>242.39999389648</ele>
        <time>2015-02-01T08:42:42.000Z</time>
      </trkpt>
      <trkpt lat="43.60099" lon="1.19083">
        <ele>241.60000610352</ele>
        <time>2015-02-01T08:42:47.000Z</time>
      </trkpt>
      <trkpt lat="43.60109" lon="1.19091">
        <ele>240.80000305176</ele>
        <time>2015-02-01T08:42:52.000Z</time>
      </trkpt>
      <trkpt lat="43.60118" lon="1.191">
        <ele>240</ele>
        <time>2015-02-01T08:42:57.000Z</time>
      </trkpt>
      <trkpt lat="43.60127" lon="1.19107">
        <ele>239.39999389648</ele>
        <time>2015-02-01T08:43:01.000Z</time>
      </trkpt>
      <trkpt lat="43.60132" lon="1.19113">
        <ele>239</ele>
        <time>2015-02-01T08:43:05.000Z</time>
      </trkpt>
      <trkpt lat="43.60145" lon="1.19124">
        <ele>238</ele>
        <time>2015-02-01T08:43:11.000Z</time>
      </trkpt>
      <trkpt lat="43.60153" lon="1.19133">
        <ele>237.19999694824</ele>
        <time>2015-02-01T08:43:15.000Z</time>
      </trkpt>
      <trkpt lat="43.60178" lon="1.19157">
        <ele>235.19999694824</ele>
        <time>2015-02-01T08:43:27.000Z</time>
      </trkpt>
      <trkpt lat="43.60191" lon="1.19168">
        <ele>234.80000305176</ele>
        <time>2015-02-01T08:43:33.000Z</time>
      </trkpt>
      <trkpt lat="43.60201" lon="1.19178">
        <ele>234.80000305176</ele>
        <time>2015-02-01T08:43:39.000Z</time>
      </trkpt>
      <trkpt lat="43.6021" lon="1.19197">
        <ele>234</ele>
        <time>2015-02-01T08:43:45.000Z</time>
      </trkpt>
      <trkpt lat="43.60214" lon="1.19214">
        <ele>233.19999694824</ele>
        <time>2015-02-01T08:43:50.000Z</time>
      </trkpt>
      <trkpt lat="43.60218" lon="1.19231">
        <ele>232.19999694824</ele>
        <time>2015-02-01T08:43:55.000Z</time>
      </trkpt>
      <trkpt lat="43.6022" lon="1.19246">
        <ele>231.39999389648</ele>
        <time>2015-02-01T08:43:59.000Z</time>
      </trkpt>
      <trkpt lat="43.60225" lon="1.19261">
        <ele>231</ele>
        <time>2015-02-01T08:44:04.000Z</time>
      </trkpt>
      <trkpt lat="43.60233" lon="1.19277">
        <ele>230.60000610352</ele>
        <time>2015-02-01T08:44:10.000Z</time>
      </trkpt>
      <trkpt lat="43.60237" lon="1.19286">
        <ele>230.19999694824</ele>
        <time>2015-02-01T08:44:13.000Z</time>
      </trkpt>
      <trkpt lat="43.60238" lon="1.19293">
        <ele>230</ele>
        <time>2015-02-01T08:44:15.000Z</time>
      </trkpt>
      <trkpt lat="43.60244" lon="1.19303">
        <ele>229.80000305176</ele>
        <time>2015-02-01T08:44:19.000Z</time>
      </trkpt>
      <trkpt lat="43.6026" lon="1.19324">
        <ele>228.80000305176</ele>
        <time>2015-02-01T08:44:29.000Z</time>
      </trkpt>
      <trkpt lat="43.60262" lon="1.19327">
        <ele>228.60000610352</ele>
        <time>2015-02-01T08:44:30.000Z</time>
      </trkpt>
      <trkpt lat="43.60274" lon="1.1934">
        <ele>228</ele>
        <time>2015-02-01T08:44:36.000Z</time>
      </trkpt>
      <trkpt lat="43.60282" lon="1.19349">
        <ele>227.80000305176</ele>
        <time>2015-02-01T08:44:41.000Z</time>
      </trkpt>
      <trkpt lat="43.6029" lon="1.19357">
        <ele>227.60000610352</ele>
        <time>2015-02-01T08:44:46.000Z</time>
      </trkpt>
      <trkpt lat="43.60296" lon="1.19365">
        <ele>227.19999694824</ele>
        <time>2015-02-01T08:44:50.000Z</time>
      </trkpt>
      <trkpt lat="43.60303" lon="1.19371">
        <ele>227.19999694824</ele>
        <time>2015-02-01T08:44:54.000Z</time>
      </trkpt>
      <trkpt lat="43.60304" lon="1.19373">
        <ele>227.19999694824</ele>
        <time>2015-02-01T08:44:55.000Z</time>
      </trkpt>
      <trkpt lat="43.60312" lon="1.19382">
        <ele>227</ele>
        <time>2015-02-01T08:45:00.000Z</time>
      </trkpt>
      <trkpt lat="43.60319" lon="1.19392">
        <ele>226.39999389648</ele>
        <time>2015-02-01T08:45:04.000Z</time>
      </trkpt>
      <trkpt lat="43.60321" lon="1.19394">
        <ele>226.39999389648</ele>
        <time>2015-02-01T08:45:05.000Z</time>
      </trkpt>
      <trkpt lat="43.60329" lon="1.19408">
        <ele>227</ele>
        <time>2015-02-01T08:45:11.000Z</time>
      </trkpt>
      <trkpt lat="43.60337" lon="1.19425">
        <ele>227.60000610352</ele>
        <time>2015-02-01T08:45:17.000Z</time>
      </trkpt>
      <trkpt lat="43.6034" lon="1.19439">
        <ele>227.60000610352</ele>
        <time>2015-02-01T08:45:22.000Z</time>
      </trkpt>
      <trkpt lat="43.60344" lon="1.19456">
        <ele>227.60000610352</ele>
        <time>2015-02-01T08:45:27.000Z</time>
      </trkpt>
      <trkpt lat="43.60347" lon="1.19464">
        <ele>227.80000305176</ele>
        <time>2015-02-01T08:45:30.000Z</time>
      </trkpt>
      <trkpt lat="43.60349" lon="1.19487">
        <ele>227.60000610352</ele>
        <time>2015-02-01T08:45:37.000Z</time>
      </trkpt>
      <trkpt lat="43.60344" lon="1.19507">
        <ele>227.19999694824</ele>
        <time>2015-02-01T08:45:43.000Z</time>
      </trkpt>
      <trkpt lat="43.60343" lon="1.19515">
        <ele>227</ele>
        <time>2015-02-01T08:45:45.000Z</time>
      </trkpt>
      <trkpt lat="43.6034" lon="1.19528">
        <ele>226.60000610352</ele>
        <time>2015-02-01T08:45:50.000Z</time>
      </trkpt>
      <trkpt lat="43.60339" lon="1.19532">
        <ele>226.60000610352</ele>
        <time>2015-02-01T08:45:51.000Z</time>
      </trkpt>
      <trkpt lat="43.60338" lon="1.19551">
        <ele>226.19999694824</ele>
        <time>2015-02-01T08:45:57.000Z</time>
      </trkpt>
      <trkpt lat="43.60336" lon="1.19568">
        <ele>225.39999389648</ele>
        <time>2015-02-01T08:46:02.000Z</time>
      </trkpt>
      <trkpt lat="43.60334" lon="1.19591">
        <ele>224</ele>
        <time>2015-02-01T08:46:09.000Z</time>
      </trkpt>
      <trkpt lat="43.60331" lon="1.19606">
        <ele>223</ele>
        <time>2015-02-01T08:46:14.000Z</time>
      </trkpt>
      <trkpt lat="43.60327" lon="1.19627">
        <ele>221.39999389648</ele>
        <time>2015-02-01T08:46:20.000Z</time>
      </trkpt>
      <trkpt lat="43.60326" lon="1.19647">
        <ele>220.39999389648</ele>
        <time>2015-02-01T08:46:26.000Z</time>
      </trkpt>
      <trkpt lat="43.60326" lon="1.1965">
        <ele>220.19999694824</ele>
        <time>2015-02-01T08:46:27.000Z</time>
      </trkpt>
      <trkpt lat="43.60327" lon="1.19661">
        <ele>220.19999694824</ele>
        <time>2015-02-01T08:46:31.000Z</time>
      </trkpt>
      <trkpt lat="43.60328" lon="1.19685">
        <ele>220.19999694824</ele>
        <time>2015-02-01T08:46:38.000Z</time>
      </trkpt>
      <trkpt lat="43.60328" lon="1.19703">
        <ele>220</ele>
        <time>2015-02-01T08:46:43.000Z</time>
      </trkpt>
      <trkpt lat="43.60329" lon="1.1972">
        <ele>220</ele>
        <time>2015-02-01T08:46:48.000Z</time>
      </trkpt>
      <trkpt lat="43.60328" lon="1.19723">
        <ele>219.80000305176</ele>
        <time>2015-02-01T08:46:49.000Z</time>
      </trkpt>
      <trkpt lat="43.60328" lon="1.19738">
        <ele>219.80000305176</ele>
        <time>2015-02-01T08:46:53.000Z</time>
      </trkpt>
      <trkpt lat="43.6033" lon="1.19759">
        <ele>220</ele>
        <time>2015-02-01T08:46:59.000Z</time>
      </trkpt>
      <trkpt lat="43.60328" lon="1.19787">
        <ele>220</ele>
        <time>2015-02-01T08:47:06.000Z</time>
      </trkpt>
      <trkpt lat="43.60326" lon="1.19808">
        <ele>219.39999389648</ele>
        <time>2015-02-01T08:47:12.000Z</time>
      </trkpt>
      <trkpt lat="43.60325" lon="1.19828">
        <ele>217.60000610352</ele>
        <time>2015-02-01T08:47:18.000Z</time>
      </trkpt>
      <trkpt lat="43.60324" lon="1.19837">
        <ele>216.60000610352</ele>
        <time>2015-02-01T08:47:21.000Z</time>
      </trkpt>
      <trkpt lat="43.60328" lon="1.19858">
        <ele>215</ele>
        <time>2015-02-01T08:47:27.000Z</time>
      </trkpt>
      <trkpt lat="43.60333" lon="1.19874">
        <ele>214.19999694824</ele>
        <time>2015-02-01T08:47:32.000Z</time>
      </trkpt>
      <trkpt lat="43.60336" lon="1.19881">
        <ele>214.19999694824</ele>
        <time>2015-02-01T08:47:34.000Z</time>
      </trkpt>
      <trkpt lat="43.60344" lon="1.19892">
        <ele>214.39999389648</ele>
        <time>2015-02-01T08:47:39.000Z</time>
      </trkpt>
      <trkpt lat="43.6035" lon="1.19899">
        <ele>214.60000610352</ele>
        <time>2015-02-01T08:47:44.000Z</time>
      </trkpt>
      <trkpt lat="43.60352" lon="1.19901">
        <ele>214.39999389648</ele>
        <time>2015-02-01T08:47:45.000Z</time>
      </trkpt>
      <trkpt lat="43.60359" lon="1.19909">
        <ele>214.39999389648</ele>
        <time>2015-02-01T08:47:50.000Z</time>
      </trkpt>
      <trkpt lat="43.60363" lon="1.19912">
        <ele>214.39999389648</ele>
        <time>2015-02-01T08:47:52.000Z</time>
      </trkpt>
      <trkpt lat="43.60373" lon="1.19924">
        <ele>214</ele>
        <time>2015-02-01T08:47:58.000Z</time>
      </trkpt>
      <trkpt lat="43.60375" lon="1.19926">
        <ele>214</ele>
        <time>2015-02-01T08:47:59.000Z</time>
      </trkpt>
      <trkpt lat="43.60378" lon="1.19931">
        <ele>213.80000305176</ele>
        <time>2015-02-01T08:48:01.000Z</time>
      </trkpt>
      <trkpt lat="43.60385" lon="1.19942">
        <ele>213.19999694824</ele>
        <time>2015-02-01T08:48:06.000Z</time>
      </trkpt>
      <trkpt lat="43.60386" lon="1.19944">
        <ele>213.19999694824</ele>
        <time>2015-02-01T08:48:07.000Z</time>
      </trkpt>
      <trkpt lat="43.60388" lon="1.19946">
        <ele>213.19999694824</ele>
        <time>2015-02-01T08:48:08.000Z</time>
      </trkpt>
      <trkpt lat="43.60394" lon="1.19954">
        <ele>212.80000305176</ele>
        <time>2015-02-01T08:48:12.000Z</time>
      </trkpt>
      <trkpt lat="43.60405" lon="1.19967">
        <ele>212.60000610352</ele>
        <time>2015-02-01T08:48:18.000Z</time>
      </trkpt>
      <trkpt lat="43.60424" lon="1.19985">
        <ele>212.39999389648</ele>
        <time>2015-02-01T08:48:28.000Z</time>
      </trkpt>
      <trkpt lat="43.60434" lon="1.19997">
        <ele>212.19999694824</ele>
        <time>2015-02-01T08:48:33.000Z</time>
      </trkpt>
      <trkpt lat="43.60442" lon="1.20007">
        <ele>212.19999694824</ele>
        <time>2015-02-01T08:48:37.000Z</time>
      </trkpt>
      <trkpt lat="43.60455" lon="1.20021">
        <ele>212.39999389648</ele>
        <time>2015-02-01T08:48:43.000Z</time>
      </trkpt>
      <trkpt lat="43.60463" lon="1.20032">
        <ele>212.19999694824</ele>
        <time>2015-02-01T08:48:48.000Z</time>
      </trkpt>
      <trkpt lat="43.60464" lon="1.20035">
        <ele>212</ele>
        <time>2015-02-01T08:48:49.000Z</time>
      </trkpt>
      <trkpt lat="43.60476" lon="1.20051">
        <ele>212</ele>
        <time>2015-02-01T08:48:56.000Z</time>
      </trkpt>
      <trkpt lat="43.60483" lon="1.20058">
        <ele>212.19999694824</ele>
        <time>2015-02-01T08:48:59.000Z</time>
      </trkpt>
      <trkpt lat="43.60493" lon="1.20072">
        <ele>212.19999694824</ele>
        <time>2015-02-01T08:49:04.000Z</time>
      </trkpt>
      <trkpt lat="43.60495" lon="1.20074">
        <ele>212.19999694824</ele>
        <time>2015-02-01T08:49:05.000Z</time>
      </trkpt>
      <trkpt lat="43.60505" lon="1.20087">
        <ele>212.19999694824</ele>
        <time>2015-02-01T08:49:10.000Z</time>
      </trkpt>
      <trkpt lat="43.60512" lon="1.20094">
        <ele>212.60000610352</ele>
        <time>2015-02-01T08:49:14.000Z</time>
      </trkpt>
      <trkpt lat="43.60513" lon="1.20096">
        <ele>212.60000610352</ele>
        <time>2015-02-01T08:49:15.000Z</time>
      </trkpt>
      <trkpt lat="43.60525" lon="1.20109">
        <ele>212.80000305176</ele>
        <time>2015-02-01T08:49:20.000Z</time>
      </trkpt>
      <trkpt lat="43.60533" lon="1.20121">
        <ele>212.60000610352</ele>
        <time>2015-02-01T08:49:25.000Z</time>
      </trkpt>
      <trkpt lat="43.60543" lon="1.20141">
        <ele>212</ele>
        <time>2015-02-01T08:49:31.000Z</time>
      </trkpt>
      <trkpt lat="43.60549" lon="1.20157">
        <ele>211.39999389648</ele>
        <time>2015-02-01T08:49:36.000Z</time>
      </trkpt>
      <trkpt lat="43.60553" lon="1.20168">
        <ele>211</ele>
        <time>2015-02-01T08:49:40.000Z</time>
      </trkpt>
      <trkpt lat="43.60553" lon="1.20171">
        <ele>210.80000305176</ele>
        <time>2015-02-01T08:49:41.000Z</time>
      </trkpt>
      <trkpt lat="43.60557" lon="1.20184">
        <ele>210.39999389648</ele>
        <time>2015-02-01T08:49:45.000Z</time>
      </trkpt>
      <trkpt lat="43.60563" lon="1.20197">
        <ele>210.39999389648</ele>
        <time>2015-02-01T08:49:49.000Z</time>
      </trkpt>
      <trkpt lat="43.60569" lon="1.20211">
        <ele>210.19999694824</ele>
        <time>2015-02-01T08:49:53.000Z</time>
      </trkpt>
      <trkpt lat="43.60576" lon="1.20226">
        <ele>210.19999694824</ele>
        <time>2015-02-01T08:49:58.000Z</time>
      </trkpt>
      <trkpt lat="43.60584" lon="1.20237">
        <ele>210</ele>
        <time>2015-02-01T08:50:02.000Z</time>
      </trkpt>
      <trkpt lat="43.60591" lon="1.20252">
        <ele>209.60000610352</ele>
        <time>2015-02-01T08:50:07.000Z</time>
      </trkpt>
      <trkpt lat="43.60596" lon="1.20261">
        <ele>209.19999694824</ele>
        <time>2015-02-01T08:50:10.000Z</time>
      </trkpt>
      <trkpt lat="43.60606" lon="1.20282">
        <ele>208.60000610352</ele>
        <time>2015-02-01T08:50:17.000Z</time>
      </trkpt>
      <trkpt lat="43.60618" lon="1.20299">
        <ele>208.39999389648</ele>
        <time>2015-02-01T08:50:24.000Z</time>
      </trkpt>
      <trkpt lat="43.60622" lon="1.20302">
        <ele>208.60000610352</ele>
        <time>2015-02-01T08:50:26.000Z</time>
      </trkpt>
      <trkpt lat="43.60625" lon="1.20304">
        <ele>208.80000305176</ele>
        <time>2015-02-01T08:50:28.000Z</time>
      </trkpt>
      <trkpt lat="43.60631" lon="1.20317">
        <ele>208.60000610352</ele>
        <time>2015-02-01T08:50:33.000Z</time>
      </trkpt>
      <trkpt lat="43.60637" lon="1.20326">
        <ele>208.80000305176</ele>
        <time>2015-02-01T08:50:37.000Z</time>
      </trkpt>
      <trkpt lat="43.60638" lon="1.20328">
        <ele>208.80000305176</ele>
        <time>2015-02-01T08:50:38.000Z</time>
      </trkpt>
      <trkpt lat="43.60648" lon="1.2034">
        <ele>209</ele>
        <time>2015-02-01T08:50:44.000Z</time>
      </trkpt>
      <trkpt lat="43.60655" lon="1.20349">
        <ele>209.19999694824</ele>
        <time>2015-02-01T08:50:48.000Z</time>
      </trkpt>
      <trkpt lat="43.60667" lon="1.20357">
        <ele>210</ele>
        <time>2015-02-01T08:50:54.000Z</time>
      </trkpt>
      <trkpt lat="43.60677" lon="1.20362">
        <ele>210.80000305176</ele>
        <time>2015-02-01T08:50:58.000Z</time>
      </trkpt>
      <trkpt lat="43.60689" lon="1.20365">
        <ele>211.80000305176</ele>
        <time>2015-02-01T08:51:03.000Z</time>
      </trkpt>
      <trkpt lat="43.60691" lon="1.20366">
        <ele>212</ele>
        <time>2015-02-01T08:51:04.000Z</time>
      </trkpt>
      <trkpt lat="43.60701" lon="1.20369">
        <ele>213</ele>
        <time>2015-02-01T08:51:09.000Z</time>
      </trkpt>
      <trkpt lat="43.60706" lon="1.20371">
        <ele>213.39999389648</ele>
        <time>2015-02-01T08:51:11.000Z</time>
      </trkpt>
      <trkpt lat="43.60713" lon="1.20379">
        <ele>213.80000305176</ele>
        <time>2015-02-01T08:51:16.000Z</time>
      </trkpt>
      <trkpt lat="43.60727" lon="1.20389">
        <ele>214.80000305176</ele>
        <time>2015-02-01T08:51:21.000Z</time>
      </trkpt>
      <trkpt lat="43.60745" lon="1.20398">
        <ele>216.19999694824</ele>
        <time>2015-02-01T08:51:28.000Z</time>
      </trkpt>
      <trkpt lat="43.60757" lon="1.20402">
        <ele>217.39999389648</ele>
        <time>2015-02-01T08:51:34.000Z</time>
      </trkpt>
      <trkpt lat="43.60765" lon="1.20396">
        <ele>218.60000610352</ele>
        <time>2015-02-01T08:51:38.000Z</time>
      </trkpt>
      <trkpt lat="43.60772" lon="1.20383">
        <ele>218.60000610352</ele>
        <time>2015-02-01T08:51:43.000Z</time>
      </trkpt>
      <trkpt lat="43.60778" lon="1.20369">
        <ele>218.39999389648</ele>
        <time>2015-02-01T08:51:48.000Z</time>
      </trkpt>
      <trkpt lat="43.60787" lon="1.20354">
        <ele>218.19999694824</ele>
        <time>2015-02-01T08:51:54.000Z</time>
      </trkpt>
      <trkpt lat="43.60791" lon="1.20347">
        <ele>218</ele>
        <time>2015-02-01T08:51:57.000Z</time>
      </trkpt>
      <trkpt lat="43.60797" lon="1.20335">
        <ele>218.19999694824</ele>
        <time>2015-02-01T08:52:02.000Z</time>
      </trkpt>
      <trkpt lat="43.60804" lon="1.20324">
        <ele>218.80000305176</ele>
        <time>2015-02-01T08:52:07.000Z</time>
      </trkpt>
      <trkpt lat="43.60807" lon="1.20314">
        <ele>219.19999694824</ele>
        <time>2015-02-01T08:52:11.000Z</time>
      </trkpt>
      <trkpt lat="43.6081" lon="1.20302">
        <ele>219.60000610352</ele>
        <time>2015-02-01T08:52:15.000Z</time>
      </trkpt>
      <trkpt lat="43.60818" lon="1.20282">
        <ele>220.19999694824</ele>
        <time>2015-02-01T08:52:22.000Z</time>
      </trkpt>
      <trkpt lat="43.60825" lon="1.20264">
        <ele>221.60000610352</ele>
        <time>2015-02-01T08:52:28.000Z</time>
      </trkpt>
      <trkpt lat="43.6083" lon="1.20252">
        <ele>222.60000610352</ele>
        <time>2015-02-01T08:52:32.000Z</time>
      </trkpt>
      <trkpt lat="43.60839" lon="1.20233">
        <ele>224.19999694824</ele>
        <time>2015-02-01T08:52:39.000Z</time>
      </trkpt>
      <trkpt lat="43.60844" lon="1.2022">
        <ele>225.60000610352</ele>
        <time>2015-02-01T08:52:44.000Z</time>
      </trkpt>
      <trkpt lat="43.60851" lon="1.20207">
        <ele>227.19999694824</ele>
        <time>2015-02-01T08:52:49.000Z</time>
      </trkpt>
      <trkpt lat="43.60857" lon="1.20194">
        <ele>228.60000610352</ele>
        <time>2015-02-01T08:52:54.000Z</time>
      </trkpt>
      <trkpt lat="43.60863" lon="1.20181">
        <ele>230</ele>
        <time>2015-02-01T08:52:59.000Z</time>
      </trkpt>
      <trkpt lat="43.6087" lon="1.20166">
        <ele>231.39999389648</ele>
        <time>2015-02-01T08:53:05.000Z</time>
      </trkpt>
      <trkpt lat="43.60877" lon="1.2015">
        <ele>233.60000610352</ele>
        <time>2015-02-01T08:53:11.000Z</time>
      </trkpt>
      <trkpt lat="43.60884" lon="1.20135">
        <ele>235.39999389648</ele>
        <time>2015-02-01T08:53:17.000Z</time>
      </trkpt>
      <trkpt lat="43.6089" lon="1.20118">
        <ele>237.19999694824</ele>
        <time>2015-02-01T08:53:23.000Z</time>
      </trkpt>
      <trkpt lat="43.60897" lon="1.20102">
        <ele>239</ele>
        <time>2015-02-01T08:53:29.000Z</time>
      </trkpt>
      <trkpt lat="43.60903" lon="1.20089">
        <ele>240.19999694824</ele>
        <time>2015-02-01T08:53:34.000Z</time>
      </trkpt>
      <trkpt lat="43.60909" lon="1.20076">
        <ele>241.39999389648</ele>
        <time>2015-02-01T08:53:39.000Z</time>
      </trkpt>
      <trkpt lat="43.60915" lon="1.20063">
        <ele>242.80000305176</ele>
        <time>2015-02-01T08:53:45.000Z</time>
      </trkpt>
      <trkpt lat="43.60921" lon="1.20048">
        <ele>245</ele>
        <time>2015-02-01T08:53:51.000Z</time>
      </trkpt>
      <trkpt lat="43.60928" lon="1.20033">
        <ele>245.60000610352</ele>
        <time>2015-02-01T08:53:57.000Z</time>
      </trkpt>
      <trkpt lat="43.60931" lon="1.20023">
        <ele>245.80000305176</ele>
        <time>2015-02-01T08:54:02.000Z</time>
      </trkpt>
      <trkpt lat="43.60931" lon="1.20021">
        <ele>245.80000305176</ele>
        <time>2015-02-01T08:54:04.000Z</time>
      </trkpt>
      <trkpt lat="43.60931" lon="1.2002">
        <ele>246</ele>
        <time>2015-02-01T08:54:11.000Z</time>
      </trkpt>
      <trkpt lat="43.60925" lon="1.20012">
        <ele>246</ele>
        <time>2015-02-01T08:55:03.000Z</time>
      </trkpt>
      <trkpt lat="43.60913" lon="1.20004">
        <ele>245.80000305176</ele>
        <time>2015-02-01T08:55:11.000Z</time>
      </trkpt>
      <trkpt lat="43.6089" lon="1.19984">
        <ele>245.80000305176</ele>
        <time>2015-02-01T08:55:24.000Z</time>
      </trkpt>
      <trkpt lat="43.60881" lon="1.19978">
        <ele>245.80000305176</ele>
        <time>2015-02-01T08:55:29.000Z</time>
      </trkpt>
      <trkpt lat="43.60874" lon="1.1997">
        <ele>245.80000305176</ele>
        <time>2015-02-01T08:55:34.000Z</time>
      </trkpt>
      <trkpt lat="43.60872" lon="1.19969">
        <ele>245.80000305176</ele>
        <time>2015-02-01T08:55:35.000Z</time>
      </trkpt>
      <trkpt lat="43.60862" lon="1.19961">
        <ele>245.80000305176</ele>
        <time>2015-02-01T08:55:40.000Z</time>
      </trkpt>
      <trkpt lat="43.60853" lon="1.19956">
        <ele>245.80000305176</ele>
        <time>2015-02-01T08:55:44.000Z</time>
      </trkpt>
      <trkpt lat="43.60842" lon="1.19947">
        <ele>245.60000610352</ele>
        <time>2015-02-01T08:55:49.000Z</time>
      </trkpt>
      <trkpt lat="43.60836" lon="1.19942">
        <ele>245.39999389648</ele>
        <time>2015-02-01T08:55:52.000Z</time>
      </trkpt>
      <trkpt lat="43.60822" lon="1.1993">
        <ele>245</ele>
        <time>2015-02-01T08:55:59.000Z</time>
      </trkpt>
      <trkpt lat="43.60814" lon="1.19922">
        <ele>244.80000305176</ele>
        <time>2015-02-01T08:56:03.000Z</time>
      </trkpt>
      <trkpt lat="43.60805" lon="1.19914">
        <ele>244.60000610352</ele>
        <time>2015-02-01T08:56:07.000Z</time>
      </trkpt>
      <trkpt lat="43.60795" lon="1.19903">
        <ele>244.39999389648</ele>
        <time>2015-02-01T08:56:12.000Z</time>
      </trkpt>
      <trkpt lat="43.60791" lon="1.199">
        <ele>244.19999694824</ele>
        <time>2015-02-01T08:56:14.000Z</time>
      </trkpt>
      <trkpt lat="43.60778" lon="1.1989">
        <ele>243.80000305176</ele>
        <time>2015-02-01T08:56:20.000Z</time>
      </trkpt>
      <trkpt lat="43.60763" lon="1.19879">
        <ele>243.60000610352</ele>
        <time>2015-02-01T08:56:27.000Z</time>
      </trkpt>
      <trkpt lat="43.60746" lon="1.19867">
        <ele>243.80000305176</ele>
        <time>2015-02-01T08:56:34.000Z</time>
      </trkpt>
      <trkpt lat="43.60729" lon="1.19854">
        <ele>244</ele>
        <time>2015-02-01T08:56:41.000Z</time>
      </trkpt>
      <trkpt lat="43.60713" lon="1.19841">
        <ele>244.39999389648</ele>
        <time>2015-02-01T08:56:48.000Z</time>
      </trkpt>
      <trkpt lat="43.60699" lon="1.19829">
        <ele>244.60000610352</ele>
        <time>2015-02-01T08:56:54.000Z</time>
      </trkpt>
      <trkpt lat="43.60683" lon="1.19815">
        <ele>244.60000610352</ele>
        <time>2015-02-01T08:57:01.000Z</time>
      </trkpt>
      <trkpt lat="43.60668" lon="1.19804">
        <ele>244.19999694824</ele>
        <time>2015-02-01T08:57:07.000Z</time>
      </trkpt>
      <trkpt lat="43.60657" lon="1.19795">
        <ele>243.80000305176</ele>
        <time>2015-02-01T08:57:12.000Z</time>
      </trkpt>
      <trkpt lat="43.60644" lon="1.19784">
        <ele>243.60000610352</ele>
        <time>2015-02-01T08:57:18.000Z</time>
      </trkpt>
      <trkpt lat="43.60626" lon="1.1977">
        <ele>243.39999389648</ele>
        <time>2015-02-01T08:57:26.000Z</time>
      </trkpt>
      <trkpt lat="43.60616" lon="1.19761">
        <ele>243.19999694824</ele>
        <time>2015-02-01T08:57:31.000Z</time>
      </trkpt>
      <trkpt lat="43.606" lon="1.19748">
        <ele>243.19999694824</ele>
        <time>2015-02-01T08:57:39.000Z</time>
      </trkpt>
      <trkpt lat="43.6059" lon="1.19739">
        <ele>243.80000305176</ele>
        <time>2015-02-01T08:57:44.000Z</time>
      </trkpt>
      <trkpt lat="43.60583" lon="1.19732">
        <ele>244.39999389648</ele>
        <time>2015-02-01T08:57:48.000Z</time>
      </trkpt>
      <trkpt lat="43.60577" lon="1.19727">
        <ele>244.80000305176</ele>
        <time>2015-02-01T08:57:51.000Z</time>
      </trkpt>
      <trkpt lat="43.60566" lon="1.19717">
        <ele>245</ele>
        <time>2015-02-01T08:57:57.000Z</time>
      </trkpt>
      <trkpt lat="43.60556" lon="1.1971">
        <ele>245.19999694824</ele>
        <time>2015-02-01T08:58:02.000Z</time>
      </trkpt>
      <trkpt lat="43.60547" lon="1.19701">
        <ele>245.39999389648</ele>
        <time>2015-02-01T08:58:07.000Z</time>
      </trkpt>
      <trkpt lat="43.60535" lon="1.19691">
        <ele>245.60000610352</ele>
        <time>2015-02-01T08:58:13.000Z</time>
      </trkpt>
      <trkpt lat="43.60521" lon="1.19682">
        <ele>245.80000305176</ele>
        <time>2015-02-01T08:58:20.000Z</time>
      </trkpt>
      <trkpt lat="43.60508" lon="1.19669">
        <ele>244.80000305176</ele>
        <time>2015-02-01T08:58:27.000Z</time>
      </trkpt>
      <trkpt lat="43.60504" lon="1.19661">
        <ele>244.60000610352</ele>
        <time>2015-02-01T08:58:30.000Z</time>
      </trkpt>
      <trkpt lat="43.60506" lon="1.19646">
        <ele>245.39999389648</ele>
        <time>2015-02-01T08:58:35.000Z</time>
      </trkpt>
      <trkpt lat="43.60515" lon="1.19628">
        <ele>247</ele>
        <time>2015-02-01T08:58:42.000Z</time>
      </trkpt>
      <trkpt lat="43.6052" lon="1.19613">
        <ele>248.19999694824</ele>
        <time>2015-02-01T08:58:47.000Z</time>
      </trkpt>
      <trkpt lat="43.60527" lon="1.19594">
        <ele>249</ele>
        <time>2015-02-01T08:58:53.000Z</time>
      </trkpt>
      <trkpt lat="43.60535" lon="1.19576">
        <ele>249.60000610352</ele>
        <time>2015-02-01T08:58:59.000Z</time>
      </trkpt>
      <trkpt lat="43.60541" lon="1.19563">
        <ele>249.80000305176</ele>
        <time>2015-02-01T08:59:03.000Z</time>
      </trkpt>
      <trkpt lat="43.60545" lon="1.1955">
        <ele>249.80000305176</ele>
        <time>2015-02-01T08:59:07.000Z</time>
      </trkpt>
      <trkpt lat="43.60553" lon="1.19531">
        <ele>250</ele>
        <time>2015-02-01T08:59:13.000Z</time>
      </trkpt>
      <trkpt lat="43.60562" lon="1.19506">
        <ele>250.19999694824</ele>
        <time>2015-02-01T08:59:21.000Z</time>
      </trkpt>
      <trkpt lat="43.60557" lon="1.19498">
        <ele>250.39999389648</ele>
        <time>2015-02-01T08:59:24.000Z</time>
      </trkpt>
      <trkpt lat="43.6054" lon="1.19482">
        <ele>250.60000610352</ele>
        <time>2015-02-01T08:59:31.000Z</time>
      </trkpt>
      <trkpt lat="43.60526" lon="1.19471">
        <ele>250.80000305176</ele>
        <time>2015-02-01T08:59:37.000Z</time>
      </trkpt>
      <trkpt lat="43.60507" lon="1.19456">
        <ele>249.19999694824</ele>
        <time>2015-02-01T08:59:43.000Z</time>
      </trkpt>
      <trkpt lat="43.60492" lon="1.19444">
        <ele>247</ele>
        <time>2015-02-01T08:59:48.000Z</time>
      </trkpt>
      <trkpt lat="43.60481" lon="1.1943">
        <ele>245.19999694824</ele>
        <time>2015-02-01T08:59:52.000Z</time>
      </trkpt>
      <trkpt lat="43.60469" lon="1.19424">
        <ele>243.80000305176</ele>
        <time>2015-02-01T08:59:55.000Z</time>
      </trkpt>
      <trkpt lat="43.60454" lon="1.19414">
        <ele>241.60000610352</ele>
        <time>2015-02-01T08:59:59.000Z</time>
      </trkpt>
      <trkpt lat="43.6045" lon="1.19412">
        <ele>241.19999694824</ele>
        <time>2015-02-01T09:00:00.000Z</time>
      </trkpt>
      <trkpt lat="43.6043" lon="1.19395">
        <ele>238.39999389648</ele>
        <time>2015-02-01T09:00:06.000Z</time>
      </trkpt>
      <trkpt lat="43.60416" lon="1.19384">
        <ele>237.60000610352</ele>
        <time>2015-02-01T09:00:10.000Z</time>
      </trkpt>
      <trkpt lat="43.60397" lon="1.19371">
        <ele>236.60000610352</ele>
        <time>2015-02-01T09:00:16.000Z</time>
      </trkpt>
      <trkpt lat="43.60382" lon="1.19356">
        <ele>236</ele>
        <time>2015-02-01T09:00:21.000Z</time>
      </trkpt>
      <trkpt lat="43.60367" lon="1.19344">
        <ele>235.39999389648</ele>
        <time>2015-02-01T09:00:26.000Z</time>
      </trkpt>
      <trkpt lat="43.60356" lon="1.19332">
        <ele>235</ele>
        <time>2015-02-01T09:00:31.000Z</time>
      </trkpt>
      <trkpt lat="43.60355" lon="1.19329">
        <ele>235.19999694824</ele>
        <time>2015-02-01T09:00:32.000Z</time>
      </trkpt>
      <trkpt lat="43.60357" lon="1.19318">
        <ele>236</ele>
        <time>2015-02-01T09:00:36.000Z</time>
      </trkpt>
      <trkpt lat="43.60355" lon="1.19305">
        <ele>236.39999389648</ele>
        <time>2015-02-01T09:00:41.000Z</time>
      </trkpt>
      <trkpt lat="43.60353" lon="1.19292">
        <ele>237</ele>
        <time>2015-02-01T09:00:46.000Z</time>
      </trkpt>
      <trkpt lat="43.60352" lon="1.19283">
        <ele>237.39999389648</ele>
        <time>2015-02-01T09:00:49.000Z</time>
      </trkpt>
      <trkpt lat="43.6035" lon="1.19266">
        <ele>238</ele>
        <time>2015-02-01T09:00:54.000Z</time>
      </trkpt>
      <trkpt lat="43.60352" lon="1.1925">
        <ele>239</ele>
        <time>2015-02-01T09:00:58.000Z</time>
      </trkpt>
      <trkpt lat="43.60358" lon="1.19226">
        <ele>240.19999694824</ele>
        <time>2015-02-01T09:01:04.000Z</time>
      </trkpt>
      <trkpt lat="43.60361" lon="1.19207">
        <ele>241</ele>
        <time>2015-02-01T09:01:09.000Z</time>
      </trkpt>
      <trkpt lat="43.60363" lon="1.19174">
        <ele>242.39999389648</ele>
        <time>2015-02-01T09:01:18.000Z</time>
      </trkpt>
      <trkpt lat="43.60358" lon="1.19161">
        <ele>242.60000610352</ele>
        <time>2015-02-01T09:01:23.000Z</time>
      </trkpt>
      <trkpt lat="43.60357" lon="1.19159">
        <ele>242.60000610352</ele>
        <time>2015-02-01T09:01:24.000Z</time>
      </trkpt>
      <trkpt lat="43.60354" lon="1.19153">
        <ele>242.80000305176</ele>
        <time>2015-02-01T09:01:28.000Z</time>
      </trkpt>
      <trkpt lat="43.60351" lon="1.19149">
        <ele>242.80000305176</ele>
        <time>2015-02-01T09:01:31.000Z</time>
      </trkpt>
      <trkpt lat="43.60347" lon="1.19139">
        <ele>242.80000305176</ele>
        <time>2015-02-01T09:01:38.000Z</time>
      </trkpt>
      <trkpt lat="43.60341" lon="1.19132">
        <ele>242.60000610352</ele>
        <time>2015-02-01T09:01:44.000Z</time>
      </trkpt>
      <trkpt lat="43.6034" lon="1.19129">
        <ele>242.60000610352</ele>
        <time>2015-02-01T09:01:47.000Z</time>
      </trkpt>
      <trkpt lat="43.60334" lon="1.19123">
        <ele>242.39999389648</ele>
        <time>2015-02-01T09:01:52.000Z</time>
      </trkpt>
      <trkpt lat="43.60323" lon="1.19107">
        <ele>242.19999694824</ele>
        <time>2015-02-01T09:01:58.000Z</time>
      </trkpt>
      <trkpt lat="43.60315" lon="1.19099">
        <ele>242</ele>
        <time>2015-02-01T09:02:02.000Z</time>
      </trkpt>
      <trkpt lat="43.60311" lon="1.19082">
        <ele>242</ele>
        <time>2015-02-01T09:02:07.000Z</time>
      </trkpt>
      <trkpt lat="43.60311" lon="1.19075">
        <ele>242.19999694824</ele>
        <time>2015-02-01T09:02:09.000Z</time>
      </trkpt>
      <trkpt lat="43.60313" lon="1.19053">
        <ele>242.80000305176</ele>
        <time>2015-02-01T09:02:15.000Z</time>
      </trkpt>
      <trkpt lat="43.60314" lon="1.19035">
        <ele>243</ele>
        <time>2015-02-01T09:02:21.000Z</time>
      </trkpt>
      <trkpt lat="43.60315" lon="1.19032">
        <ele>243.19999694824</ele>
        <time>2015-02-01T09:02:22.000Z</time>
      </trkpt>
      <trkpt lat="43.60321" lon="1.19027">
        <ele>243.60000610352</ele>
        <time>2015-02-01T09:02:26.000Z</time>
      </trkpt>
      <trkpt lat="43.60323" lon="1.19025">
        <ele>244</ele>
        <time>2015-02-01T09:02:27.000Z</time>
      </trkpt>
      <trkpt lat="43.60327" lon="1.19015">
        <ele>244.80000305176</ele>
        <time>2015-02-01T09:02:32.000Z</time>
      </trkpt>
      <trkpt lat="43.60326" lon="1.19012">
        <ele>245</ele>
        <time>2015-02-01T09:02:34.000Z</time>
      </trkpt>
      <trkpt lat="43.60325" lon="1.19005">
        <ele>245.19999694824</ele>
        <time>2015-02-01T09:02:40.000Z</time>
      </trkpt>
      <trkpt lat="43.60325" lon="1.19002">
        <ele>245.19999694824</ele>
        <time>2015-02-01T09:02:41.000Z</time>
      </trkpt>
      <trkpt lat="43.60324" lon="1.18987">
        <ele>246</ele>
        <time>2015-02-01T09:02:46.000Z</time>
      </trkpt>
      <trkpt lat="43.60321" lon="1.18971">
        <ele>246.19999694824</ele>
        <time>2015-02-01T09:02:51.000Z</time>
      </trkpt>
      <trkpt lat="43.60319" lon="1.18953">
        <ele>246.19999694824</ele>
        <time>2015-02-01T09:02:56.000Z</time>
      </trkpt>
      <trkpt lat="43.60318" lon="1.18938">
        <ele>246</ele>
        <time>2015-02-01T09:03:01.000Z</time>
      </trkpt>
      <trkpt lat="43.60319" lon="1.18935">
        <ele>246</ele>
        <time>2015-02-01T09:03:02.000Z</time>
      </trkpt>
      <trkpt lat="43.60321" lon="1.18914">
        <ele>246</ele>
        <time>2015-02-01T09:03:10.000Z</time>
      </trkpt>
      <trkpt lat="43.60321" lon="1.18909">
        <ele>246</ele>
        <time>2015-02-01T09:03:12.000Z</time>
      </trkpt>
      <trkpt lat="43.60322" lon="1.18889">
        <ele>246.19999694824</ele>
        <time>2015-02-01T09:03:20.000Z</time>
      </trkpt>
      <trkpt lat="43.60323" lon="1.18877">
        <ele>247.19999694824</ele>
        <time>2015-02-01T09:03:26.000Z</time>
      </trkpt>
      <trkpt lat="43.60324" lon="1.18872">
        <ele>247.60000610352</ele>
        <time>2015-02-01T09:03:32.000Z</time>
      </trkpt>
      <trkpt lat="43.60324" lon="1.18871">
        <ele>247.80000305176</ele>
        <time>2015-02-01T09:03:33.000Z</time>
      </trkpt>
      <trkpt lat="43.60327" lon="1.18868">
        <ele>248.19999694824</ele>
        <time>2015-02-01T09:03:37.000Z</time>
      </trkpt>
      <trkpt lat="43.60328" lon="1.18866">
        <ele>248.39999389648</ele>
        <time>2015-02-01T09:03:39.000Z</time>
      </trkpt>
      <trkpt lat="43.60332" lon="1.18858">
        <ele>249</ele>
        <time>2015-02-01T09:03:46.000Z</time>
      </trkpt>
      <trkpt lat="43.60336" lon="1.1885">
        <ele>249.80000305176</ele>
        <time>2015-02-01T09:03:53.000Z</time>
      </trkpt>
      <trkpt lat="43.60339" lon="1.18842">
        <ele>250.39999389648</ele>
        <time>2015-02-01T09:03:58.000Z</time>
      </trkpt>
      <trkpt lat="43.60344" lon="1.1883">
        <ele>251.39999389648</ele>
        <time>2015-02-01T09:04:03.000Z</time>
      </trkpt>
      <trkpt lat="43.60353" lon="1.1881">
        <ele>253</ele>
        <time>2015-02-01T09:04:10.000Z</time>
      </trkpt>
      <trkpt lat="43.60359" lon="1.18791">
        <ele>253.60000610352</ele>
        <time>2015-02-01T09:04:16.000Z</time>
      </trkpt>
      <trkpt lat="43.60365" lon="1.18771">
        <ele>254.19999694824</ele>
        <time>2015-02-01T09:04:23.000Z</time>
      </trkpt>
      <trkpt lat="43.60372" lon="1.18753">
        <ele>254.60000610352</ele>
        <time>2015-02-01T09:04:29.000Z</time>
      </trkpt>
      <trkpt lat="43.6038" lon="1.18739">
        <ele>255.19999694824</ele>
        <time>2015-02-01T09:04:35.000Z</time>
      </trkpt>
      <trkpt lat="43.6038" lon="1.18732">
        <ele>255.60000610352</ele>
        <time>2015-02-01T09:04:39.000Z</time>
      </trkpt>
      <trkpt lat="43.60387" lon="1.18736">
        <ele>255.60000610352</ele>
        <time>2015-02-01T09:04:52.000Z</time>
      </trkpt>
      <trkpt lat="43.60402" lon="1.18747">
        <ele>255.60000610352</ele>
        <time>2015-02-01T09:04:59.000Z</time>
      </trkpt>
      <trkpt lat="43.60414" lon="1.18756">
        <ele>255.60000610352</ele>
        <time>2015-02-01T09:05:04.000Z</time>
      </trkpt>
      <trkpt lat="43.60428" lon="1.18767">
        <ele>255.39999389648</ele>
        <time>2015-02-01T09:05:10.000Z</time>
      </trkpt>
      <trkpt lat="43.6044" lon="1.18776">
        <ele>255.19999694824</ele>
        <time>2015-02-01T09:05:15.000Z</time>
      </trkpt>
      <trkpt lat="43.60456" lon="1.18789">
        <ele>254</ele>
        <time>2015-02-01T09:05:22.000Z</time>
      </trkpt>
      <trkpt lat="43.60472" lon="1.18804">
        <ele>253</ele>
        <time>2015-02-01T09:05:29.000Z</time>
      </trkpt>
      <trkpt lat="43.60499" lon="1.18822">
        <ele>251.60000610352</ele>
        <time>2015-02-01T09:05:40.000Z</time>
      </trkpt>
      <trkpt lat="43.60509" lon="1.18827">
        <ele>251.19999694824</ele>
        <time>2015-02-01T09:05:44.000Z</time>
      </trkpt>
      <trkpt lat="43.6051" lon="1.18827">
        <ele>251.19999694824</ele>
        <time>2015-02-01T09:05:45.000Z</time>
      </trkpt>
      <trkpt lat="43.60519" lon="1.18823">
        <ele>250.80000305176</ele>
        <time>2015-02-01T09:05:50.000Z</time>
      </trkpt>
      <trkpt lat="43.60524" lon="1.18818">
        <ele>251.19999694824</ele>
        <time>2015-02-01T09:05:53.000Z</time>
      </trkpt>
      <trkpt lat="43.60533" lon="1.18806">
        <ele>251</ele>
        <time>2015-02-01T09:05:59.000Z</time>
      </trkpt>
      <trkpt lat="43.6054" lon="1.1879">
        <ele>250.80000305176</ele>
        <time>2015-02-01T09:06:04.000Z</time>
      </trkpt>
      <trkpt lat="43.60542" lon="1.18781">
        <ele>250.60000610352</ele>
        <time>2015-02-01T09:06:07.000Z</time>
      </trkpt>
      <trkpt lat="43.60543" lon="1.18765">
        <ele>250.39999389648</ele>
        <time>2015-02-01T09:06:12.000Z</time>
      </trkpt>
      <trkpt lat="43.60545" lon="1.18763">
        <ele>250.39999389648</ele>
        <time>2015-02-01T09:06:13.000Z</time>
      </trkpt>
      <trkpt lat="43.60552" lon="1.18754">
        <ele>250.60000610352</ele>
        <time>2015-02-01T09:06:18.000Z</time>
      </trkpt>
      <trkpt lat="43.60561" lon="1.18736">
        <ele>251</ele>
        <time>2015-02-01T09:06:26.000Z</time>
      </trkpt>
      <trkpt lat="43.60565" lon="1.18718">
        <ele>252.19999694824</ele>
        <time>2015-02-01T09:06:31.000Z</time>
      </trkpt>
      <trkpt lat="43.60571" lon="1.18703">
        <ele>253.60000610352</ele>
        <time>2015-02-01T09:06:36.000Z</time>
      </trkpt>
      <trkpt lat="43.60572" lon="1.18701">
        <ele>254</ele>
        <time>2015-02-01T09:06:37.000Z</time>
      </trkpt>
      <trkpt lat="43.60577" lon="1.18694">
        <ele>254.19999694824</ele>
        <time>2015-02-01T09:06:40.000Z</time>
      </trkpt>
      <trkpt lat="43.60578" lon="1.18669">
        <ele>255</ele>
        <time>2015-02-01T09:06:47.000Z</time>
      </trkpt>
      <trkpt lat="43.60583" lon="1.18646">
        <ele>255.60000610352</ele>
        <time>2015-02-01T09:06:54.000Z</time>
      </trkpt>
      <trkpt lat="43.6059" lon="1.18631">
        <ele>256.39999389648</ele>
        <time>2015-02-01T09:06:59.000Z</time>
      </trkpt>
      <trkpt lat="43.60597" lon="1.18619">
        <ele>257</ele>
        <time>2015-02-01T09:07:04.000Z</time>
      </trkpt>
      <trkpt lat="43.60601" lon="1.18594">
        <ele>258.60000610352</ele>
        <time>2015-02-01T09:07:12.000Z</time>
      </trkpt>
      <trkpt lat="43.60601" lon="1.18591">
        <ele>259</ele>
        <time>2015-02-01T09:07:13.000Z</time>
      </trkpt>
      <trkpt lat="43.60604" lon="1.18564">
        <ele>260.79998779297</ele>
        <time>2015-02-01T09:07:21.000Z</time>
      </trkpt>
      <trkpt lat="43.60606" lon="1.18527">
        <ele>264.20001220703</ele>
        <time>2015-02-01T09:07:32.000Z</time>
      </trkpt>
      <trkpt lat="43.60607" lon="1.18506">
        <ele>266.20001220703</ele>
        <time>2015-02-01T09:07:38.000Z</time>
      </trkpt>
      <trkpt lat="43.60613" lon="1.18484">
        <ele>268</ele>
        <time>2015-02-01T09:07:45.000Z</time>
      </trkpt>
      <trkpt lat="43.6062" lon="1.1847">
        <ele>268.39999389648</ele>
        <time>2015-02-01T09:07:50.000Z</time>
      </trkpt>
      <trkpt lat="43.60624" lon="1.18451">
        <ele>269.60000610352</ele>
        <time>2015-02-01T09:07:56.000Z</time>
      </trkpt>
      <trkpt lat="43.60624" lon="1.18434">
        <ele>271.20001220703</ele>
        <time>2015-02-01T09:08:01.000Z</time>
      </trkpt>
      <trkpt lat="43.60627" lon="1.18417">
        <ele>272.39999389648</ele>
        <time>2015-02-01T09:08:06.000Z</time>
      </trkpt>
      <trkpt lat="43.60629" lon="1.18407">
        <ele>272.79998779297</ele>
        <time>2015-02-01T09:08:09.000Z</time>
      </trkpt>
      <trkpt lat="43.60629" lon="1.18394">
        <ele>273.79998779297</ele>
        <time>2015-02-01T09:08:13.000Z</time>
      </trkpt>
      <trkpt lat="43.60627" lon="1.18368">
        <ele>274.79998779297</ele>
        <time>2015-02-01T09:08:21.000Z</time>
      </trkpt>
      <trkpt lat="43.60629" lon="1.18348">
        <ele>275.39999389648</ele>
        <time>2015-02-01T09:08:27.000Z</time>
      </trkpt>
      <trkpt lat="43.60632" lon="1.1833">
        <ele>276</ele>
        <time>2015-02-01T09:08:32.000Z</time>
      </trkpt>
      <trkpt lat="43.60638" lon="1.18303">
        <ele>277.39999389648</ele>
        <time>2015-02-01T09:08:40.000Z</time>
      </trkpt>
      <trkpt lat="43.60638" lon="1.18284">
        <ele>278.79998779297</ele>
        <time>2015-02-01T09:08:46.000Z</time>
      </trkpt>
      <trkpt lat="43.60639" lon="1.18263">
        <ele>280.20001220703</ele>
        <time>2015-02-01T09:08:52.000Z</time>
      </trkpt>
      <trkpt lat="43.60641" lon="1.18242">
        <ele>280.79998779297</ele>
        <time>2015-02-01T09:08:58.000Z</time>
      </trkpt>
      <trkpt lat="43.60641" lon="1.1822">
        <ele>281.20001220703</ele>
        <time>2015-02-01T09:09:04.000Z</time>
      </trkpt>
      <trkpt lat="43.60641" lon="1.18202">
        <ele>281.20001220703</ele>
        <time>2015-02-01T09:09:09.000Z</time>
      </trkpt>
      <trkpt lat="43.6063" lon="1.18167">
        <ele>282.60000610352</ele>
        <time>2015-02-01T09:09:21.000Z</time>
      </trkpt>
      <trkpt lat="43.60622" lon="1.18145">
        <ele>284</ele>
        <time>2015-02-01T09:09:29.000Z</time>
      </trkpt>
      <trkpt lat="43.60619" lon="1.18132">
        <ele>284.60000610352</ele>
        <time>2015-02-01T09:09:35.000Z</time>
      </trkpt>
      <trkpt lat="43.60618" lon="1.18122">
        <ele>285</ele>
        <time>2015-02-01T09:09:40.000Z</time>
      </trkpt>
      <trkpt lat="43.60614" lon="1.18115">
        <ele>285.39999389648</ele>
        <time>2015-02-01T09:09:46.000Z</time>
      </trkpt>
      <trkpt lat="43.60613" lon="1.18114">
        <ele>285.60000610352</ele>
        <time>2015-02-01T09:09:48.000Z</time>
      </trkpt>
      <trkpt lat="43.60612" lon="1.18114">
        <ele>285.60000610352</ele>
        <time>2015-02-01T09:09:50.000Z</time>
      </trkpt>
      <trkpt lat="43.60612" lon="1.18114">
        <ele>285.60000610352</ele>
        <time>2015-02-01T09:09:59.000Z</time>
      </trkpt>
      <trkpt lat="43.60611" lon="1.18113">
        <ele>285.79998779297</ele>
        <time>2015-02-01T09:10:05.000Z</time>
      </trkpt>
      <trkpt lat="43.60609" lon="1.18114">
        <ele>285.79998779297</ele>
        <time>2015-02-01T09:10:10.000Z</time>
      </trkpt>
      <trkpt lat="43.60608" lon="1.18116">
        <ele>285.79998779297</ele>
        <time>2015-02-01T09:10:17.000Z</time>
      </trkpt>
      <trkpt lat="43.60607" lon="1.18118">
        <ele>285.60000610352</ele>
        <time>2015-02-01T09:10:26.000Z</time>
      </trkpt>
      <trkpt lat="43.60606" lon="1.18121">
        <ele>285.60000610352</ele>
        <time>2015-02-01T09:10:31.000Z</time>
      </trkpt>
      <trkpt lat="43.60602" lon="1.18128">
        <ele>285.60000610352</ele>
        <time>2015-02-01T09:10:37.000Z</time>
      </trkpt>
      <trkpt lat="43.60601" lon="1.1813">
        <ele>285.60000610352</ele>
        <time>2015-02-01T09:10:43.000Z</time>
      </trkpt>
      <trkpt lat="43.606" lon="1.18133">
        <ele>285.39999389648</ele>
        <time>2015-02-01T09:10:57.000Z</time>
      </trkpt>
      <trkpt lat="43.60597" lon="1.18139">
        <ele>285.20001220703</ele>
        <time>2015-02-01T09:11:05.000Z</time>
      </trkpt>
      <trkpt lat="43.60588" lon="1.18159">
        <ele>285.60000610352</ele>
        <time>2015-02-01T09:11:25.000Z</time>
      </trkpt>
      <trkpt lat="43.60582" lon="1.18173">
        <ele>286</ele>
        <time>2015-02-01T09:11:30.000Z</time>
      </trkpt>
      <trkpt lat="43.60575" lon="1.18188">
        <ele>286.20001220703</ele>
        <time>2015-02-01T09:11:36.000Z</time>
      </trkpt>
      <trkpt lat="43.60568" lon="1.18209">
        <ele>286.39999389648</ele>
        <time>2015-02-01T09:11:43.000Z</time>
      </trkpt>
      <trkpt lat="43.60562" lon="1.18226">
        <ele>286.39999389648</ele>
        <time>2015-02-01T09:11:49.000Z</time>
      </trkpt>
      <trkpt lat="43.60556" lon="1.1824">
        <ele>285.79998779297</ele>
        <time>2015-02-01T09:11:54.000Z</time>
      </trkpt>
      <trkpt lat="43.60547" lon="1.1826">
        <ele>284.79998779297</ele>
        <time>2015-02-01T09:12:01.000Z</time>
      </trkpt>
      <trkpt lat="43.60543" lon="1.18268">
        <ele>284.79998779297</ele>
        <time>2015-02-01T09:12:04.000Z</time>
      </trkpt>
      <trkpt lat="43.60539" lon="1.18275">
        <ele>284.79998779297</ele>
        <time>2015-02-01T09:12:07.000Z</time>
      </trkpt>
      <trkpt lat="43.60533" lon="1.18288">
        <ele>284.79998779297</ele>
        <time>2015-02-01T09:12:12.000Z</time>
      </trkpt>
      <trkpt lat="43.60525" lon="1.1831">
        <ele>284.60000610352</ele>
        <time>2015-02-01T09:12:19.000Z</time>
      </trkpt>
      <trkpt lat="43.60518" lon="1.18327">
        <ele>284</ele>
        <time>2015-02-01T09:12:25.000Z</time>
      </trkpt>
      <trkpt lat="43.60512" lon="1.18342">
        <ele>283</ele>
        <time>2015-02-01T09:12:30.000Z</time>
      </trkpt>
      <trkpt lat="43.60504" lon="1.18362">
        <ele>281.79998779297</ele>
        <time>2015-02-01T09:12:37.000Z</time>
      </trkpt>
      <trkpt lat="43.60498" lon="1.18379">
        <ele>280.20001220703</ele>
        <time>2015-02-01T09:12:42.000Z</time>
      </trkpt>
      <trkpt lat="43.6049" lon="1.18398">
        <ele>276.39999389648</ele>
        <time>2015-02-01T09:12:48.000Z</time>
      </trkpt>
      <trkpt lat="43.60481" lon="1.1842">
        <ele>273.39999389648</ele>
        <time>2015-02-01T09:12:55.000Z</time>
      </trkpt>
      <trkpt lat="43.60472" lon="1.18439">
        <ele>270.60000610352</ele>
        <time>2015-02-01T09:13:01.000Z</time>
      </trkpt>
      <trkpt lat="43.60466" lon="1.18454">
        <ele>268.39999389648</ele>
        <time>2015-02-01T09:13:06.000Z</time>
      </trkpt>
      <trkpt lat="43.60458" lon="1.18473">
        <ele>265.60000610352</ele>
        <time>2015-02-01T09:13:12.000Z</time>
      </trkpt>
      <trkpt lat="43.60452" lon="1.18487">
        <ele>263.20001220703</ele>
        <time>2015-02-01T09:13:17.000Z</time>
      </trkpt>
      <trkpt lat="43.60441" lon="1.18513">
        <ele>262.20001220703</ele>
        <time>2015-02-01T09:13:25.000Z</time>
      </trkpt>
      <trkpt lat="43.6043" lon="1.18535">
        <ele>261.79998779297</ele>
        <time>2015-02-01T09:13:32.000Z</time>
      </trkpt>
      <trkpt lat="43.6042" lon="1.1856">
        <ele>261.20001220703</ele>
        <time>2015-02-01T09:13:39.000Z</time>
      </trkpt>
      <trkpt lat="43.6041" lon="1.1858">
        <ele>260.60000610352</ele>
        <time>2015-02-01T09:13:45.000Z</time>
      </trkpt>
      <trkpt lat="43.604" lon="1.18605">
        <ele>259.79998779297</ele>
        <time>2015-02-01T09:13:52.000Z</time>
      </trkpt>
      <trkpt lat="43.60393" lon="1.18622">
        <ele>258.79998779297</ele>
        <time>2015-02-01T09:13:57.000Z</time>
      </trkpt>
      <trkpt lat="43.60386" lon="1.18635">
        <ele>257.79998779297</ele>
        <time>2015-02-01T09:14:01.000Z</time>
      </trkpt>
      <trkpt lat="43.60378" lon="1.18654">
        <ele>256.39999389648</ele>
        <time>2015-02-01T09:14:07.000Z</time>
      </trkpt>
      <trkpt lat="43.60343" lon="1.1868">
        <ele>254.60000610352</ele>
        <time>2015-02-01T09:14:27.000Z</time>
      </trkpt>
      <trkpt lat="43.60333" lon="1.18672">
        <ele>254</ele>
        <time>2015-02-01T09:14:32.000Z</time>
      </trkpt>
      <trkpt lat="43.60318" lon="1.18663">
        <ele>253.39999389648</ele>
        <time>2015-02-01T09:14:38.000Z</time>
      </trkpt>
      <trkpt lat="43.60313" lon="1.18661">
        <ele>253.19999694824</ele>
        <time>2015-02-01T09:14:40.000Z</time>
      </trkpt>
      <trkpt lat="43.60303" lon="1.18649">
        <ele>252.60000610352</ele>
        <time>2015-02-01T09:14:46.000Z</time>
      </trkpt>
      <trkpt lat="43.60292" lon="1.18643">
        <ele>252.19999694824</ele>
        <time>2015-02-01T09:14:51.000Z</time>
      </trkpt>
      <trkpt lat="43.60283" lon="1.18637">
        <ele>251.80000305176</ele>
        <time>2015-02-01T09:14:55.000Z</time>
      </trkpt>
      <trkpt lat="43.60272" lon="1.1863">
        <ele>251.39999389648</ele>
        <time>2015-02-01T09:14:59.000Z</time>
      </trkpt>
      <trkpt lat="43.60258" lon="1.18619">
        <ele>251.39999389648</ele>
        <time>2015-02-01T09:15:05.000Z</time>
      </trkpt>
      <trkpt lat="43.60243" lon="1.18608">
        <ele>251.80000305176</ele>
        <time>2015-02-01T09:15:11.000Z</time>
      </trkpt>
      <trkpt lat="43.6022" lon="1.18591">
        <ele>252.19999694824</ele>
        <time>2015-02-01T09:15:21.000Z</time>
      </trkpt>
      <trkpt lat="43.60206" lon="1.18579">
        <ele>252.60000610352</ele>
        <time>2015-02-01T09:15:26.000Z</time>
      </trkpt>
      <trkpt lat="43.60192" lon="1.18569">
        <ele>252.80000305176</ele>
        <time>2015-02-01T09:15:31.000Z</time>
      </trkpt>
      <trkpt lat="43.60183" lon="1.18561">
        <ele>253.19999694824</ele>
        <time>2015-02-01T09:15:35.000Z</time>
      </trkpt>
      <trkpt lat="43.60172" lon="1.18553">
        <ele>254.19999694824</ele>
        <time>2015-02-01T09:15:40.000Z</time>
      </trkpt>
      <trkpt lat="43.60163" lon="1.18545">
        <ele>255</ele>
        <time>2015-02-01T09:15:44.000Z</time>
      </trkpt>
      <trkpt lat="43.60152" lon="1.18536">
        <ele>256.20001220703</ele>
        <time>2015-02-01T09:15:49.000Z</time>
      </trkpt>
      <trkpt lat="43.60139" lon="1.18524">
        <ele>257.39999389648</ele>
        <time>2015-02-01T09:15:55.000Z</time>
      </trkpt>
      <trkpt lat="43.60136" lon="1.18523">
        <ele>257.60000610352</ele>
        <time>2015-02-01T09:15:56.000Z</time>
      </trkpt>
      <trkpt lat="43.60129" lon="1.18518">
        <ele>258.20001220703</ele>
        <time>2015-02-01T09:15:59.000Z</time>
      </trkpt>
      <trkpt lat="43.60112" lon="1.18503">
        <ele>259.79998779297</ele>
        <time>2015-02-01T09:16:07.000Z</time>
      </trkpt>
      <trkpt lat="43.60101" lon="1.18494">
        <ele>260.79998779297</ele>
        <time>2015-02-01T09:16:12.000Z</time>
      </trkpt>
      <trkpt lat="43.60089" lon="1.18483">
        <ele>261</ele>
        <time>2015-02-01T09:16:18.000Z</time>
      </trkpt>
      <trkpt lat="43.60073" lon="1.1847">
        <ele>261.39999389648</ele>
        <time>2015-02-01T09:16:25.000Z</time>
      </trkpt>
      <trkpt lat="43.6006" lon="1.1846">
        <ele>261.39999389648</ele>
        <time>2015-02-01T09:16:31.000Z</time>
      </trkpt>
      <trkpt lat="43.60046" lon="1.1845">
        <ele>261.60000610352</ele>
        <time>2015-02-01T09:16:38.000Z</time>
      </trkpt>
      <trkpt lat="43.60036" lon="1.18442">
        <ele>261.79998779297</ele>
        <time>2015-02-01T09:16:43.000Z</time>
      </trkpt>
      <trkpt lat="43.60031" lon="1.18438">
        <ele>261.79998779297</ele>
        <time>2015-02-01T09:16:46.000Z</time>
      </trkpt>
      <trkpt lat="43.60025" lon="1.18424">
        <ele>262</ele>
        <time>2015-02-01T09:16:52.000Z</time>
      </trkpt>
      <trkpt lat="43.60024" lon="1.18421">
        <ele>262</ele>
        <time>2015-02-01T09:16:53.000Z</time>
      </trkpt>
      <trkpt lat="43.60026" lon="1.1841">
        <ele>262</ele>
        <time>2015-02-01T09:16:57.000Z</time>
      </trkpt>
      <trkpt lat="43.60031" lon="1.18396">
        <ele>261.60000610352</ele>
        <time>2015-02-01T09:17:02.000Z</time>
      </trkpt>
      <trkpt lat="43.60033" lon="1.18384">
        <ele>262</ele>
        <time>2015-02-01T09:17:06.000Z</time>
      </trkpt>
      <trkpt lat="43.60034" lon="1.18367">
        <ele>263</ele>
        <time>2015-02-01T09:17:12.000Z</time>
      </trkpt>
      <trkpt lat="43.60034" lon="1.18364">
        <ele>263.20001220703</ele>
        <time>2015-02-01T09:17:13.000Z</time>
      </trkpt>
      <trkpt lat="43.6004" lon="1.18347">
        <ele>264</ele>
        <time>2015-02-01T09:17:19.000Z</time>
      </trkpt>
      <trkpt lat="43.60041" lon="1.18332">
        <ele>264.79998779297</ele>
        <time>2015-02-01T09:17:24.000Z</time>
      </trkpt>
      <trkpt lat="43.60042" lon="1.18328">
        <ele>264.60000610352</ele>
        <time>2015-02-01T09:17:25.000Z</time>
      </trkpt>
      <trkpt lat="43.60046" lon="1.18319">
        <ele>264</ele>
        <time>2015-02-01T09:17:28.000Z</time>
      </trkpt>
      <trkpt lat="43.60066" lon="1.18284">
        <ele>263</ele>
        <time>2015-02-01T09:17:42.000Z</time>
      </trkpt>
      <trkpt lat="43.60068" lon="1.18282">
        <ele>262.79998779297</ele>
        <time>2015-02-01T09:17:43.000Z</time>
      </trkpt>
      <trkpt lat="43.6007" lon="1.18277">
        <ele>262.60000610352</ele>
        <time>2015-02-01T09:17:45.000Z</time>
      </trkpt>
      <trkpt lat="43.60077" lon="1.18267">
        <ele>262</ele>
        <time>2015-02-01T09:17:49.000Z</time>
      </trkpt>
      <trkpt lat="43.60079" lon="1.18264">
        <ele>261.79998779297</ele>
        <time>2015-02-01T09:17:50.000Z</time>
      </trkpt>
      <trkpt lat="43.60084" lon="1.18248">
        <ele>261.60000610352</ele>
        <time>2015-02-01T09:17:55.000Z</time>
      </trkpt>
      <trkpt lat="43.60088" lon="1.1824">
        <ele>261.39999389648</ele>
        <time>2015-02-01T09:17:58.000Z</time>
      </trkpt>
      <trkpt lat="43.60089" lon="1.18237">
        <ele>261.20001220703</ele>
        <time>2015-02-01T09:17:59.000Z</time>
      </trkpt>
      <trkpt lat="43.60095" lon="1.18226">
        <ele>260.79998779297</ele>
        <time>2015-02-01T09:18:03.000Z</time>
      </trkpt>
      <trkpt lat="43.60096" lon="1.18223">
        <ele>260.79998779297</ele>
        <time>2015-02-01T09:18:04.000Z</time>
      </trkpt>
      <trkpt lat="43.601" lon="1.1821">
        <ele>260.39999389648</ele>
        <time>2015-02-01T09:18:08.000Z</time>
      </trkpt>
      <trkpt lat="43.60105" lon="1.18195">
        <ele>260.20001220703</ele>
        <time>2015-02-01T09:18:13.000Z</time>
      </trkpt>
      <trkpt lat="43.60113" lon="1.18183">
        <ele>260</ele>
        <time>2015-02-01T09:18:18.000Z</time>
      </trkpt>
      <trkpt lat="43.60119" lon="1.18168">
        <ele>260</ele>
        <time>2015-02-01T09:18:24.000Z</time>
      </trkpt>
      <trkpt lat="43.60126" lon="1.18153">
        <ele>259.39999389648</ele>
        <time>2015-02-01T09:18:30.000Z</time>
      </trkpt>
      <trkpt lat="43.6013" lon="1.1812">
        <ele>260.39999389648</ele>
        <time>2015-02-01T09:18:42.000Z</time>
      </trkpt>
      <trkpt lat="43.60131" lon="1.18105">
        <ele>261.20001220703</ele>
        <time>2015-02-01T09:18:47.000Z</time>
      </trkpt>
      <trkpt lat="43.60131" lon="1.18102">
        <ele>261.39999389648</ele>
        <time>2015-02-01T09:18:48.000Z</time>
      </trkpt>
      <trkpt lat="43.60133" lon="1.18082">
        <ele>263</ele>
        <time>2015-02-01T09:18:53.000Z</time>
      </trkpt>
      <trkpt lat="43.60138" lon="1.18066">
        <ele>264.60000610352</ele>
        <time>2015-02-01T09:18:58.000Z</time>
      </trkpt>
      <trkpt lat="43.60141" lon="1.18056">
        <ele>265.20001220703</ele>
        <time>2015-02-01T09:19:02.000Z</time>
      </trkpt>
      <trkpt lat="43.60142" lon="1.18052">
        <ele>265.39999389648</ele>
        <time>2015-02-01T09:19:03.000Z</time>
      </trkpt>
      <trkpt lat="43.60143" lon="1.18047">
        <ele>265.60000610352</ele>
        <time>2015-02-01T09:19:05.000Z</time>
      </trkpt>
      <trkpt lat="43.60142" lon="1.18032">
        <ele>266</ele>
        <time>2015-02-01T09:19:09.000Z</time>
      </trkpt>
      <trkpt lat="43.60142" lon="1.18026">
        <ele>266.39999389648</ele>
        <time>2015-02-01T09:19:11.000Z</time>
      </trkpt>
      <trkpt lat="43.60144" lon="1.18006">
        <ele>267.60000610352</ele>
        <time>2015-02-01T09:19:16.000Z</time>
      </trkpt>
      <trkpt lat="43.60145" lon="1.18003">
        <ele>268</ele>
        <time>2015-02-01T09:19:17.000Z</time>
      </trkpt>
      <trkpt lat="43.6015" lon="1.17991">
        <ele>269</ele>
        <time>2015-02-01T09:19:21.000Z</time>
      </trkpt>
      <trkpt lat="43.60151" lon="1.17992">
        <ele>269</ele>
        <time>2015-02-01T09:19:23.000Z</time>
      </trkpt>
      <trkpt lat="43.60153" lon="1.17992">
        <ele>269</ele>
        <time>2015-02-01T09:19:30.000Z</time>
      </trkpt>
      <trkpt lat="43.60153" lon="1.17993">
        <ele>269</ele>
        <time>2015-02-01T09:19:37.000Z</time>
      </trkpt>
      <trkpt lat="43.60151" lon="1.17991">
        <ele>269</ele>
        <time>2015-02-01T09:20:15.000Z</time>
      </trkpt>
      <trkpt lat="43.6015" lon="1.1799">
        <ele>269.20001220703</ele>
        <time>2015-02-01T09:20:24.000Z</time>
      </trkpt>
      <trkpt lat="43.60153" lon="1.1798">
        <ele>270</ele>
        <time>2015-02-01T09:20:49.000Z</time>
      </trkpt>
      <trkpt lat="43.60156" lon="1.17973">
        <ele>270.20001220703</ele>
        <time>2015-02-01T09:20:54.000Z</time>
      </trkpt>
      <trkpt lat="43.60157" lon="1.17962">
        <ele>270.39999389648</ele>
        <time>2015-02-01T09:21:02.000Z</time>
      </trkpt>
      <trkpt lat="43.60157" lon="1.17956">
        <ele>270.39999389648</ele>
        <time>2015-02-01T09:21:05.000Z</time>
      </trkpt>
      <trkpt lat="43.60158" lon="1.17942">
        <ele>271</ele>
        <time>2015-02-01T09:21:12.000Z</time>
      </trkpt>
      <trkpt lat="43.60159" lon="1.17923">
        <ele>272</ele>
        <time>2015-02-01T09:21:22.000Z</time>
      </trkpt>
      <trkpt lat="43.60159" lon="1.17917">
        <ele>272.39999389648</ele>
        <time>2015-02-01T09:21:27.000Z</time>
      </trkpt>
      <trkpt lat="43.60159" lon="1.17909">
        <ele>273</ele>
        <time>2015-02-01T09:21:31.000Z</time>
      </trkpt>
      <trkpt lat="43.6016" lon="1.17893">
        <ele>274</ele>
        <time>2015-02-01T09:21:39.000Z</time>
      </trkpt>
      <trkpt lat="43.60163" lon="1.17882">
        <ele>274.79998779297</ele>
        <time>2015-02-01T09:21:43.000Z</time>
      </trkpt>
      <trkpt lat="43.60163" lon="1.17864">
        <ele>275.79998779297</ele>
        <time>2015-02-01T09:21:50.000Z</time>
      </trkpt>
      <trkpt lat="43.60162" lon="1.17849">
        <ele>276.79998779297</ele>
        <time>2015-02-01T09:21:56.000Z</time>
      </trkpt>
      <trkpt lat="43.6016" lon="1.17833">
        <ele>277.79998779297</ele>
        <time>2015-02-01T09:22:02.000Z</time>
      </trkpt>
      <trkpt lat="43.6016" lon="1.17814">
        <ele>279</ele>
        <time>2015-02-01T09:22:10.000Z</time>
      </trkpt>
      <trkpt lat="43.60159" lon="1.178">
        <ele>279.79998779297</ele>
        <time>2015-02-01T09:22:16.000Z</time>
      </trkpt>
      <trkpt lat="43.60158" lon="1.17788">
        <ele>280.39999389648</ele>
        <time>2015-02-01T09:22:21.000Z</time>
      </trkpt>
      <trkpt lat="43.60157" lon="1.17769">
        <ele>280.79998779297</ele>
        <time>2015-02-01T09:22:28.000Z</time>
      </trkpt>
      <trkpt lat="43.60159" lon="1.17756">
        <ele>281.20001220703</ele>
        <time>2015-02-01T09:22:34.000Z</time>
      </trkpt>
      <trkpt lat="43.60162" lon="1.1774">
        <ele>281.39999389648</ele>
        <time>2015-02-01T09:22:40.000Z</time>
      </trkpt>
      <trkpt lat="43.60166" lon="1.17727">
        <ele>281.79998779297</ele>
        <time>2015-02-01T09:22:45.000Z</time>
      </trkpt>
      <trkpt lat="43.6017" lon="1.17714">
        <ele>282</ele>
        <time>2015-02-01T09:22:51.000Z</time>
      </trkpt>
      <trkpt lat="43.6017" lon="1.17713">
        <ele>282</ele>
        <time>2015-02-01T09:22:52.000Z</time>
      </trkpt>
      <trkpt lat="43.60172" lon="1.17704">
        <ele>282.60000610352</ele>
        <time>2015-02-01T09:22:58.000Z</time>
      </trkpt>
      <trkpt lat="43.60175" lon="1.17696">
        <ele>283.39999389648</ele>
        <time>2015-02-01T09:23:02.000Z</time>
      </trkpt>
      <trkpt lat="43.60176" lon="1.17678">
        <ele>284.39999389648</ele>
        <time>2015-02-01T09:23:09.000Z</time>
      </trkpt>
      <trkpt lat="43.60176" lon="1.17662">
        <ele>285</ele>
        <time>2015-02-01T09:23:15.000Z</time>
      </trkpt>
      <trkpt lat="43.60176" lon="1.17642">
        <ele>285.79998779297</ele>
        <time>2015-02-01T09:23:22.000Z</time>
      </trkpt>
      <trkpt lat="43.60176" lon="1.17622">
        <ele>285.39999389648</ele>
        <time>2015-02-01T09:23:29.000Z</time>
      </trkpt>
      <trkpt lat="43.60176" lon="1.17608">
        <ele>284.79998779297</ele>
        <time>2015-02-01T09:23:34.000Z</time>
      </trkpt>
      <trkpt lat="43.60176" lon="1.1759">
        <ele>284.20001220703</ele>
        <time>2015-02-01T09:23:40.000Z</time>
      </trkpt>
      <trkpt lat="43.60178" lon="1.17574">
        <ele>283.79998779297</ele>
        <time>2015-02-01T09:23:46.000Z</time>
      </trkpt>
      <trkpt lat="43.60179" lon="1.17565">
        <ele>283.60000610352</ele>
        <time>2015-02-01T09:23:52.000Z</time>
      </trkpt>
      <trkpt lat="43.60179" lon="1.17564">
        <ele>283.39999389648</ele>
        <time>2015-02-01T09:23:53.000Z</time>
      </trkpt>
      <trkpt lat="43.6018" lon="1.1756">
        <ele>283.60000610352</ele>
        <time>2015-02-01T09:24:02.000Z</time>
      </trkpt>
      <trkpt lat="43.60177" lon="1.17555">
        <ele>283.20001220703</ele>
        <time>2015-02-01T09:25:20.000Z</time>
      </trkpt>
      <trkpt lat="43.60167" lon="1.17548">
        <ele>282.39999389648</ele>
        <time>2015-02-01T09:25:27.000Z</time>
      </trkpt>
      <trkpt lat="43.60159" lon="1.1754">
        <ele>281.39999389648</ele>
        <time>2015-02-01T09:25:32.000Z</time>
      </trkpt>
      <trkpt lat="43.6015" lon="1.17533">
        <ele>280.60000610352</ele>
        <time>2015-02-01T09:25:37.000Z</time>
      </trkpt>
      <trkpt lat="43.60142" lon="1.17527">
        <ele>279.79998779297</ele>
        <time>2015-02-01T09:25:42.000Z</time>
      </trkpt>
      <trkpt lat="43.60131" lon="1.17518">
        <ele>278.79998779297</ele>
        <time>2015-02-01T09:25:48.000Z</time>
      </trkpt>
      <trkpt lat="43.6012" lon="1.17508">
        <ele>277.79998779297</ele>
        <time>2015-02-01T09:25:54.000Z</time>
      </trkpt>
      <trkpt lat="43.60111" lon="1.175">
        <ele>276.79998779297</ele>
        <time>2015-02-01T09:25:59.000Z</time>
      </trkpt>
      <trkpt lat="43.60098" lon="1.17489">
        <ele>276</ele>
        <time>2015-02-01T09:26:06.000Z</time>
      </trkpt>
      <trkpt lat="43.60088" lon="1.1748">
        <ele>275.60000610352</ele>
        <time>2015-02-01T09:26:12.000Z</time>
      </trkpt>
      <trkpt lat="43.60079" lon="1.17469">
        <ele>275.60000610352</ele>
        <time>2015-02-01T09:26:19.000Z</time>
      </trkpt>
      <trkpt lat="43.60081" lon="1.17456">
        <ele>276</ele>
        <time>2015-02-01T09:26:25.000Z</time>
      </trkpt>
      <trkpt lat="43.60084" lon="1.17443">
        <ele>275.39999389648</ele>
        <time>2015-02-01T09:26:31.000Z</time>
      </trkpt>
      <trkpt lat="43.60084" lon="1.17441">
        <ele>275.39999389648</ele>
        <time>2015-02-01T09:26:32.000Z</time>
      </trkpt>
      <trkpt lat="43.60083" lon="1.17432">
        <ele>275</ele>
        <time>2015-02-01T09:26:37.000Z</time>
      </trkpt>
      <trkpt lat="43.60082" lon="1.1743">
        <ele>275</ele>
        <time>2015-02-01T09:26:38.000Z</time>
      </trkpt>
      <trkpt lat="43.60081" lon="1.17422">
        <ele>274.79998779297</ele>
        <time>2015-02-01T09:26:42.000Z</time>
      </trkpt>
      <trkpt lat="43.60087" lon="1.1741">
        <ele>274</ele>
        <time>2015-02-01T09:26:48.000Z</time>
      </trkpt>
      <trkpt lat="43.60089" lon="1.17408">
        <ele>274</ele>
        <time>2015-02-01T09:26:49.000Z</time>
      </trkpt>
      <trkpt lat="43.60091" lon="1.17397">
        <ele>273.39999389648</ele>
        <time>2015-02-01T09:26:54.000Z</time>
      </trkpt>
      <trkpt lat="43.60093" lon="1.17385">
        <ele>273.79998779297</ele>
        <time>2015-02-01T09:26:59.000Z</time>
      </trkpt>
      <trkpt lat="43.60096" lon="1.17375">
        <ele>274.39999389648</ele>
        <time>2015-02-01T09:27:04.000Z</time>
      </trkpt>
      <trkpt lat="43.6009" lon="1.17368">
        <ele>275</ele>
        <time>2015-02-01T09:27:10.000Z</time>
      </trkpt>
      <trkpt lat="43.60087" lon="1.17364">
        <ele>275.39999389648</ele>
        <time>2015-02-01T09:27:14.000Z</time>
      </trkpt>
      <trkpt lat="43.60088" lon="1.17352">
        <ele>276.20001220703</ele>
        <time>2015-02-01T09:27:19.000Z</time>
      </trkpt>
      <trkpt lat="43.60091" lon="1.17343">
        <ele>276.79998779297</ele>
        <time>2015-02-01T09:27:24.000Z</time>
      </trkpt>
      <trkpt lat="43.6009" lon="1.1734">
        <ele>277</ele>
        <time>2015-02-01T09:27:25.000Z</time>
      </trkpt>
      <trkpt lat="43.60089" lon="1.17337">
        <ele>277.39999389648</ele>
        <time>2015-02-01T09:27:27.000Z</time>
      </trkpt>
      <trkpt lat="43.60091" lon="1.17328">
        <ele>277.79998779297</ele>
        <time>2015-02-01T09:27:31.000Z</time>
      </trkpt>
      <trkpt lat="43.60091" lon="1.17326">
        <ele>278</ele>
        <time>2015-02-01T09:27:32.000Z</time>
      </trkpt>
      <trkpt lat="43.6009" lon="1.17319">
        <ele>278.60000610352</ele>
        <time>2015-02-01T09:27:35.000Z</time>
      </trkpt>
      <trkpt lat="43.60089" lon="1.17303">
        <ele>279.39999389648</ele>
        <time>2015-02-01T09:27:42.000Z</time>
      </trkpt>
      <trkpt lat="43.60092" lon="1.17287">
        <ele>279.60000610352</ele>
        <time>2015-02-01T09:27:48.000Z</time>
      </trkpt>
      <trkpt lat="43.60092" lon="1.17285">
        <ele>279.60000610352</ele>
        <time>2015-02-01T09:27:49.000Z</time>
      </trkpt>
      <trkpt lat="43.60092" lon="1.1728">
        <ele>279.60000610352</ele>
        <time>2015-02-01T09:27:51.000Z</time>
      </trkpt>
      <trkpt lat="43.60089" lon="1.17268">
        <ele>279.79998779297</ele>
        <time>2015-02-01T09:27:57.000Z</time>
      </trkpt>
      <trkpt lat="43.6009" lon="1.17259">
        <ele>279.79998779297</ele>
        <time>2015-02-01T09:28:02.000Z</time>
      </trkpt>
      <trkpt lat="43.60092" lon="1.17257">
        <ele>279.79998779297</ele>
        <time>2015-02-01T09:28:03.000Z</time>
      </trkpt>
      <trkpt lat="43.60094" lon="1.17254">
        <ele>279.79998779297</ele>
        <time>2015-02-01T09:28:05.000Z</time>
      </trkpt>
      <trkpt lat="43.60094" lon="1.17245">
        <ele>280</ele>
        <time>2015-02-01T09:28:08.000Z</time>
      </trkpt>
      <trkpt lat="43.60091" lon="1.17234">
        <ele>280.20001220703</ele>
        <time>2015-02-01T09:28:12.000Z</time>
      </trkpt>
      <trkpt lat="43.60089" lon="1.17221">
        <ele>280.39999389648</ele>
        <time>2015-02-01T09:28:17.000Z</time>
      </trkpt>
      <trkpt lat="43.60087" lon="1.17208">
        <ele>280.39999389648</ele>
        <time>2015-02-01T09:28:22.000Z</time>
      </trkpt>
      <trkpt lat="43.60087" lon="1.17206">
        <ele>280.39999389648</ele>
        <time>2015-02-01T09:28:23.000Z</time>
      </trkpt>
      <trkpt lat="43.60083" lon="1.17195">
        <ele>280.39999389648</ele>
        <time>2015-02-01T09:28:28.000Z</time>
      </trkpt>
      <trkpt lat="43.60082" lon="1.17188">
        <ele>280.39999389648</ele>
        <time>2015-02-01T09:28:31.000Z</time>
      </trkpt>
      <trkpt lat="43.60077" lon="1.17175">
        <ele>280.60000610352</ele>
        <time>2015-02-01T09:28:37.000Z</time>
      </trkpt>
      <trkpt lat="43.60076" lon="1.17174">
        <ele>280.60000610352</ele>
        <time>2015-02-01T09:28:38.000Z</time>
      </trkpt>
      <trkpt lat="43.60075" lon="1.1716">
        <ele>280.60000610352</ele>
        <time>2015-02-01T09:28:44.000Z</time>
      </trkpt>
      <trkpt lat="43.60073" lon="1.17149">
        <ele>280.60000610352</ele>
        <time>2015-02-01T09:28:49.000Z</time>
      </trkpt>
      <trkpt lat="43.60073" lon="1.17146">
        <ele>280.60000610352</ele>
        <time>2015-02-01T09:28:50.000Z</time>
      </trkpt>
      <trkpt lat="43.60073" lon="1.17144">
        <ele>280.60000610352</ele>
        <time>2015-02-01T09:28:51.000Z</time>
      </trkpt>
      <trkpt lat="43.60068" lon="1.17128">
        <ele>280.20001220703</ele>
        <time>2015-02-01T09:28:57.000Z</time>
      </trkpt>
      <trkpt lat="43.60064" lon="1.17114">
        <ele>279.79998779297</ele>
        <time>2015-02-01T09:29:03.000Z</time>
      </trkpt>
      <trkpt lat="43.60062" lon="1.17101">
        <ele>279.79998779297</ele>
        <time>2015-02-01T09:29:09.000Z</time>
      </trkpt>
      <trkpt lat="43.60061" lon="1.17096">
        <ele>280</ele>
        <time>2015-02-01T09:29:11.000Z</time>
      </trkpt>
      <trkpt lat="43.6006" lon="1.17082">
        <ele>280.79998779297</ele>
        <time>2015-02-01T09:29:17.000Z</time>
      </trkpt>
      <trkpt lat="43.60059" lon="1.17056">
        <ele>282</ele>
        <time>2015-02-01T09:29:29.000Z</time>
      </trkpt>
      <trkpt lat="43.6006" lon="1.17056">
        <ele>282</ele>
        <time>2015-02-01T09:29:35.000Z</time>
      </trkpt>
      <trkpt lat="43.6006" lon="1.1705">
        <ele>282</ele>
        <time>2015-02-01T09:30:02.000Z</time>
      </trkpt>
      <trkpt lat="43.60056" lon="1.17046">
        <ele>281.79998779297</ele>
        <time>2015-02-01T09:30:09.000Z</time>
      </trkpt>
      <trkpt lat="43.6005" lon="1.17039">
        <ele>281.20001220703</ele>
        <time>2015-02-01T09:30:19.000Z</time>
      </trkpt>
      <trkpt lat="43.60042" lon="1.17032">
        <ele>280.79998779297</ele>
        <time>2015-02-01T09:30:30.000Z</time>
      </trkpt>
      <trkpt lat="43.60039" lon="1.1703">
        <ele>280.39999389648</ele>
        <time>2015-02-01T09:30:36.000Z</time>
      </trkpt>
      <trkpt lat="43.60033" lon="1.17025">
        <ele>280</ele>
        <time>2015-02-01T09:30:39.000Z</time>
      </trkpt>
      <trkpt lat="43.60024" lon="1.17019">
        <ele>279.39999389648</ele>
        <time>2015-02-01T09:30:44.000Z</time>
      </trkpt>
      <trkpt lat="43.60022" lon="1.17017">
        <ele>279.20001220703</ele>
        <time>2015-02-01T09:30:46.000Z</time>
      </trkpt>
      <trkpt lat="43.6002" lon="1.17017">
        <ele>279.20001220703</ele>
        <time>2015-02-01T09:30:50.000Z</time>
      </trkpt>
      <trkpt lat="43.60009" lon="1.17007">
        <ele>277.60000610352</ele>
        <time>2015-02-01T09:30:55.000Z</time>
      </trkpt>
      <trkpt lat="43.59998" lon="1.16996">
        <ele>275.79998779297</ele>
        <time>2015-02-01T09:31:00.000Z</time>
      </trkpt>
      <trkpt lat="43.5998" lon="1.16986">
        <ele>273</ele>
        <time>2015-02-01T09:31:05.000Z</time>
      </trkpt>
      <trkpt lat="43.59963" lon="1.16971">
        <ele>270.79998779297</ele>
        <time>2015-02-01T09:31:11.000Z</time>
      </trkpt>
      <trkpt lat="43.5995" lon="1.16962">
        <ele>269.39999389648</ele>
        <time>2015-02-01T09:31:17.000Z</time>
      </trkpt>
      <trkpt lat="43.59937" lon="1.1695">
        <ele>268.20001220703</ele>
        <time>2015-02-01T09:31:23.000Z</time>
      </trkpt>
      <trkpt lat="43.59924" lon="1.16933">
        <ele>266.79998779297</ele>
        <time>2015-02-01T09:31:31.000Z</time>
      </trkpt>
      <trkpt lat="43.59923" lon="1.16931">
        <ele>266.60000610352</ele>
        <time>2015-02-01T09:31:32.000Z</time>
      </trkpt>
      <trkpt lat="43.59927" lon="1.16914">
        <ele>268.79998779297</ele>
        <time>2015-02-01T09:31:38.000Z</time>
      </trkpt>
      <trkpt lat="43.59929" lon="1.16911">
        <ele>269.60000610352</ele>
        <time>2015-02-01T09:31:40.000Z</time>
      </trkpt>
      <trkpt lat="43.59925" lon="1.169">
        <ele>269.39999389648</ele>
        <time>2015-02-01T09:31:45.000Z</time>
      </trkpt>
      <trkpt lat="43.59923" lon="1.16895">
        <ele>269.39999389648</ele>
        <time>2015-02-01T09:31:47.000Z</time>
      </trkpt>
      <trkpt lat="43.5993" lon="1.16886">
        <ele>271.60000610352</ele>
        <time>2015-02-01T09:31:52.000Z</time>
      </trkpt>
      <trkpt lat="43.59932" lon="1.16884">
        <ele>272</ele>
        <time>2015-02-01T09:31:53.000Z</time>
      </trkpt>
      <trkpt lat="43.59933" lon="1.16884">
        <ele>272.39999389648</ele>
        <time>2015-02-01T09:31:54.000Z</time>
      </trkpt>
      <trkpt lat="43.5994" lon="1.16884">
        <ele>273.39999389648</ele>
        <time>2015-02-01T09:31:58.000Z</time>
      </trkpt>
      <trkpt lat="43.59947" lon="1.1688">
        <ele>274.79998779297</ele>
        <time>2015-02-01T09:32:02.000Z</time>
      </trkpt>
      <trkpt lat="43.59951" lon="1.16878">
        <ele>275.60000610352</ele>
        <time>2015-02-01T09:32:05.000Z</time>
      </trkpt>
      <trkpt lat="43.59959" lon="1.16877">
        <ele>276.79998779297</ele>
        <time>2015-02-01T09:32:10.000Z</time>
      </trkpt>
      <trkpt lat="43.5997" lon="1.16841">
        <ele>280.60000610352</ele>
        <time>2015-02-01T09:32:21.000Z</time>
      </trkpt>
      <trkpt lat="43.59968" lon="1.16818">
        <ele>281.79998779297</ele>
        <time>2015-02-01T09:32:27.000Z</time>
      </trkpt>
      <trkpt lat="43.5997" lon="1.1681">
        <ele>282.39999389648</ele>
        <time>2015-02-01T09:32:29.000Z</time>
      </trkpt>
      <trkpt lat="43.59967" lon="1.16788">
        <ele>282.60000610352</ele>
        <time>2015-02-01T09:32:35.000Z</time>
      </trkpt>
      <trkpt lat="43.5997" lon="1.16777">
        <ele>283.20001220703</ele>
        <time>2015-02-01T09:32:39.000Z</time>
      </trkpt>
      <trkpt lat="43.59975" lon="1.16774">
        <ele>284</ele>
        <time>2015-02-01T09:32:42.000Z</time>
      </trkpt>
      <trkpt lat="43.59985" lon="1.16772">
        <ele>285.60000610352</ele>
        <time>2015-02-01T09:32:47.000Z</time>
      </trkpt>
      <trkpt lat="43.59999" lon="1.16763">
        <ele>287.79998779297</ele>
        <time>2015-02-01T09:32:53.000Z</time>
      </trkpt>
      <trkpt lat="43.60001" lon="1.16761">
        <ele>288.20001220703</ele>
        <time>2015-02-01T09:32:54.000Z</time>
      </trkpt>
      <trkpt lat="43.60005" lon="1.16749">
        <ele>288.79998779297</ele>
        <time>2015-02-01T09:32:58.000Z</time>
      </trkpt>
      <trkpt lat="43.60007" lon="1.16743">
        <ele>289.20001220703</ele>
        <time>2015-02-01T09:33:00.000Z</time>
      </trkpt>
      <trkpt lat="43.60014" lon="1.16724">
        <ele>290.39999389648</ele>
        <time>2015-02-01T09:33:07.000Z</time>
      </trkpt>
      <trkpt lat="43.60019" lon="1.16705">
        <ele>291.60000610352</ele>
        <time>2015-02-01T09:33:13.000Z</time>
      </trkpt>
      <trkpt lat="43.60025" lon="1.16685">
        <ele>292.39999389648</ele>
        <time>2015-02-01T09:33:19.000Z</time>
      </trkpt>
      <trkpt lat="43.60035" lon="1.16664">
        <ele>293.60000610352</ele>
        <time>2015-02-01T09:33:26.000Z</time>
      </trkpt>
      <trkpt lat="43.60045" lon="1.16653">
        <ele>293.79998779297</ele>
        <time>2015-02-01T09:33:31.000Z</time>
      </trkpt>
      <trkpt lat="43.60051" lon="1.16632">
        <ele>293.20001220703</ele>
        <time>2015-02-01T09:33:37.000Z</time>
      </trkpt>
      <trkpt lat="43.60052" lon="1.16624">
        <ele>292.79998779297</ele>
        <time>2015-02-01T09:33:39.000Z</time>
      </trkpt>
      <trkpt lat="43.60058" lon="1.16602">
        <ele>292</ele>
        <time>2015-02-01T09:33:45.000Z</time>
      </trkpt>
      <trkpt lat="43.60059" lon="1.16599">
        <ele>292</ele>
        <time>2015-02-01T09:33:46.000Z</time>
      </trkpt>
      <trkpt lat="43.60062" lon="1.16582">
        <ele>292.60000610352</ele>
        <time>2015-02-01T09:33:51.000Z</time>
      </trkpt>
      <trkpt lat="43.6007" lon="1.16569">
        <ele>293.79998779297</ele>
        <time>2015-02-01T09:33:56.000Z</time>
      </trkpt>
      <trkpt lat="43.60072" lon="1.16563">
        <ele>294.20001220703</ele>
        <time>2015-02-01T09:33:58.000Z</time>
      </trkpt>
      <trkpt lat="43.60072" lon="1.16545">
        <ele>293.39999389648</ele>
        <time>2015-02-01T09:34:04.000Z</time>
      </trkpt>
      <trkpt lat="43.60072" lon="1.16542">
        <ele>293.20001220703</ele>
        <time>2015-02-01T09:34:05.000Z</time>
      </trkpt>
      <trkpt lat="43.60073" lon="1.16541">
        <ele>293.20001220703</ele>
        <time>2015-02-01T09:34:06.000Z</time>
      </trkpt>
      <trkpt lat="43.60078" lon="1.16529">
        <ele>293.60000610352</ele>
        <time>2015-02-01T09:34:10.000Z</time>
      </trkpt>
      <trkpt lat="43.60086" lon="1.16512">
        <ele>295</ele>
        <time>2015-02-01T09:34:17.000Z</time>
      </trkpt>
      <trkpt lat="43.60082" lon="1.16497">
        <ele>294.79998779297</ele>
        <time>2015-02-01T09:34:22.000Z</time>
      </trkpt>
      <trkpt lat="43.60086" lon="1.16475">
        <ele>295.60000610352</ele>
        <time>2015-02-01T09:34:29.000Z</time>
      </trkpt>
      <trkpt lat="43.60091" lon="1.1647">
        <ele>296</ele>
        <time>2015-02-01T09:34:32.000Z</time>
      </trkpt>
      <trkpt lat="43.60095" lon="1.16454">
        <ele>296.60000610352</ele>
        <time>2015-02-01T09:34:37.000Z</time>
      </trkpt>
      <trkpt lat="43.60092" lon="1.16442">
        <ele>296.20001220703</ele>
        <time>2015-02-01T09:34:41.000Z</time>
      </trkpt>
      <trkpt lat="43.6009" lon="1.16427">
        <ele>295.79998779297</ele>
        <time>2015-02-01T09:34:45.000Z</time>
      </trkpt>
      <trkpt lat="43.6009" lon="1.16423">
        <ele>295.79998779297</ele>
        <time>2015-02-01T09:34:46.000Z</time>
      </trkpt>
      <trkpt lat="43.60087" lon="1.16409">
        <ele>295.20001220703</ele>
        <time>2015-02-01T09:34:50.000Z</time>
      </trkpt>
      <trkpt lat="43.60087" lon="1.16402">
        <ele>295.20001220703</ele>
        <time>2015-02-01T09:34:52.000Z</time>
      </trkpt>
      <trkpt lat="43.60088" lon="1.16386">
        <ele>294.79998779297</ele>
        <time>2015-02-01T09:34:57.000Z</time>
      </trkpt>
      <trkpt lat="43.60089" lon="1.1638">
        <ele>294.60000610352</ele>
        <time>2015-02-01T09:34:59.000Z</time>
      </trkpt>
      <trkpt lat="43.60098" lon="1.16366">
        <ele>295.60000610352</ele>
        <time>2015-02-01T09:35:05.000Z</time>
      </trkpt>
      <trkpt lat="43.60101" lon="1.16353">
        <ele>295.39999389648</ele>
        <time>2015-02-01T09:35:09.000Z</time>
      </trkpt>
      <trkpt lat="43.601" lon="1.16328">
        <ele>293.79998779297</ele>
        <time>2015-02-01T09:35:17.000Z</time>
      </trkpt>
      <trkpt lat="43.601" lon="1.16325">
        <ele>293.39999389648</ele>
        <time>2015-02-01T09:35:18.000Z</time>
      </trkpt>
      <trkpt lat="43.60104" lon="1.16306">
        <ele>292.79998779297</ele>
        <time>2015-02-01T09:35:24.000Z</time>
      </trkpt>
      <trkpt lat="43.60105" lon="1.16304">
        <ele>292.79998779297</ele>
        <time>2015-02-01T09:35:25.000Z</time>
      </trkpt>
      <trkpt lat="43.60113" lon="1.16296">
        <ele>293.20001220703</ele>
        <time>2015-02-01T09:35:30.000Z</time>
      </trkpt>
      <trkpt lat="43.60114" lon="1.16293">
        <ele>293</ele>
        <time>2015-02-01T09:35:31.000Z</time>
      </trkpt>
      <trkpt lat="43.60118" lon="1.16291">
        <ele>293.39999389648</ele>
        <time>2015-02-01T09:35:34.000Z</time>
      </trkpt>
      <trkpt lat="43.60126" lon="1.16291">
        <ele>294</ele>
        <time>2015-02-01T09:35:41.000Z</time>
      </trkpt>
      <trkpt lat="43.6013" lon="1.16291">
        <ele>294.39999389648</ele>
        <time>2015-02-01T09:35:46.000Z</time>
      </trkpt>
      <trkpt lat="43.60129" lon="1.1629">
        <ele>294.39999389648</ele>
        <time>2015-02-01T09:35:52.000Z</time>
      </trkpt>
      <trkpt lat="43.60126" lon="1.1629">
        <ele>294</ele>
        <time>2015-02-01T09:36:06.000Z</time>
      </trkpt>
      <trkpt lat="43.60122" lon="1.16289">
        <ele>293.60000610352</ele>
        <time>2015-02-01T09:36:14.000Z</time>
      </trkpt>
      <trkpt lat="43.60126" lon="1.1629">
        <ele>294</ele>
        <time>2015-02-01T09:37:26.000Z</time>
      </trkpt>
      <trkpt lat="43.60129" lon="1.1629">
        <ele>294.39999389648</ele>
        <time>2015-02-01T09:37:29.000Z</time>
      </trkpt>
      <trkpt lat="43.60135" lon="1.16291">
        <ele>295</ele>
        <time>2015-02-01T09:37:35.000Z</time>
      </trkpt>
      <trkpt lat="43.60138" lon="1.16292">
        <ele>295.20001220703</ele>
        <time>2015-02-01T09:37:38.000Z</time>
      </trkpt>
      <trkpt lat="43.60142" lon="1.16295">
        <ele>295.79998779297</ele>
        <time>2015-02-01T09:37:44.000Z</time>
      </trkpt>
      <trkpt lat="43.60143" lon="1.16301">
        <ele>296.39999389648</ele>
        <time>2015-02-01T09:37:47.000Z</time>
      </trkpt>
      <trkpt lat="43.60143" lon="1.16302">
        <ele>296.39999389648</ele>
        <time>2015-02-01T09:37:48.000Z</time>
      </trkpt>
      <trkpt lat="43.60144" lon="1.16305">
        <ele>296.79998779297</ele>
        <time>2015-02-01T09:37:51.000Z</time>
      </trkpt>
      <trkpt lat="43.60152" lon="1.16311">
        <ele>297.79998779297</ele>
        <time>2015-02-01T09:37:55.000Z</time>
      </trkpt>
      <trkpt lat="43.60158" lon="1.16322">
        <ele>298.60000610352</ele>
        <time>2015-02-01T09:37:59.000Z</time>
      </trkpt>
      <trkpt lat="43.60164" lon="1.16324">
        <ele>299.39999389648</ele>
        <time>2015-02-01T09:38:02.000Z</time>
      </trkpt>
      <trkpt lat="43.60174" lon="1.16323">
        <ele>300.20001220703</ele>
        <time>2015-02-01T09:38:06.000Z</time>
      </trkpt>
      <trkpt lat="43.60181" lon="1.16319">
        <ele>300.79998779297</ele>
        <time>2015-02-01T09:38:09.000Z</time>
      </trkpt>
      <trkpt lat="43.60183" lon="1.16317">
        <ele>301</ele>
        <time>2015-02-01T09:38:11.000Z</time>
      </trkpt>
      <trkpt lat="43.60196" lon="1.16307">
        <ele>300.20001220703</ele>
        <time>2015-02-01T09:38:17.000Z</time>
      </trkpt>
      <trkpt lat="43.60218" lon="1.1629">
        <ele>298.39999389648</ele>
        <time>2015-02-01T09:38:27.000Z</time>
      </trkpt>
      <trkpt lat="43.60232" lon="1.16293">
        <ele>297.79998779297</ele>
        <time>2015-02-01T09:38:32.000Z</time>
      </trkpt>
      <trkpt lat="43.60246" lon="1.16302">
        <ele>297.60000610352</ele>
        <time>2015-02-01T09:38:39.000Z</time>
      </trkpt>
      <trkpt lat="43.60259" lon="1.16306">
        <ele>297.20001220703</ele>
        <time>2015-02-01T09:38:44.000Z</time>
      </trkpt>
      <trkpt lat="43.60274" lon="1.16312">
        <ele>296.60000610352</ele>
        <time>2015-02-01T09:38:50.000Z</time>
      </trkpt>
      <trkpt lat="43.60288" lon="1.16319">
        <ele>295.79998779297</ele>
        <time>2015-02-01T09:38:56.000Z</time>
      </trkpt>
      <trkpt lat="43.60296" lon="1.16329">
        <ele>295.39999389648</ele>
        <time>2015-02-01T09:39:01.000Z</time>
      </trkpt>
      <trkpt lat="43.603" lon="1.16334">
        <ele>295</ele>
        <time>2015-02-01T09:39:03.000Z</time>
      </trkpt>
      <trkpt lat="43.60306" lon="1.16344">
        <ele>294.79998779297</ele>
        <time>2015-02-01T09:39:07.000Z</time>
      </trkpt>
      <trkpt lat="43.6032" lon="1.16366">
        <ele>293.79998779297</ele>
        <time>2015-02-01T09:39:16.000Z</time>
      </trkpt>
      <trkpt lat="43.60329" lon="1.16378">
        <ele>293.39999389648</ele>
        <time>2015-02-01T09:39:21.000Z</time>
      </trkpt>
      <trkpt lat="43.6034" lon="1.16392">
        <ele>292.60000610352</ele>
        <time>2015-02-01T09:39:26.000Z</time>
      </trkpt>
      <trkpt lat="43.60349" lon="1.16407">
        <ele>292</ele>
        <time>2015-02-01T09:39:32.000Z</time>
      </trkpt>
      <trkpt lat="43.60356" lon="1.1642">
        <ele>291.39999389648</ele>
        <time>2015-02-01T09:39:36.000Z</time>
      </trkpt>
      <trkpt lat="43.60366" lon="1.16434">
        <ele>290.39999389648</ele>
        <time>2015-02-01T09:39:41.000Z</time>
      </trkpt>
      <trkpt lat="43.60369" lon="1.16437">
        <ele>290</ele>
        <time>2015-02-01T09:39:43.000Z</time>
      </trkpt>
      <trkpt lat="43.6038" lon="1.16461">
        <ele>288.79998779297</ele>
        <time>2015-02-01T09:39:51.000Z</time>
      </trkpt>
      <trkpt lat="43.60386" lon="1.16478">
        <ele>288.20001220703</ele>
        <time>2015-02-01T09:39:56.000Z</time>
      </trkpt>
      <trkpt lat="43.6039" lon="1.16492">
        <ele>288.39999389648</ele>
        <time>2015-02-01T09:40:00.000Z</time>
      </trkpt>
      <trkpt lat="43.60392" lon="1.1651">
        <ele>288.79998779297</ele>
        <time>2015-02-01T09:40:05.000Z</time>
      </trkpt>
      <trkpt lat="43.60393" lon="1.16527">
        <ele>288.79998779297</ele>
        <time>2015-02-01T09:40:10.000Z</time>
      </trkpt>
      <trkpt lat="43.60397" lon="1.16544">
        <ele>288</ele>
        <time>2015-02-01T09:40:16.000Z</time>
      </trkpt>
      <trkpt lat="43.60405" lon="1.16568">
        <ele>287.39999389648</ele>
        <time>2015-02-01T09:40:21.000Z</time>
      </trkpt>
      <trkpt lat="43.6041" lon="1.1659">
        <ele>287.60000610352</ele>
        <time>2015-02-01T09:40:26.000Z</time>
      </trkpt>
      <trkpt lat="43.60417" lon="1.16614">
        <ele>287.79998779297</ele>
        <time>2015-02-01T09:40:32.000Z</time>
      </trkpt>
      <trkpt lat="43.60419" lon="1.16621">
        <ele>288</ele>
        <time>2015-02-01T09:40:34.000Z</time>
      </trkpt>
      <trkpt lat="43.60429" lon="1.16626">
        <ele>287.79998779297</ele>
        <time>2015-02-01T09:40:39.000Z</time>
      </trkpt>
      <trkpt lat="43.60433" lon="1.16627">
        <ele>287.79998779297</ele>
        <time>2015-02-01T09:40:41.000Z</time>
      </trkpt>
      <trkpt lat="43.60437" lon="1.16627">
        <ele>287.60000610352</ele>
        <time>2015-02-01T09:40:43.000Z</time>
      </trkpt>
      <trkpt lat="43.60446" lon="1.16635">
        <ele>286.60000610352</ele>
        <time>2015-02-01T09:40:47.000Z</time>
      </trkpt>
      <trkpt lat="43.60454" lon="1.16643">
        <ele>285.79998779297</ele>
        <time>2015-02-01T09:40:51.000Z</time>
      </trkpt>
      <trkpt lat="43.60466" lon="1.16649">
        <ele>284.79998779297</ele>
        <time>2015-02-01T09:40:55.000Z</time>
      </trkpt>
      <trkpt lat="43.60471" lon="1.16655">
        <ele>284.20001220703</ele>
        <time>2015-02-01T09:40:57.000Z</time>
      </trkpt>
      <trkpt lat="43.60482" lon="1.16673">
        <ele>283</ele>
        <time>2015-02-01T09:41:02.000Z</time>
      </trkpt>
      <trkpt lat="43.60491" lon="1.16682">
        <ele>282</ele>
        <time>2015-02-01T09:41:05.000Z</time>
      </trkpt>
      <trkpt lat="43.60499" lon="1.16696">
        <ele>281.20001220703</ele>
        <time>2015-02-01T09:41:09.000Z</time>
      </trkpt>
      <trkpt lat="43.60503" lon="1.16703">
        <ele>280.60000610352</ele>
        <time>2015-02-01T09:41:11.000Z</time>
      </trkpt>
      <trkpt lat="43.60512" lon="1.16717">
        <ele>279.79998779297</ele>
        <time>2015-02-01T09:41:16.000Z</time>
      </trkpt>
      <trkpt lat="43.60519" lon="1.16726">
        <ele>279</ele>
        <time>2015-02-01T09:41:21.000Z</time>
      </trkpt>
      <trkpt lat="43.60544" lon="1.16751">
        <ele>278.39999389648</ele>
        <time>2015-02-01T09:41:31.000Z</time>
      </trkpt>
      <trkpt lat="43.60556" lon="1.16766">
        <ele>278.20001220703</ele>
        <time>2015-02-01T09:41:36.000Z</time>
      </trkpt>
      <trkpt lat="43.60559" lon="1.1677">
        <ele>278.20001220703</ele>
        <time>2015-02-01T09:41:37.000Z</time>
      </trkpt>
      <trkpt lat="43.60572" lon="1.16786">
        <ele>278</ele>
        <time>2015-02-01T09:41:42.000Z</time>
      </trkpt>
      <trkpt lat="43.60577" lon="1.16811">
        <ele>278.79998779297</ele>
        <time>2015-02-01T09:41:49.000Z</time>
      </trkpt>
      <trkpt lat="43.60579" lon="1.16815">
        <ele>278.79998779297</ele>
        <time>2015-02-01T09:41:50.000Z</time>
      </trkpt>
      <trkpt lat="43.60583" lon="1.16823">
        <ele>278.79998779297</ele>
        <time>2015-02-01T09:41:51.000Z</time>
      </trkpt>
      <trkpt lat="43.60593" lon="1.16846">
        <ele>279</ele>
        <time>2015-02-01T09:41:57.000Z</time>
      </trkpt>
      <trkpt lat="43.60596" lon="1.16851">
        <ele>278.79998779297</ele>
        <time>2015-02-01T09:41:59.000Z</time>
      </trkpt>
      <trkpt lat="43.606" lon="1.16858">
        <ele>278.79998779297</ele>
        <time>2015-02-01T09:42:01.000Z</time>
      </trkpt>
      <trkpt lat="43.6061" lon="1.16869">
        <ele>278.39999389648</ele>
        <time>2015-02-01T09:42:05.000Z</time>
      </trkpt>
      <trkpt lat="43.60612" lon="1.16877">
        <ele>278.60000610352</ele>
        <time>2015-02-01T09:42:07.000Z</time>
      </trkpt>
      <trkpt lat="43.60627" lon="1.16894">
        <ele>277.79998779297</ele>
        <time>2015-02-01T09:42:12.000Z</time>
      </trkpt>
      <trkpt lat="43.60634" lon="1.16919">
        <ele>277</ele>
        <time>2015-02-01T09:42:17.000Z</time>
      </trkpt>
      <trkpt lat="43.60638" lon="1.16942">
        <ele>276.79998779297</ele>
        <time>2015-02-01T09:42:24.000Z</time>
      </trkpt>
      <trkpt lat="43.6063" lon="1.16954">
        <ele>278</ele>
        <time>2015-02-01T09:42:27.000Z</time>
      </trkpt>
      <trkpt lat="43.60637" lon="1.1697">
        <ele>277.60000610352</ele>
        <time>2015-02-01T09:42:32.000Z</time>
      </trkpt>
      <trkpt lat="43.60639" lon="1.16974">
        <ele>277.39999389648</ele>
        <time>2015-02-01T09:42:33.000Z</time>
      </trkpt>
      <trkpt lat="43.60639" lon="1.16992">
        <ele>277.60000610352</ele>
        <time>2015-02-01T09:42:37.000Z</time>
      </trkpt>
      <trkpt lat="43.60639" lon="1.17005">
        <ele>277.79998779297</ele>
        <time>2015-02-01T09:42:41.000Z</time>
      </trkpt>
      <trkpt lat="43.60646" lon="1.17021">
        <ele>277.20001220703</ele>
        <time>2015-02-01T09:42:45.000Z</time>
      </trkpt>
      <trkpt lat="43.60648" lon="1.17029">
        <ele>277</ele>
        <time>2015-02-01T09:42:47.000Z</time>
      </trkpt>
      <trkpt lat="43.60657" lon="1.1705">
        <ele>276.20001220703</ele>
        <time>2015-02-01T09:42:52.000Z</time>
      </trkpt>
      <trkpt lat="43.60663" lon="1.17061">
        <ele>275.60000610352</ele>
        <time>2015-02-01T09:42:56.000Z</time>
      </trkpt>
      <trkpt lat="43.60666" lon="1.17081">
        <ele>276.39999389648</ele>
        <time>2015-02-01T09:43:01.000Z</time>
      </trkpt>
      <trkpt lat="43.6067" lon="1.17092">
        <ele>276.60000610352</ele>
        <time>2015-02-01T09:43:03.000Z</time>
      </trkpt>
      <trkpt lat="43.60671" lon="1.17104">
        <ele>277.39999389648</ele>
        <time>2015-02-01T09:43:07.000Z</time>
      </trkpt>
      <trkpt lat="43.6068" lon="1.17128">
        <ele>277.60000610352</ele>
        <time>2015-02-01T09:43:12.000Z</time>
      </trkpt>
      <trkpt lat="43.60682" lon="1.17131">
        <ele>277.60000610352</ele>
        <time>2015-02-01T09:43:14.000Z</time>
      </trkpt>
      <trkpt lat="43.6069" lon="1.17145">
        <ele>277.60000610352</ele>
        <time>2015-02-01T09:43:19.000Z</time>
      </trkpt>
      <trkpt lat="43.607" lon="1.1718">
        <ele>276.20001220703</ele>
        <time>2015-02-01T09:43:27.000Z</time>
      </trkpt>
      <trkpt lat="43.60701" lon="1.17199">
        <ele>276</ele>
        <time>2015-02-01T09:43:32.000Z</time>
      </trkpt>
      <trkpt lat="43.60704" lon="1.17216">
        <ele>275.60000610352</ele>
        <time>2015-02-01T09:43:37.000Z</time>
      </trkpt>
      <trkpt lat="43.60706" lon="1.17218">
        <ele>275.39999389648</ele>
        <time>2015-02-01T09:43:38.000Z</time>
      </trkpt>
      <trkpt lat="43.60713" lon="1.1722">
        <ele>274.79998779297</ele>
        <time>2015-02-01T09:43:41.000Z</time>
      </trkpt>
      <trkpt lat="43.60717" lon="1.17227">
        <ele>274.39999389648</ele>
        <time>2015-02-01T09:43:43.000Z</time>
      </trkpt>
      <trkpt lat="43.6072" lon="1.17233">
        <ele>274.20001220703</ele>
        <time>2015-02-01T09:43:45.000Z</time>
      </trkpt>
      <trkpt lat="43.60725" lon="1.17246">
        <ele>274.20001220703</ele>
        <time>2015-02-01T09:43:49.000Z</time>
      </trkpt>
      <trkpt lat="43.60732" lon="1.1726">
        <ele>274.20001220703</ele>
        <time>2015-02-01T09:43:53.000Z</time>
      </trkpt>
      <trkpt lat="43.60734" lon="1.17275">
        <ele>274.60000610352</ele>
        <time>2015-02-01T09:43:57.000Z</time>
      </trkpt>
      <trkpt lat="43.60735" lon="1.17278">
        <ele>274.60000610352</ele>
        <time>2015-02-01T09:43:58.000Z</time>
      </trkpt>
      <trkpt lat="43.60745" lon="1.17286">
        <ele>274</ele>
        <time>2015-02-01T09:44:02.000Z</time>
      </trkpt>
      <trkpt lat="43.60755" lon="1.17294">
        <ele>273.60000610352</ele>
        <time>2015-02-01T09:44:06.000Z</time>
      </trkpt>
      <trkpt lat="43.60767" lon="1.173">
        <ele>272.79998779297</ele>
        <time>2015-02-01T09:44:11.000Z</time>
      </trkpt>
      <trkpt lat="43.60769" lon="1.17301">
        <ele>272.60000610352</ele>
        <time>2015-02-01T09:44:12.000Z</time>
      </trkpt>
      <trkpt lat="43.60784" lon="1.17305">
        <ele>271.60000610352</ele>
        <time>2015-02-01T09:44:16.000Z</time>
      </trkpt>
      <trkpt lat="43.60804" lon="1.17322">
        <ele>271.39999389648</ele>
        <time>2015-02-01T09:44:25.000Z</time>
      </trkpt>
      <trkpt lat="43.60808" lon="1.17325">
        <ele>271.20001220703</ele>
        <time>2015-02-01T09:44:27.000Z</time>
      </trkpt>
      <trkpt lat="43.60837" lon="1.17342">
        <ele>270.60000610352</ele>
        <time>2015-02-01T09:44:36.000Z</time>
      </trkpt>
      <trkpt lat="43.60851" lon="1.17356">
        <ele>270.79998779297</ele>
        <time>2015-02-01T09:44:42.000Z</time>
      </trkpt>
      <trkpt lat="43.60853" lon="1.17357">
        <ele>270.60000610352</ele>
        <time>2015-02-01T09:44:43.000Z</time>
      </trkpt>
      <trkpt lat="43.6086" lon="1.17357">
        <ele>270</ele>
        <time>2015-02-01T09:44:48.000Z</time>
      </trkpt>
      <trkpt lat="43.6087" lon="1.17354">
        <ele>268.79998779297</ele>
        <time>2015-02-01T09:44:54.000Z</time>
      </trkpt>
      <trkpt lat="43.60879" lon="1.1735">
        <ele>267.60000610352</ele>
        <time>2015-02-01T09:44:57.000Z</time>
      </trkpt>
      <trkpt lat="43.6089" lon="1.17357">
        <ele>267.20001220703</ele>
        <time>2015-02-01T09:45:02.000Z</time>
      </trkpt>
      <trkpt lat="43.60897" lon="1.1736">
        <ele>266.79998779297</ele>
        <time>2015-02-01T09:45:06.000Z</time>
      </trkpt>
      <trkpt lat="43.60909" lon="1.17367">
        <ele>266.20001220703</ele>
        <time>2015-02-01T09:45:12.000Z</time>
      </trkpt>
      <trkpt lat="43.60913" lon="1.17369">
        <ele>266</ele>
        <time>2015-02-01T09:45:13.000Z</time>
      </trkpt>
      <trkpt lat="43.60924" lon="1.17374">
        <ele>265.60000610352</ele>
        <time>2015-02-01T09:45:17.000Z</time>
      </trkpt>
      <trkpt lat="43.60943" lon="1.1739">
        <ele>265.60000610352</ele>
        <time>2015-02-01T09:45:24.000Z</time>
      </trkpt>
      <trkpt lat="43.6096" lon="1.174">
        <ele>265.60000610352</ele>
        <time>2015-02-01T09:45:30.000Z</time>
      </trkpt>
      <trkpt lat="43.60974" lon="1.17406">
        <ele>265.60000610352</ele>
        <time>2015-02-01T09:45:35.000Z</time>
      </trkpt>
      <trkpt lat="43.60984" lon="1.17412">
        <ele>265.60000610352</ele>
        <time>2015-02-01T09:45:37.000Z</time>
      </trkpt>
      <trkpt lat="43.61002" lon="1.17422">
        <ele>265.79998779297</ele>
        <time>2015-02-01T09:45:44.000Z</time>
      </trkpt>
      <trkpt lat="43.61016" lon="1.17432">
        <ele>265.79998779297</ele>
        <time>2015-02-01T09:45:49.000Z</time>
      </trkpt>
      <trkpt lat="43.6103" lon="1.17439">
        <ele>265.20001220703</ele>
        <time>2015-02-01T09:45:54.000Z</time>
      </trkpt>
      <trkpt lat="43.61043" lon="1.17451">
        <ele>264.60000610352</ele>
        <time>2015-02-01T09:45:59.000Z</time>
      </trkpt>
      <trkpt lat="43.61044" lon="1.17455">
        <ele>264.79998779297</ele>
        <time>2015-02-01T09:46:00.000Z</time>
      </trkpt>
      <trkpt lat="43.61049" lon="1.17465">
        <ele>264.79998779297</ele>
        <time>2015-02-01T09:46:05.000Z</time>
      </trkpt>
      <trkpt lat="43.61051" lon="1.1747">
        <ele>264.79998779297</ele>
        <time>2015-02-01T09:46:09.000Z</time>
      </trkpt>
      <trkpt lat="43.6106" lon="1.17478">
        <ele>264.60000610352</ele>
        <time>2015-02-01T09:46:24.000Z</time>
      </trkpt>
      <trkpt lat="43.61061" lon="1.17478">
        <ele>264.39999389648</ele>
        <time>2015-02-01T09:46:25.000Z</time>
      </trkpt>
      <trkpt lat="43.61062" lon="1.1748">
        <ele>264.39999389648</ele>
        <time>2015-02-01T09:46:27.000Z</time>
      </trkpt>
      <trkpt lat="43.61058" lon="1.17493">
        <ele>265.39999389648</ele>
        <time>2015-02-01T09:48:29.000Z</time>
      </trkpt>
      <trkpt lat="43.61057" lon="1.1749">
        <ele>265.39999389648</ele>
        <time>2015-02-01T09:48:36.000Z</time>
      </trkpt>
      <trkpt lat="43.61062" lon="1.17491">
        <ele>265</ele>
        <time>2015-02-01T09:48:44.000Z</time>
      </trkpt>
      <trkpt lat="43.61066" lon="1.17492">
        <ele>264.79998779297</ele>
        <time>2015-02-01T09:48:50.000Z</time>
      </trkpt>
      <trkpt lat="43.61071" lon="1.17495">
        <ele>264.39999389648</ele>
        <time>2015-02-01T09:48:56.000Z</time>
      </trkpt>
      <trkpt lat="43.61074" lon="1.17499">
        <ele>264.39999389648</ele>
        <time>2015-02-01T09:48:59.000Z</time>
      </trkpt>
      <trkpt lat="43.61082" lon="1.17508">
        <ele>264.20001220703</ele>
        <time>2015-02-01T09:49:03.000Z</time>
      </trkpt>
      <trkpt lat="43.61083" lon="1.17512">
        <ele>264.20001220703</ele>
        <time>2015-02-01T09:49:06.000Z</time>
      </trkpt>
      <trkpt lat="43.61086" lon="1.17519">
        <ele>264.39999389648</ele>
        <time>2015-02-01T09:49:09.000Z</time>
      </trkpt>
      <trkpt lat="43.61099" lon="1.1755">
        <ele>264.60000610352</ele>
        <time>2015-02-01T09:49:20.000Z</time>
      </trkpt>
      <trkpt lat="43.61103" lon="1.17563">
        <ele>265</ele>
        <time>2015-02-01T09:49:25.000Z</time>
      </trkpt>
      <trkpt lat="43.6111" lon="1.17564">
        <ele>264.39999389648</ele>
        <time>2015-02-01T09:49:29.000Z</time>
      </trkpt>
      <trkpt lat="43.61113" lon="1.17565">
        <ele>264.39999389648</ele>
        <time>2015-02-01T09:49:30.000Z</time>
      </trkpt>
      <trkpt lat="43.61128" lon="1.17571">
        <ele>263.60000610352</ele>
        <time>2015-02-01T09:49:36.000Z</time>
      </trkpt>
      <trkpt lat="43.61143" lon="1.17587">
        <ele>263.20001220703</ele>
        <time>2015-02-01T09:49:42.000Z</time>
      </trkpt>
      <trkpt lat="43.61145" lon="1.1759">
        <ele>263.20001220703</ele>
        <time>2015-02-01T09:49:44.000Z</time>
      </trkpt>
      <trkpt lat="43.61155" lon="1.17599">
        <ele>263</ele>
        <time>2015-02-01T09:49:49.000Z</time>
      </trkpt>
      <trkpt lat="43.6116" lon="1.1761">
        <ele>263.20001220703</ele>
        <time>2015-02-01T09:49:52.000Z</time>
      </trkpt>
      <trkpt lat="43.61162" lon="1.17612">
        <ele>263.20001220703</ele>
        <time>2015-02-01T09:49:54.000Z</time>
      </trkpt>
      <trkpt lat="43.61164" lon="1.17625">
        <ele>263.60000610352</ele>
        <time>2015-02-01T09:49:57.000Z</time>
      </trkpt>
      <trkpt lat="43.61165" lon="1.17628">
        <ele>263.79998779297</ele>
        <time>2015-02-01T09:49:59.000Z</time>
      </trkpt>
      <trkpt lat="43.61175" lon="1.17638">
        <ele>263.60000610352</ele>
        <time>2015-02-01T09:50:03.000Z</time>
      </trkpt>
      <trkpt lat="43.61177" lon="1.17641">
        <ele>263.60000610352</ele>
        <time>2015-02-01T09:50:05.000Z</time>
      </trkpt>
      <trkpt lat="43.61181" lon="1.17645">
        <ele>263.39999389648</ele>
        <time>2015-02-01T09:50:07.000Z</time>
      </trkpt>
      <trkpt lat="43.61187" lon="1.17655">
        <ele>263.39999389648</ele>
        <time>2015-02-01T09:50:11.000Z</time>
      </trkpt>
      <trkpt lat="43.61191" lon="1.1766">
        <ele>263.39999389648</ele>
        <time>2015-02-01T09:50:12.000Z</time>
      </trkpt>
      <trkpt lat="43.61196" lon="1.17664">
        <ele>263.20001220703</ele>
        <time>2015-02-01T09:50:15.000Z</time>
      </trkpt>
      <trkpt lat="43.61217" lon="1.17686">
        <ele>262.79998779297</ele>
        <time>2015-02-01T09:50:26.000Z</time>
      </trkpt>
      <trkpt lat="43.6122" lon="1.17696">
        <ele>263.20001220703</ele>
        <time>2015-02-01T09:50:31.000Z</time>
      </trkpt>
      <trkpt lat="43.61223" lon="1.17713">
        <ele>264</ele>
        <time>2015-02-01T09:50:37.000Z</time>
      </trkpt>
      <trkpt lat="43.61223" lon="1.17717">
        <ele>264.20001220703</ele>
        <time>2015-02-01T09:50:39.000Z</time>
      </trkpt>
      <trkpt lat="43.61225" lon="1.17727">
        <ele>264.60000610352</ele>
        <time>2015-02-01T09:50:42.000Z</time>
      </trkpt>
      <trkpt lat="43.61225" lon="1.17732">
        <ele>264.60000610352</ele>
        <time>2015-02-01T09:50:45.000Z</time>
      </trkpt>
      <trkpt lat="43.61229" lon="1.17743">
        <ele>264.20001220703</ele>
        <time>2015-02-01T09:50:49.000Z</time>
      </trkpt>
      <trkpt lat="43.61238" lon="1.17751">
        <ele>263.20001220703</ele>
        <time>2015-02-01T09:50:54.000Z</time>
      </trkpt>
      <trkpt lat="43.61247" lon="1.17758">
        <ele>262.39999389648</ele>
        <time>2015-02-01T09:50:57.000Z</time>
      </trkpt>
      <trkpt lat="43.61252" lon="1.17768">
        <ele>262</ele>
        <time>2015-02-01T09:51:02.000Z</time>
      </trkpt>
      <trkpt lat="43.61256" lon="1.17775">
        <ele>261.60000610352</ele>
        <time>2015-02-01T09:51:06.000Z</time>
      </trkpt>
      <trkpt lat="43.6126" lon="1.1778">
        <ele>261</ele>
        <time>2015-02-01T09:51:09.000Z</time>
      </trkpt>
      <trkpt lat="43.61266" lon="1.17784">
        <ele>260.60000610352</ele>
        <time>2015-02-01T09:51:12.000Z</time>
      </trkpt>
      <trkpt lat="43.6127" lon="1.17792">
        <ele>260.20001220703</ele>
        <time>2015-02-01T09:51:15.000Z</time>
      </trkpt>
      <trkpt lat="43.6128" lon="1.17804">
        <ele>259.79998779297</ele>
        <time>2015-02-01T09:51:21.000Z</time>
      </trkpt>
      <trkpt lat="43.61287" lon="1.17817">
        <ele>259.60000610352</ele>
        <time>2015-02-01T09:51:27.000Z</time>
      </trkpt>
      <trkpt lat="43.61297" lon="1.17833">
        <ele>259.39999389648</ele>
        <time>2015-02-01T09:51:33.000Z</time>
      </trkpt>
      <trkpt lat="43.61302" lon="1.17846">
        <ele>259.20001220703</ele>
        <time>2015-02-01T09:51:37.000Z</time>
      </trkpt>
      <trkpt lat="43.61309" lon="1.17862">
        <ele>259.60000610352</ele>
        <time>2015-02-01T09:51:42.000Z</time>
      </trkpt>
      <trkpt lat="43.6131" lon="1.17864">
        <ele>259.60000610352</ele>
        <time>2015-02-01T09:51:44.000Z</time>
      </trkpt>
      <trkpt lat="43.61316" lon="1.17871">
        <ele>259.39999389648</ele>
        <time>2015-02-01T09:51:47.000Z</time>
      </trkpt>
      <trkpt lat="43.6132" lon="1.17875">
        <ele>259.39999389648</ele>
        <time>2015-02-01T09:51:50.000Z</time>
      </trkpt>
      <trkpt lat="43.61327" lon="1.17884">
        <ele>259.20001220703</ele>
        <time>2015-02-01T09:51:54.000Z</time>
      </trkpt>
      <trkpt lat="43.61329" lon="1.17883">
        <ele>259.20001220703</ele>
        <time>2015-02-01T09:51:55.000Z</time>
      </trkpt>
      <trkpt lat="43.61331" lon="1.17884">
        <ele>259</ele>
        <time>2015-02-01T09:51:56.000Z</time>
      </trkpt>
      <trkpt lat="43.61335" lon="1.17884">
        <ele>258.60000610352</ele>
        <time>2015-02-01T09:51:57.000Z</time>
      </trkpt>
      <trkpt lat="43.61347" lon="1.17898">
        <ele>258.60000610352</ele>
        <time>2015-02-01T09:52:03.000Z</time>
      </trkpt>
      <trkpt lat="43.61356" lon="1.17911">
        <ele>258.60000610352</ele>
        <time>2015-02-01T09:52:09.000Z</time>
      </trkpt>
      <trkpt lat="43.61359" lon="1.17922">
        <ele>259</ele>
        <time>2015-02-01T09:52:13.000Z</time>
      </trkpt>
      <trkpt lat="43.6136" lon="1.17924">
        <ele>259.20001220703</ele>
        <time>2015-02-01T09:52:14.000Z</time>
      </trkpt>
      <trkpt lat="43.61366" lon="1.17932">
        <ele>259.20001220703</ele>
        <time>2015-02-01T09:52:19.000Z</time>
      </trkpt>
      <trkpt lat="43.61368" lon="1.17935">
        <ele>259.39999389648</ele>
        <time>2015-02-01T09:52:20.000Z</time>
      </trkpt>
      <trkpt lat="43.61384" lon="1.17947">
        <ele>259.39999389648</ele>
        <time>2015-02-01T09:52:27.000Z</time>
      </trkpt>
      <trkpt lat="43.6139" lon="1.17944">
        <ele>259</ele>
        <time>2015-02-01T09:52:31.000Z</time>
      </trkpt>
      <trkpt lat="43.61404" lon="1.17951">
        <ele>258.79998779297</ele>
        <time>2015-02-01T09:52:36.000Z</time>
      </trkpt>
      <trkpt lat="43.61412" lon="1.17952">
        <ele>258.79998779297</ele>
        <time>2015-02-01T09:52:39.000Z</time>
      </trkpt>
      <trkpt lat="43.61424" lon="1.17963">
        <ele>258.79998779297</ele>
        <time>2015-02-01T09:52:45.000Z</time>
      </trkpt>
      <trkpt lat="43.61429" lon="1.17974">
        <ele>259</ele>
        <time>2015-02-01T09:52:49.000Z</time>
      </trkpt>
      <trkpt lat="43.61429" lon="1.17977">
        <ele>259.20001220703</ele>
        <time>2015-02-01T09:52:50.000Z</time>
      </trkpt>
      <trkpt lat="43.61432" lon="1.17983">
        <ele>259.20001220703</ele>
        <time>2015-02-01T09:52:54.000Z</time>
      </trkpt>
      <trkpt lat="43.61436" lon="1.17986">
        <ele>259.20001220703</ele>
        <time>2015-02-01T09:53:02.000Z</time>
      </trkpt>
      <trkpt lat="43.61438" lon="1.17988">
        <ele>259.20001220703</ele>
        <time>2015-02-01T09:53:12.000Z</time>
      </trkpt>
      <trkpt lat="43.61438" lon="1.18004">
        <ele>259.39999389648</ele>
        <time>2015-02-01T09:54:11.000Z</time>
      </trkpt>
      <trkpt lat="43.61438" lon="1.18011">
        <ele>259.60000610352</ele>
        <time>2015-02-01T09:54:32.000Z</time>
      </trkpt>
      <trkpt lat="43.61439" lon="1.18013">
        <ele>259.60000610352</ele>
        <time>2015-02-01T09:54:33.000Z</time>
      </trkpt>
      <trkpt lat="43.61436" lon="1.1802">
        <ele>260</ele>
        <time>2015-02-01T09:54:37.000Z</time>
      </trkpt>
      <trkpt lat="43.61432" lon="1.18028">
        <ele>260.39999389648</ele>
        <time>2015-02-01T09:54:42.000Z</time>
      </trkpt>
      <trkpt lat="43.61432" lon="1.18036">
        <ele>260.60000610352</ele>
        <time>2015-02-01T09:54:47.000Z</time>
      </trkpt>
      <trkpt lat="43.61431" lon="1.1804">
        <ele>260.60000610352</ele>
        <time>2015-02-01T09:54:49.000Z</time>
      </trkpt>
      <trkpt lat="43.61431" lon="1.18043">
        <ele>260.79998779297</ele>
        <time>2015-02-01T09:54:51.000Z</time>
      </trkpt>
      <trkpt lat="43.61432" lon="1.18048">
        <ele>260.79998779297</ele>
        <time>2015-02-01T09:54:54.000Z</time>
      </trkpt>
      <trkpt lat="43.61433" lon="1.1805">
        <ele>260.79998779297</ele>
        <time>2015-02-01T09:54:56.000Z</time>
      </trkpt>
      <trkpt lat="43.61441" lon="1.18059">
        <ele>260.60000610352</ele>
        <time>2015-02-01T09:55:01.000Z</time>
      </trkpt>
      <trkpt lat="43.61443" lon="1.18068">
        <ele>261</ele>
        <time>2015-02-01T09:55:05.000Z</time>
      </trkpt>
      <trkpt lat="43.61443" lon="1.18079">
        <ele>261.20001220703</ele>
        <time>2015-02-01T09:55:09.000Z</time>
      </trkpt>
      <trkpt lat="43.61431" lon="1.18098">
        <ele>261.60000610352</ele>
        <time>2015-02-01T09:55:21.000Z</time>
      </trkpt>
      <trkpt lat="43.61424" lon="1.18103">
        <ele>262</ele>
        <time>2015-02-01T09:55:27.000Z</time>
      </trkpt>
      <trkpt lat="43.61414" lon="1.1811">
        <ele>262.60000610352</ele>
        <time>2015-02-01T09:55:32.000Z</time>
      </trkpt>
      <trkpt lat="43.61413" lon="1.18111">
        <ele>262.60000610352</ele>
        <time>2015-02-01T09:55:33.000Z</time>
      </trkpt>
      <trkpt lat="43.61406" lon="1.18121">
        <ele>263</ele>
        <time>2015-02-01T09:55:39.000Z</time>
      </trkpt>
      <trkpt lat="43.61405" lon="1.18122">
        <ele>263</ele>
        <time>2015-02-01T09:55:41.000Z</time>
      </trkpt>
      <trkpt lat="43.61398" lon="1.18133">
        <ele>263.39999389648</ele>
        <time>2015-02-01T09:55:47.000Z</time>
      </trkpt>
      <trkpt lat="43.6139" lon="1.18139">
        <ele>263.60000610352</ele>
        <time>2015-02-01T09:55:52.000Z</time>
      </trkpt>
      <trkpt lat="43.61383" lon="1.18145">
        <ele>263.79998779297</ele>
        <time>2015-02-01T09:55:57.000Z</time>
      </trkpt>
      <trkpt lat="43.61379" lon="1.18149">
        <ele>264.20001220703</ele>
        <time>2015-02-01T09:56:01.000Z</time>
      </trkpt>
      <trkpt lat="43.61374" lon="1.18153">
        <ele>264.60000610352</ele>
        <time>2015-02-01T09:56:05.000Z</time>
      </trkpt>
      <trkpt lat="43.61372" lon="1.18156">
        <ele>264.60000610352</ele>
        <time>2015-02-01T09:56:07.000Z</time>
      </trkpt>
      <trkpt lat="43.61366" lon="1.1816">
        <ele>265</ele>
        <time>2015-02-01T09:56:11.000Z</time>
      </trkpt>
      <trkpt lat="43.61344" lon="1.18179">
        <ele>265.39999389648</ele>
        <time>2015-02-01T09:56:24.000Z</time>
      </trkpt>
      <trkpt lat="43.6133" lon="1.18192">
        <ele>266.39999389648</ele>
        <time>2015-02-01T09:56:32.000Z</time>
      </trkpt>
      <trkpt lat="43.61322" lon="1.18201">
        <ele>266.79998779297</ele>
        <time>2015-02-01T09:56:37.000Z</time>
      </trkpt>
      <trkpt lat="43.61318" lon="1.18203">
        <ele>266.79998779297</ele>
        <time>2015-02-01T09:56:39.000Z</time>
      </trkpt>
      <trkpt lat="43.61308" lon="1.18215">
        <ele>266.60000610352</ele>
        <time>2015-02-01T09:56:45.000Z</time>
      </trkpt>
      <trkpt lat="43.61311" lon="1.18223">
        <ele>266.20001220703</ele>
        <time>2015-02-01T09:56:50.000Z</time>
      </trkpt>
      <trkpt lat="43.61315" lon="1.18225">
        <ele>266</ele>
        <time>2015-02-01T09:56:52.000Z</time>
      </trkpt>
      <trkpt lat="43.6132" lon="1.18227">
        <ele>265.79998779297</ele>
        <time>2015-02-01T09:56:56.000Z</time>
      </trkpt>
      <trkpt lat="43.6133" lon="1.18232">
        <ele>265.39999389648</ele>
        <time>2015-02-01T09:57:02.000Z</time>
      </trkpt>
      <trkpt lat="43.61333" lon="1.18233">
        <ele>265.39999389648</ele>
        <time>2015-02-01T09:57:03.000Z</time>
      </trkpt>
      <trkpt lat="43.61339" lon="1.18234">
        <ele>265.20001220703</ele>
        <time>2015-02-01T09:57:07.000Z</time>
      </trkpt>
      <trkpt lat="43.6135" lon="1.18229">
        <ele>265</ele>
        <time>2015-02-01T09:57:12.000Z</time>
      </trkpt>
      <trkpt lat="43.61362" lon="1.18225">
        <ele>265</ele>
        <time>2015-02-01T09:57:19.000Z</time>
      </trkpt>
      <trkpt lat="43.61385" lon="1.1822">
        <ele>265</ele>
        <time>2015-02-01T09:57:31.000Z</time>
      </trkpt>
      <trkpt lat="43.61395" lon="1.18218">
        <ele>265</ele>
        <time>2015-02-01T09:57:36.000Z</time>
      </trkpt>
      <trkpt lat="43.61406" lon="1.18215">
        <ele>265</ele>
        <time>2015-02-01T09:57:41.000Z</time>
      </trkpt>
      <trkpt lat="43.61417" lon="1.1821">
        <ele>265</ele>
        <time>2015-02-01T09:57:45.000Z</time>
      </trkpt>
      <trkpt lat="43.61427" lon="1.18204">
        <ele>264.39999389648</ele>
        <time>2015-02-01T09:57:51.000Z</time>
      </trkpt>
      <trkpt lat="43.61437" lon="1.18202">
        <ele>264</ele>
        <time>2015-02-01T09:57:56.000Z</time>
      </trkpt>
      <trkpt lat="43.61438" lon="1.18203">
        <ele>264</ele>
        <time>2015-02-01T09:57:57.000Z</time>
      </trkpt>
      <trkpt lat="43.61449" lon="1.18199">
        <ele>264</ele>
        <time>2015-02-01T09:58:02.000Z</time>
      </trkpt>
      <trkpt lat="43.61459" lon="1.18197">
        <ele>263.79998779297</ele>
        <time>2015-02-01T09:58:06.000Z</time>
      </trkpt>
      <trkpt lat="43.61473" lon="1.18191">
        <ele>263.60000610352</ele>
        <time>2015-02-01T09:58:12.000Z</time>
      </trkpt>
      <trkpt lat="43.61491" lon="1.18186">
        <ele>263.39999389648</ele>
        <time>2015-02-01T09:58:21.000Z</time>
      </trkpt>
      <trkpt lat="43.61504" lon="1.18182">
        <ele>263</ele>
        <time>2015-02-01T09:58:27.000Z</time>
      </trkpt>
      <trkpt lat="43.61514" lon="1.18181">
        <ele>262.79998779297</ele>
        <time>2015-02-01T09:58:32.000Z</time>
      </trkpt>
      <trkpt lat="43.61527" lon="1.18182">
        <ele>262.39999389648</ele>
        <time>2015-02-01T09:58:37.000Z</time>
      </trkpt>
      <trkpt lat="43.61542" lon="1.18181">
        <ele>262</ele>
        <time>2015-02-01T09:58:44.000Z</time>
      </trkpt>
      <trkpt lat="43.6155" lon="1.1818">
        <ele>261.60000610352</ele>
        <time>2015-02-01T09:58:47.000Z</time>
      </trkpt>
      <trkpt lat="43.61565" lon="1.18177">
        <ele>260.60000610352</ele>
        <time>2015-02-01T09:58:55.000Z</time>
      </trkpt>
      <trkpt lat="43.61565" lon="1.18177">
        <ele>260.60000610352</ele>
        <time>2015-02-01T09:58:56.000Z</time>
      </trkpt>
      <trkpt lat="43.61574" lon="1.18177">
        <ele>260</ele>
        <time>2015-02-01T09:59:00.000Z</time>
      </trkpt>
      <trkpt lat="43.61584" lon="1.18178">
        <ele>259.39999389648</ele>
        <time>2015-02-01T09:59:05.000Z</time>
      </trkpt>
      <trkpt lat="43.61595" lon="1.18183">
        <ele>259.20001220703</ele>
        <time>2015-02-01T09:59:11.000Z</time>
      </trkpt>
      <trkpt lat="43.61596" lon="1.18185">
        <ele>259.20001220703</ele>
        <time>2015-02-01T09:59:12.000Z</time>
      </trkpt>
      <trkpt lat="43.616" lon="1.18188">
        <ele>259.20001220703</ele>
        <time>2015-02-01T09:59:14.000Z</time>
      </trkpt>
      <trkpt lat="43.61617" lon="1.18201">
        <ele>258.39999389648</ele>
        <time>2015-02-01T09:59:23.000Z</time>
      </trkpt>
      <trkpt lat="43.61619" lon="1.18202">
        <ele>258.20001220703</ele>
        <time>2015-02-01T09:59:24.000Z</time>
      </trkpt>
      <trkpt lat="43.61628" lon="1.18207">
        <ele>257.60000610352</ele>
        <time>2015-02-01T09:59:29.000Z</time>
      </trkpt>
      <trkpt lat="43.61641" lon="1.18204">
        <ele>256</ele>
        <time>2015-02-01T09:59:33.000Z</time>
      </trkpt>
      <trkpt lat="43.6165" lon="1.18206">
        <ele>255.19999694824</ele>
        <time>2015-02-01T09:59:38.000Z</time>
      </trkpt>
      <trkpt lat="43.61658" lon="1.18206">
        <ele>254.19999694824</ele>
        <time>2015-02-01T09:59:41.000Z</time>
      </trkpt>
      <trkpt lat="43.61665" lon="1.18211">
        <ele>254</ele>
        <time>2015-02-01T09:59:44.000Z</time>
      </trkpt>
      <trkpt lat="43.61673" lon="1.18221">
        <ele>253.80000305176</ele>
        <time>2015-02-01T09:59:48.000Z</time>
      </trkpt>
      <trkpt lat="43.61677" lon="1.18226">
        <ele>253.80000305176</ele>
        <time>2015-02-01T09:59:50.000Z</time>
      </trkpt>
      <trkpt lat="43.61683" lon="1.18244">
        <ele>254</ele>
        <time>2015-02-01T09:59:56.000Z</time>
      </trkpt>
      <trkpt lat="43.61687" lon="1.18255">
        <ele>254.19999694824</ele>
        <time>2015-02-01T10:00:00.000Z</time>
      </trkpt>
      <trkpt lat="43.61688" lon="1.18271">
        <ele>254.80000305176</ele>
        <time>2015-02-01T10:00:05.000Z</time>
      </trkpt>
      <trkpt lat="43.6169" lon="1.18281">
        <ele>255</ele>
        <time>2015-02-01T10:00:09.000Z</time>
      </trkpt>
      <trkpt lat="43.61692" lon="1.18283">
        <ele>255</ele>
        <time>2015-02-01T10:00:10.000Z</time>
      </trkpt>
      <trkpt lat="43.61696" lon="1.18298">
        <ele>255.19999694824</ele>
        <time>2015-02-01T10:00:14.000Z</time>
      </trkpt>
      <trkpt lat="43.61701" lon="1.18306">
        <ele>255.19999694824</ele>
        <time>2015-02-01T10:00:21.000Z</time>
      </trkpt>
      <trkpt lat="43.61703" lon="1.18314">
        <ele>255.19999694824</ele>
        <time>2015-02-01T10:00:25.000Z</time>
      </trkpt>
      <trkpt lat="43.61711" lon="1.18329">
        <ele>254.80000305176</ele>
        <time>2015-02-01T10:00:31.000Z</time>
      </trkpt>
      <trkpt lat="43.61716" lon="1.18336">
        <ele>254.60000610352</ele>
        <time>2015-02-01T10:00:35.000Z</time>
      </trkpt>
      <trkpt lat="43.61722" lon="1.18348">
        <ele>254.39999389648</ele>
        <time>2015-02-01T10:00:41.000Z</time>
      </trkpt>
      <trkpt lat="43.61722" lon="1.18349">
        <ele>254.39999389648</ele>
        <time>2015-02-01T10:00:42.000Z</time>
      </trkpt>
      <trkpt lat="43.61724" lon="1.18351">
        <ele>254.19999694824</ele>
        <time>2015-02-01T10:00:45.000Z</time>
      </trkpt>
      <trkpt lat="43.6173" lon="1.18356">
        <ele>253.80000305176</ele>
        <time>2015-02-01T10:00:49.000Z</time>
      </trkpt>
      <trkpt lat="43.61735" lon="1.18363">
        <ele>253.39999389648</ele>
        <time>2015-02-01T10:00:52.000Z</time>
      </trkpt>
      <trkpt lat="43.61738" lon="1.18367">
        <ele>253.39999389648</ele>
        <time>2015-02-01T10:00:55.000Z</time>
      </trkpt>
      <trkpt lat="43.61741" lon="1.18372">
        <ele>253.19999694824</ele>
        <time>2015-02-01T10:00:57.000Z</time>
      </trkpt>
      <trkpt lat="43.61745" lon="1.18386">
        <ele>253</ele>
        <time>2015-02-01T10:01:02.000Z</time>
      </trkpt>
      <trkpt lat="43.61749" lon="1.18396">
        <ele>252.80000305176</ele>
        <time>2015-02-01T10:01:06.000Z</time>
      </trkpt>
      <trkpt lat="43.61757" lon="1.184">
        <ele>252.19999694824</ele>
        <time>2015-02-01T10:01:10.000Z</time>
      </trkpt>
      <trkpt lat="43.61765" lon="1.18408">
        <ele>251.60000610352</ele>
        <time>2015-02-01T10:01:14.000Z</time>
      </trkpt>
      <trkpt lat="43.61769" lon="1.18409">
        <ele>251.39999389648</ele>
        <time>2015-02-01T10:01:15.000Z</time>
      </trkpt>
      <trkpt lat="43.61778" lon="1.18416">
        <ele>251</ele>
        <time>2015-02-01T10:01:19.000Z</time>
      </trkpt>
      <trkpt lat="43.61785" lon="1.18421">
        <ele>250.80000305176</ele>
        <time>2015-02-01T10:01:22.000Z</time>
      </trkpt>
      <trkpt lat="43.61793" lon="1.18428">
        <ele>250.60000610352</ele>
        <time>2015-02-01T10:01:27.000Z</time>
      </trkpt>
      <trkpt lat="43.61797" lon="1.18436">
        <ele>250.60000610352</ele>
        <time>2015-02-01T10:01:30.000Z</time>
      </trkpt>
      <trkpt lat="43.61807" lon="1.18447">
        <ele>250.39999389648</ele>
        <time>2015-02-01T10:01:35.000Z</time>
      </trkpt>
      <trkpt lat="43.61815" lon="1.18454">
        <ele>250.19999694824</ele>
        <time>2015-02-01T10:01:39.000Z</time>
      </trkpt>
      <trkpt lat="43.61827" lon="1.1847">
        <ele>250</ele>
        <time>2015-02-01T10:01:46.000Z</time>
      </trkpt>
      <trkpt lat="43.6183" lon="1.18476">
        <ele>250</ele>
        <time>2015-02-01T10:01:48.000Z</time>
      </trkpt>
      <trkpt lat="43.61833" lon="1.1849">
        <ele>250.19999694824</ele>
        <time>2015-02-01T10:01:53.000Z</time>
      </trkpt>
      <trkpt lat="43.61833" lon="1.18494">
        <ele>250.19999694824</ele>
        <time>2015-02-01T10:01:54.000Z</time>
      </trkpt>
      <trkpt lat="43.61838" lon="1.18508">
        <ele>250.39999389648</ele>
        <time>2015-02-01T10:01:59.000Z</time>
      </trkpt>
      <trkpt lat="43.61848" lon="1.18519">
        <ele>250.19999694824</ele>
        <time>2015-02-01T10:02:05.000Z</time>
      </trkpt>
      <trkpt lat="43.61855" lon="1.18526">
        <ele>250</ele>
        <time>2015-02-01T10:02:08.000Z</time>
      </trkpt>
      <trkpt lat="43.61859" lon="1.18535">
        <ele>250</ele>
        <time>2015-02-01T10:02:11.000Z</time>
      </trkpt>
      <trkpt lat="43.61862" lon="1.18541">
        <ele>250</ele>
        <time>2015-02-01T10:02:13.000Z</time>
      </trkpt>
      <trkpt lat="43.61869" lon="1.1856">
        <ele>250</ele>
        <time>2015-02-01T10:02:19.000Z</time>
      </trkpt>
      <trkpt lat="43.61872" lon="1.18568">
        <ele>249.60000610352</ele>
        <time>2015-02-01T10:02:22.000Z</time>
      </trkpt>
      <trkpt lat="43.61876" lon="1.18585">
        <ele>249</ele>
        <time>2015-02-01T10:02:27.000Z</time>
      </trkpt>
      <trkpt lat="43.6188" lon="1.18602">
        <ele>248.80000305176</ele>
        <time>2015-02-01T10:02:32.000Z</time>
      </trkpt>
      <trkpt lat="43.61886" lon="1.18615">
        <ele>248.39999389648</ele>
        <time>2015-02-01T10:02:36.000Z</time>
      </trkpt>
      <trkpt lat="43.61891" lon="1.18626">
        <ele>248</ele>
        <time>2015-02-01T10:02:39.000Z</time>
      </trkpt>
      <trkpt lat="43.61895" lon="1.18644">
        <ele>248</ele>
        <time>2015-02-01T10:02:44.000Z</time>
      </trkpt>
      <trkpt lat="43.61896" lon="1.18649">
        <ele>247.80000305176</ele>
        <time>2015-02-01T10:02:45.000Z</time>
      </trkpt>
      <trkpt lat="43.61898" lon="1.18668">
        <ele>247.80000305176</ele>
        <time>2015-02-01T10:02:50.000Z</time>
      </trkpt>
      <trkpt lat="43.61901" lon="1.18685">
        <ele>247.80000305176</ele>
        <time>2015-02-01T10:02:55.000Z</time>
      </trkpt>
      <trkpt lat="43.61908" lon="1.18692">
        <ele>247.19999694824</ele>
        <time>2015-02-01T10:02:57.000Z</time>
      </trkpt>
      <trkpt lat="43.61917" lon="1.18691">
        <ele>246.39999389648</ele>
        <time>2015-02-01T10:03:01.000Z</time>
      </trkpt>
      <trkpt lat="43.61929" lon="1.187">
        <ele>245.39999389648</ele>
        <time>2015-02-01T10:03:06.000Z</time>
      </trkpt>
      <trkpt lat="43.6193" lon="1.18716">
        <ele>245.39999389648</ele>
        <time>2015-02-01T10:03:10.000Z</time>
      </trkpt>
      <trkpt lat="43.61932" lon="1.18734">
        <ele>245</ele>
        <time>2015-02-01T10:03:14.000Z</time>
      </trkpt>
      <trkpt lat="43.61931" lon="1.18739">
        <ele>244.80000305176</ele>
        <time>2015-02-01T10:03:15.000Z</time>
      </trkpt>
      <trkpt lat="43.61927" lon="1.18758">
        <ele>244.19999694824</ele>
        <time>2015-02-01T10:03:20.000Z</time>
      </trkpt>
      <trkpt lat="43.61929" lon="1.18787">
        <ele>242.60000610352</ele>
        <time>2015-02-01T10:03:26.000Z</time>
      </trkpt>
      <trkpt lat="43.61927" lon="1.18808">
        <ele>241.80000305176</ele>
        <time>2015-02-01T10:03:31.000Z</time>
      </trkpt>
      <trkpt lat="43.61922" lon="1.18832">
        <ele>242</ele>
        <time>2015-02-01T10:03:36.000Z</time>
      </trkpt>
      <trkpt lat="43.61918" lon="1.18855">
        <ele>242.19999694824</ele>
        <time>2015-02-01T10:03:41.000Z</time>
      </trkpt>
      <trkpt lat="43.61913" lon="1.18873">
        <ele>242.60000610352</ele>
        <time>2015-02-01T10:03:45.000Z</time>
      </trkpt>
      <trkpt lat="43.61907" lon="1.1889">
        <ele>242.80000305176</ele>
        <time>2015-02-01T10:03:49.000Z</time>
      </trkpt>
      <trkpt lat="43.619" lon="1.18907">
        <ele>243</ele>
        <time>2015-02-01T10:03:54.000Z</time>
      </trkpt>
      <trkpt lat="43.61894" lon="1.18929">
        <ele>243.19999694824</ele>
        <time>2015-02-01T10:03:59.000Z</time>
      </trkpt>
      <trkpt lat="43.61887" lon="1.18946">
        <ele>242.80000305176</ele>
        <time>2015-02-01T10:04:02.000Z</time>
      </trkpt>
      <trkpt lat="43.61883" lon="1.18965">
        <ele>241.80000305176</ele>
        <time>2015-02-01T10:04:07.000Z</time>
      </trkpt>
      <trkpt lat="43.61877" lon="1.18986">
        <ele>241.39999389648</ele>
        <time>2015-02-01T10:04:12.000Z</time>
      </trkpt>
      <trkpt lat="43.6187" lon="1.19005">
        <ele>241.19999694824</ele>
        <time>2015-02-01T10:04:16.000Z</time>
      </trkpt>
      <trkpt lat="43.61858" lon="1.1902">
        <ele>239.80000305176</ele>
        <time>2015-02-01T10:04:22.000Z</time>
      </trkpt>
      <trkpt lat="43.61857" lon="1.19027">
        <ele>239.19999694824</ele>
        <time>2015-02-01T10:04:27.000Z</time>
      </trkpt>
      <trkpt lat="43.61858" lon="1.1903">
        <ele>239.19999694824</ele>
        <time>2015-02-01T10:04:30.000Z</time>
      </trkpt>
      <trkpt lat="43.61865" lon="1.19031">
        <ele>239.39999389648</ele>
        <time>2015-02-01T10:04:36.000Z</time>
      </trkpt>
      <trkpt lat="43.61866" lon="1.19032">
        <ele>239.39999389648</ele>
        <time>2015-02-01T10:04:38.000Z</time>
      </trkpt>
      <trkpt lat="43.61873" lon="1.19031">
        <ele>239.80000305176</ele>
        <time>2015-02-01T10:04:47.000Z</time>
      </trkpt>
      <trkpt lat="43.61876" lon="1.19028">
        <ele>240.19999694824</ele>
        <time>2015-02-01T10:04:51.000Z</time>
      </trkpt>
      <trkpt lat="43.61876" lon="1.1902">
        <ele>240.60000610352</ele>
        <time>2015-02-01T10:04:59.000Z</time>
      </trkpt>
      <trkpt lat="43.61876" lon="1.1902">
        <ele>240.60000610352</ele>
        <time>2015-02-01T10:05:00.000Z</time>
      </trkpt>
      <trkpt lat="43.61879" lon="1.19018">
        <ele>241</ele>
        <time>2015-02-01T10:05:06.000Z</time>
      </trkpt>
      <trkpt lat="43.6188" lon="1.19013">
        <ele>241.19999694824</ele>
        <time>2015-02-01T10:05:10.000Z</time>
      </trkpt>
      <trkpt lat="43.6188" lon="1.19011">
        <ele>241.39999389648</ele>
        <time>2015-02-01T10:05:19.000Z</time>
      </trkpt>
      <trkpt lat="43.61881" lon="1.19014">
        <ele>241.19999694824</ele>
        <time>2015-02-01T10:05:34.000Z</time>
      </trkpt>
      <trkpt lat="43.6188" lon="1.19018">
        <ele>241</ele>
        <time>2015-02-01T10:05:40.000Z</time>
      </trkpt>
      <trkpt lat="43.6188" lon="1.19021">
        <ele>240.80000305176</ele>
        <time>2015-02-01T10:05:44.000Z</time>
      </trkpt>
      <trkpt lat="43.61881" lon="1.19023">
        <ele>240.60000610352</ele>
        <time>2015-02-01T10:05:50.000Z</time>
      </trkpt>
      <trkpt lat="43.61882" lon="1.19028">
        <ele>240.39999389648</ele>
        <time>2015-02-01T10:06:00.000Z</time>
      </trkpt>
      <trkpt lat="43.6188" lon="1.19031">
        <ele>240.19999694824</ele>
        <time>2015-02-01T10:06:05.000Z</time>
      </trkpt>
      <trkpt lat="43.61879" lon="1.19032">
        <ele>240</ele>
        <time>2015-02-01T10:06:14.000Z</time>
      </trkpt>
      <trkpt lat="43.6188" lon="1.19038">
        <ele>239.80000305176</ele>
        <time>2015-02-01T10:06:21.000Z</time>
      </trkpt>
      <trkpt lat="43.61884" lon="1.1905">
        <ele>239.19999694824</ele>
        <time>2015-02-01T10:06:31.000Z</time>
      </trkpt>
      <trkpt lat="43.61887" lon="1.1906">
        <ele>238.80000305176</ele>
        <time>2015-02-01T10:06:39.000Z</time>
      </trkpt>
      <trkpt lat="43.61887" lon="1.1907">
        <ele>239</ele>
        <time>2015-02-01T10:06:47.000Z</time>
      </trkpt>
      <trkpt lat="43.61888" lon="1.19081">
        <ele>239.39999389648</ele>
        <time>2015-02-01T10:06:57.000Z</time>
      </trkpt>
      <trkpt lat="43.61891" lon="1.19089">
        <ele>239.80000305176</ele>
        <time>2015-02-01T10:07:02.000Z</time>
      </trkpt>
      <trkpt lat="43.61892" lon="1.1909">
        <ele>240</ele>
        <time>2015-02-01T10:07:04.000Z</time>
      </trkpt>
      <trkpt lat="43.61898" lon="1.19098">
        <ele>240.60000610352</ele>
        <time>2015-02-01T10:07:11.000Z</time>
      </trkpt>
      <trkpt lat="43.619" lon="1.19099">
        <ele>240.60000610352</ele>
        <time>2015-02-01T10:07:12.000Z</time>
      </trkpt>
      <trkpt lat="43.61909" lon="1.19101">
        <ele>241.19999694824</ele>
        <time>2015-02-01T10:07:17.000Z</time>
      </trkpt>
      <trkpt lat="43.61919" lon="1.19101">
        <ele>241.60000610352</ele>
        <time>2015-02-01T10:07:22.000Z</time>
      </trkpt>
      <trkpt lat="43.61932" lon="1.19109">
        <ele>242.60000610352</ele>
        <time>2015-02-01T10:07:29.000Z</time>
      </trkpt>
      <trkpt lat="43.61945" lon="1.1912">
        <ele>243.39999389648</ele>
        <time>2015-02-01T10:07:36.000Z</time>
      </trkpt>
      <trkpt lat="43.61959" lon="1.19131">
        <ele>244</ele>
        <time>2015-02-01T10:07:42.000Z</time>
      </trkpt>
      <trkpt lat="43.61969" lon="1.19136">
        <ele>244.39999389648</ele>
        <time>2015-02-01T10:07:50.000Z</time>
      </trkpt>
      <trkpt lat="43.6198" lon="1.19145">
        <ele>245</ele>
        <time>2015-02-01T10:07:56.000Z</time>
      </trkpt>
      <trkpt lat="43.61993" lon="1.19154">
        <ele>245.39999389648</ele>
        <time>2015-02-01T10:08:02.000Z</time>
      </trkpt>
      <trkpt lat="43.62004" lon="1.19164">
        <ele>245.80000305176</ele>
        <time>2015-02-01T10:08:08.000Z</time>
      </trkpt>
      <trkpt lat="43.62014" lon="1.19172">
        <ele>246.19999694824</ele>
        <time>2015-02-01T10:08:12.000Z</time>
      </trkpt>
      <trkpt lat="43.62025" lon="1.19179">
        <ele>246.19999694824</ele>
        <time>2015-02-01T10:08:17.000Z</time>
      </trkpt>
      <trkpt lat="43.62036" lon="1.19191">
        <ele>245.80000305176</ele>
        <time>2015-02-01T10:08:23.000Z</time>
      </trkpt>
      <trkpt lat="43.6205" lon="1.192">
        <ele>245.19999694824</ele>
        <time>2015-02-01T10:08:29.000Z</time>
      </trkpt>
      <trkpt lat="43.62064" lon="1.19212">
        <ele>244.60000610352</ele>
        <time>2015-02-01T10:08:35.000Z</time>
      </trkpt>
      <trkpt lat="43.62076" lon="1.19222">
        <ele>244.19999694824</ele>
        <time>2015-02-01T10:08:40.000Z</time>
      </trkpt>
      <trkpt lat="43.62078" lon="1.19224">
        <ele>244</ele>
        <time>2015-02-01T10:08:41.000Z</time>
      </trkpt>
      <trkpt lat="43.62088" lon="1.19232">
        <ele>243.80000305176</ele>
        <time>2015-02-01T10:08:45.000Z</time>
      </trkpt>
      <trkpt lat="43.62095" lon="1.19238">
        <ele>243.39999389648</ele>
        <time>2015-02-01T10:08:48.000Z</time>
      </trkpt>
      <trkpt lat="43.62098" lon="1.19255">
        <ele>243.60000610352</ele>
        <time>2015-02-01T10:08:53.000Z</time>
      </trkpt>
      <trkpt lat="43.62093" lon="1.19268">
        <ele>243.80000305176</ele>
        <time>2015-02-01T10:08:57.000Z</time>
      </trkpt>
      <trkpt lat="43.62088" lon="1.19284">
        <ele>244.39999389648</ele>
        <time>2015-02-01T10:09:02.000Z</time>
      </trkpt>
      <trkpt lat="43.62087" lon="1.19286">
        <ele>244.39999389648</ele>
        <time>2015-02-01T10:09:03.000Z</time>
      </trkpt>
      <trkpt lat="43.62081" lon="1.19301">
        <ele>244.80000305176</ele>
        <time>2015-02-01T10:09:07.000Z</time>
      </trkpt>
      <trkpt lat="43.62076" lon="1.19312">
        <ele>245</ele>
        <time>2015-02-01T10:09:11.000Z</time>
      </trkpt>
      <trkpt lat="43.62071" lon="1.19325">
        <ele>245.19999694824</ele>
        <time>2015-02-01T10:09:15.000Z</time>
      </trkpt>
      <trkpt lat="43.62062" lon="1.19351">
        <ele>246</ele>
        <time>2015-02-01T10:09:24.000Z</time>
      </trkpt>
      <trkpt lat="43.62056" lon="1.19367">
        <ele>245.60000610352</ele>
        <time>2015-02-01T10:09:30.000Z</time>
      </trkpt>
      <trkpt lat="43.62051" lon="1.19379">
        <ele>245.39999389648</ele>
        <time>2015-02-01T10:09:33.000Z</time>
      </trkpt>
      <trkpt lat="43.62042" lon="1.194">
        <ele>245</ele>
        <time>2015-02-01T10:09:41.000Z</time>
      </trkpt>
      <trkpt lat="43.62033" lon="1.19421">
        <ele>245</ele>
        <time>2015-02-01T10:09:48.000Z</time>
      </trkpt>
      <trkpt lat="43.62026" lon="1.1944">
        <ele>244.19999694824</ele>
        <time>2015-02-01T10:09:54.000Z</time>
      </trkpt>
      <trkpt lat="43.62028" lon="1.1945">
        <ele>244</ele>
        <time>2015-02-01T10:09:57.000Z</time>
      </trkpt>
      <trkpt lat="43.62035" lon="1.19458">
        <ele>244</ele>
        <time>2015-02-01T10:10:01.000Z</time>
      </trkpt>
      <trkpt lat="43.62045" lon="1.19468">
        <ele>244.19999694824</ele>
        <time>2015-02-01T10:10:07.000Z</time>
      </trkpt>
      <trkpt lat="43.62054" lon="1.19476">
        <ele>244.39999389648</ele>
        <time>2015-02-01T10:10:12.000Z</time>
      </trkpt>
      <trkpt lat="43.62074" lon="1.1949">
        <ele>244.80000305176</ele>
        <time>2015-02-01T10:10:22.000Z</time>
      </trkpt>
      <trkpt lat="43.6208" lon="1.19495">
        <ele>244.80000305176</ele>
        <time>2015-02-01T10:10:25.000Z</time>
      </trkpt>
      <trkpt lat="43.62091" lon="1.19504">
        <ele>245</ele>
        <time>2015-02-01T10:10:31.000Z</time>
      </trkpt>
      <trkpt lat="43.62101" lon="1.19515">
        <ele>245</ele>
        <time>2015-02-01T10:10:37.000Z</time>
      </trkpt>
      <trkpt lat="43.62104" lon="1.19516">
        <ele>245</ele>
        <time>2015-02-01T10:10:38.000Z</time>
      </trkpt>
      <trkpt lat="43.62112" lon="1.19521">
        <ele>244.60000610352</ele>
        <time>2015-02-01T10:10:42.000Z</time>
      </trkpt>
      <trkpt lat="43.62115" lon="1.19525">
        <ele>244.39999389648</ele>
        <time>2015-02-01T10:10:44.000Z</time>
      </trkpt>
      <trkpt lat="43.62128" lon="1.19537">
        <ele>243.60000610352</ele>
        <time>2015-02-01T10:10:50.000Z</time>
      </trkpt>
      <trkpt lat="43.6214" lon="1.19547">
        <ele>243</ele>
        <time>2015-02-01T10:10:55.000Z</time>
      </trkpt>
      <trkpt lat="43.62154" lon="1.1956">
        <ele>242.19999694824</ele>
        <time>2015-02-01T10:11:02.000Z</time>
      </trkpt>
      <trkpt lat="43.62165" lon="1.19567">
        <ele>241.80000305176</ele>
        <time>2015-02-01T10:11:07.000Z</time>
      </trkpt>
      <trkpt lat="43.62173" lon="1.19574">
        <ele>241.39999389648</ele>
        <time>2015-02-01T10:11:11.000Z</time>
      </trkpt>
      <trkpt lat="43.6219" lon="1.19587">
        <ele>241.19999694824</ele>
        <time>2015-02-01T10:11:18.000Z</time>
      </trkpt>
      <trkpt lat="43.62201" lon="1.19597">
        <ele>241.39999389648</ele>
        <time>2015-02-01T10:11:23.000Z</time>
      </trkpt>
      <trkpt lat="43.62205" lon="1.196">
        <ele>241.39999389648</ele>
        <time>2015-02-01T10:11:24.000Z</time>
      </trkpt>
      <trkpt lat="43.62218" lon="1.19609">
        <ele>241.80000305176</ele>
        <time>2015-02-01T10:11:30.000Z</time>
      </trkpt>
      <trkpt lat="43.62229" lon="1.19619">
        <ele>242</ele>
        <time>2015-02-01T10:11:35.000Z</time>
      </trkpt>
      <trkpt lat="43.62237" lon="1.19625">
        <ele>242.19999694824</ele>
        <time>2015-02-01T10:11:39.000Z</time>
      </trkpt>
      <trkpt lat="43.62246" lon="1.19635">
        <ele>242.39999389648</ele>
        <time>2015-02-01T10:11:44.000Z</time>
      </trkpt>
      <trkpt lat="43.62248" lon="1.19635">
        <ele>242.39999389648</ele>
        <time>2015-02-01T10:11:45.000Z</time>
      </trkpt>
      <trkpt lat="43.62255" lon="1.19642">
        <ele>242.60000610352</ele>
        <time>2015-02-01T10:11:50.000Z</time>
      </trkpt>
      <trkpt lat="43.62254" lon="1.19649">
        <ele>242.80000305176</ele>
        <time>2015-02-01T10:11:52.000Z</time>
      </trkpt>
      <trkpt lat="43.62252" lon="1.19655">
        <ele>242.80000305176</ele>
        <time>2015-02-01T10:11:55.000Z</time>
      </trkpt>
      <trkpt lat="43.62244" lon="1.19677">
        <ele>243.19999694824</ele>
        <time>2015-02-01T10:12:02.000Z</time>
      </trkpt>
      <trkpt lat="43.62239" lon="1.19696">
        <ele>243.60000610352</ele>
        <time>2015-02-01T10:12:08.000Z</time>
      </trkpt>
      <trkpt lat="43.62232" lon="1.19716">
        <ele>243.80000305176</ele>
        <time>2015-02-01T10:12:14.000Z</time>
      </trkpt>
      <trkpt lat="43.6223" lon="1.19723">
        <ele>244</ele>
        <time>2015-02-01T10:12:17.000Z</time>
      </trkpt>
      <trkpt lat="43.62227" lon="1.19727">
        <ele>244</ele>
        <time>2015-02-01T10:12:19.000Z</time>
      </trkpt>
      <trkpt lat="43.62222" lon="1.1974">
        <ele>243.80000305176</ele>
        <time>2015-02-01T10:12:23.000Z</time>
      </trkpt>
      <trkpt lat="43.62221" lon="1.19744">
        <ele>243.80000305176</ele>
        <time>2015-02-01T10:12:24.000Z</time>
      </trkpt>
      <trkpt lat="43.62212" lon="1.19763">
        <ele>243.60000610352</ele>
        <time>2015-02-01T10:12:31.000Z</time>
      </trkpt>
      <trkpt lat="43.62206" lon="1.19777">
        <ele>243.60000610352</ele>
        <time>2015-02-01T10:12:36.000Z</time>
      </trkpt>
      <trkpt lat="43.62201" lon="1.19793">
        <ele>243.39999389648</ele>
        <time>2015-02-01T10:12:41.000Z</time>
      </trkpt>
      <trkpt lat="43.62193" lon="1.1981">
        <ele>243.19999694824</ele>
        <time>2015-02-01T10:12:48.000Z</time>
      </trkpt>
      <trkpt lat="43.62187" lon="1.19825">
        <ele>243.39999389648</ele>
        <time>2015-02-01T10:12:53.000Z</time>
      </trkpt>
      <trkpt lat="43.62179" lon="1.19844">
        <ele>243.60000610352</ele>
        <time>2015-02-01T10:12:59.000Z</time>
      </trkpt>
      <trkpt lat="43.62172" lon="1.19859">
        <ele>243.80000305176</ele>
        <time>2015-02-01T10:13:04.000Z</time>
      </trkpt>
      <trkpt lat="43.62166" lon="1.19874">
        <ele>244</ele>
        <time>2015-02-01T10:13:09.000Z</time>
      </trkpt>
      <trkpt lat="43.62159" lon="1.1989">
        <ele>244</ele>
        <time>2015-02-01T10:13:14.000Z</time>
      </trkpt>
      <trkpt lat="43.62149" lon="1.19912">
        <ele>244.60000610352</ele>
        <time>2015-02-01T10:13:22.000Z</time>
      </trkpt>
      <trkpt lat="43.62142" lon="1.1993">
        <ele>245.19999694824</ele>
        <time>2015-02-01T10:13:28.000Z</time>
      </trkpt>
      <trkpt lat="43.62135" lon="1.19947">
        <ele>245.19999694824</ele>
        <time>2015-02-01T10:13:34.000Z</time>
      </trkpt>
      <trkpt lat="43.62128" lon="1.19961">
        <ele>245.19999694824</ele>
        <time>2015-02-01T10:13:38.000Z</time>
      </trkpt>
      <trkpt lat="43.62122" lon="1.19976">
        <ele>245.19999694824</ele>
        <time>2015-02-01T10:13:43.000Z</time>
      </trkpt>
      <trkpt lat="43.62116" lon="1.19989">
        <ele>244.60000610352</ele>
        <time>2015-02-01T10:13:47.000Z</time>
      </trkpt>
      <trkpt lat="43.6211" lon="1.20004">
        <ele>244.80000305176</ele>
        <time>2015-02-01T10:13:52.000Z</time>
      </trkpt>
      <trkpt lat="43.62104" lon="1.20019">
        <ele>245</ele>
        <time>2015-02-01T10:13:57.000Z</time>
      </trkpt>
      <trkpt lat="43.62098" lon="1.20035">
        <ele>245.39999389648</ele>
        <time>2015-02-01T10:14:02.000Z</time>
      </trkpt>
      <trkpt lat="43.62089" lon="1.20052">
        <ele>245.80000305176</ele>
        <time>2015-02-01T10:14:08.000Z</time>
      </trkpt>
      <trkpt lat="43.62082" lon="1.20067">
        <ele>245.39999389648</ele>
        <time>2015-02-01T10:14:12.000Z</time>
      </trkpt>
      <trkpt lat="43.62073" lon="1.2009">
        <ele>245</ele>
        <time>2015-02-01T10:14:19.000Z</time>
      </trkpt>
      <trkpt lat="43.62066" lon="1.20104">
        <ele>244.60000610352</ele>
        <time>2015-02-01T10:14:23.000Z</time>
      </trkpt>
      <trkpt lat="43.62057" lon="1.20128">
        <ele>244.80000305176</ele>
        <time>2015-02-01T10:14:31.000Z</time>
      </trkpt>
      <trkpt lat="43.62051" lon="1.20141">
        <ele>245</ele>
        <time>2015-02-01T10:14:35.000Z</time>
      </trkpt>
      <trkpt lat="43.62046" lon="1.20154">
        <ele>244.60000610352</ele>
        <time>2015-02-01T10:14:39.000Z</time>
      </trkpt>
      <trkpt lat="43.62041" lon="1.20165">
        <ele>244.19999694824</ele>
        <time>2015-02-01T10:14:42.000Z</time>
      </trkpt>
      <trkpt lat="43.62039" lon="1.20171">
        <ele>244.19999694824</ele>
        <time>2015-02-01T10:14:44.000Z</time>
      </trkpt>
      <trkpt lat="43.62028" lon="1.20191">
        <ele>243.80000305176</ele>
        <time>2015-02-01T10:14:51.000Z</time>
      </trkpt>
      <trkpt lat="43.62023" lon="1.20203">
        <ele>243.60000610352</ele>
        <time>2015-02-01T10:14:55.000Z</time>
      </trkpt>
      <trkpt lat="43.62015" lon="1.20221">
        <ele>243.19999694824</ele>
        <time>2015-02-01T10:15:01.000Z</time>
      </trkpt>
      <trkpt lat="43.62008" lon="1.20239">
        <ele>242.39999389648</ele>
        <time>2015-02-01T10:15:07.000Z</time>
      </trkpt>
      <trkpt lat="43.62006" lon="1.20244">
        <ele>242.19999694824</ele>
        <time>2015-02-01T10:15:09.000Z</time>
      </trkpt>
      <trkpt lat="43.62001" lon="1.2025">
        <ele>242</ele>
        <time>2015-02-01T10:15:12.000Z</time>
      </trkpt>
      <trkpt lat="43.61997" lon="1.20262">
        <ele>241.39999389648</ele>
        <time>2015-02-01T10:15:16.000Z</time>
      </trkpt>
      <trkpt lat="43.61995" lon="1.20265">
        <ele>241.19999694824</ele>
        <time>2015-02-01T10:15:17.000Z</time>
      </trkpt>
      <trkpt lat="43.6199" lon="1.20279">
        <ele>240.60000610352</ele>
        <time>2015-02-01T10:15:22.000Z</time>
      </trkpt>
      <trkpt lat="43.61978" lon="1.20302">
        <ele>241</ele>
        <time>2015-02-01T10:15:30.000Z</time>
      </trkpt>
      <trkpt lat="43.61978" lon="1.20305">
        <ele>241</ele>
        <time>2015-02-01T10:15:31.000Z</time>
      </trkpt>
      <trkpt lat="43.61969" lon="1.20324">
        <ele>241.19999694824</ele>
        <time>2015-02-01T10:15:39.000Z</time>
      </trkpt>
      <trkpt lat="43.61967" lon="1.2033">
        <ele>241.19999694824</ele>
        <time>2015-02-01T10:15:44.000Z</time>
      </trkpt>
      <trkpt lat="43.61966" lon="1.20334">
        <ele>241.19999694824</ele>
        <time>2015-02-01T10:15:48.000Z</time>
      </trkpt>
      <trkpt lat="43.61964" lon="1.20338">
        <ele>241.39999389648</ele>
        <time>2015-02-01T10:15:59.000Z</time>
      </trkpt>
      <trkpt lat="43.61961" lon="1.2034">
        <ele>241.39999389648</ele>
        <time>2015-02-01T10:16:14.000Z</time>
      </trkpt>
      <trkpt lat="43.61958" lon="1.2034">
        <ele>241.60000610352</ele>
        <time>2015-02-01T10:16:24.000Z</time>
      </trkpt>
      <trkpt lat="43.61953" lon="1.20338">
        <ele>241.80000305176</ele>
        <time>2015-02-01T10:16:52.000Z</time>
      </trkpt>
      <trkpt lat="43.61946" lon="1.20334">
        <ele>242</ele>
        <time>2015-02-01T10:16:59.000Z</time>
      </trkpt>
      <trkpt lat="43.61936" lon="1.20326">
        <ele>242.60000610352</ele>
        <time>2015-02-01T10:17:06.000Z</time>
      </trkpt>
      <trkpt lat="43.61924" lon="1.20316">
        <ele>243</ele>
        <time>2015-02-01T10:17:13.000Z</time>
      </trkpt>
      <trkpt lat="43.6191" lon="1.20306">
        <ele>243.39999389648</ele>
        <time>2015-02-01T10:17:20.000Z</time>
      </trkpt>
      <trkpt lat="43.61909" lon="1.20304">
        <ele>243.39999389648</ele>
        <time>2015-02-01T10:17:21.000Z</time>
      </trkpt>
      <trkpt lat="43.61905" lon="1.203">
        <ele>243.39999389648</ele>
        <time>2015-02-01T10:17:23.000Z</time>
      </trkpt>
      <trkpt lat="43.61891" lon="1.20289">
        <ele>243.60000610352</ele>
        <time>2015-02-01T10:17:30.000Z</time>
      </trkpt>
      <trkpt lat="43.61881" lon="1.2028">
        <ele>243.60000610352</ele>
        <time>2015-02-01T10:17:35.000Z</time>
      </trkpt>
      <trkpt lat="43.61868" lon="1.20269">
        <ele>243.80000305176</ele>
        <time>2015-02-01T10:17:41.000Z</time>
      </trkpt>
      <trkpt lat="43.61855" lon="1.20259">
        <ele>244</ele>
        <time>2015-02-01T10:17:47.000Z</time>
      </trkpt>
      <trkpt lat="43.61839" lon="1.20247">
        <ele>244</ele>
        <time>2015-02-01T10:17:54.000Z</time>
      </trkpt>
      <trkpt lat="43.61822" lon="1.20234">
        <ele>244</ele>
        <time>2015-02-01T10:18:02.000Z</time>
      </trkpt>
      <trkpt lat="43.6181" lon="1.20225">
        <ele>244</ele>
        <time>2015-02-01T10:18:07.000Z</time>
      </trkpt>
      <trkpt lat="43.61807" lon="1.20223">
        <ele>244</ele>
        <time>2015-02-01T10:18:09.000Z</time>
      </trkpt>
      <trkpt lat="43.61793" lon="1.20209">
        <ele>244</ele>
        <time>2015-02-01T10:18:16.000Z</time>
      </trkpt>
      <trkpt lat="43.61791" lon="1.2021">
        <ele>244</ele>
        <time>2015-02-01T10:18:17.000Z</time>
      </trkpt>
      <trkpt lat="43.61774" lon="1.20235">
        <ele>244</ele>
        <time>2015-02-01T10:18:26.000Z</time>
      </trkpt>
      <trkpt lat="43.61766" lon="1.20251">
        <ele>244</ele>
        <time>2015-02-01T10:18:31.000Z</time>
      </trkpt>
      <trkpt lat="43.6176" lon="1.20267">
        <ele>243.80000305176</ele>
        <time>2015-02-01T10:18:37.000Z</time>
      </trkpt>
      <trkpt lat="43.61751" lon="1.20287">
        <ele>243.80000305176</ele>
        <time>2015-02-01T10:18:45.000Z</time>
      </trkpt>
      <trkpt lat="43.61743" lon="1.20305">
        <ele>243.60000610352</ele>
        <time>2015-02-01T10:18:50.000Z</time>
      </trkpt>
      <trkpt lat="43.61734" lon="1.20325">
        <ele>243.39999389648</ele>
        <time>2015-02-01T10:18:58.000Z</time>
      </trkpt>
      <trkpt lat="43.61732" lon="1.2033">
        <ele>243.39999389648</ele>
        <time>2015-02-01T10:18:59.000Z</time>
      </trkpt>
      <trkpt lat="43.61724" lon="1.20346">
        <ele>243</ele>
        <time>2015-02-01T10:19:05.000Z</time>
      </trkpt>
      <trkpt lat="43.61723" lon="1.20349">
        <ele>243</ele>
        <time>2015-02-01T10:19:06.000Z</time>
      </trkpt>
      <trkpt lat="43.6172" lon="1.20354">
        <ele>243</ele>
        <time>2015-02-01T10:19:08.000Z</time>
      </trkpt>
      <trkpt lat="43.61714" lon="1.2037">
        <ele>243.39999389648</ele>
        <time>2015-02-01T10:19:13.000Z</time>
      </trkpt>
      <trkpt lat="43.61706" lon="1.20393">
        <ele>243.80000305176</ele>
        <time>2015-02-01T10:19:21.000Z</time>
      </trkpt>
      <trkpt lat="43.61696" lon="1.20417">
        <ele>244</ele>
        <time>2015-02-01T10:19:29.000Z</time>
      </trkpt>
      <trkpt lat="43.61685" lon="1.20434">
        <ele>244</ele>
        <time>2015-02-01T10:19:35.000Z</time>
      </trkpt>
      <trkpt lat="43.61681" lon="1.20439">
        <ele>243.80000305176</ele>
        <time>2015-02-01T10:19:37.000Z</time>
      </trkpt>
      <trkpt lat="43.61676" lon="1.20456">
        <ele>243.60000610352</ele>
        <time>2015-02-01T10:19:42.000Z</time>
      </trkpt>
      <trkpt lat="43.61671" lon="1.20465">
        <ele>243.39999389648</ele>
        <time>2015-02-01T10:19:45.000Z</time>
      </trkpt>
      <trkpt lat="43.61666" lon="1.2048">
        <ele>243.60000610352</ele>
        <time>2015-02-01T10:19:49.000Z</time>
      </trkpt>
      <trkpt lat="43.61657" lon="1.20506">
        <ele>243</ele>
        <time>2015-02-01T10:19:57.000Z</time>
      </trkpt>
      <trkpt lat="43.61655" lon="1.20511">
        <ele>242.80000305176</ele>
        <time>2015-02-01T10:19:58.000Z</time>
      </trkpt>
      <trkpt lat="43.61649" lon="1.20525">
        <ele>242.60000610352</ele>
        <time>2015-02-01T10:20:03.000Z</time>
      </trkpt>
      <trkpt lat="43.61641" lon="1.20543">
        <ele>242.39999389648</ele>
        <time>2015-02-01T10:20:09.000Z</time>
      </trkpt>
      <trkpt lat="43.6164" lon="1.20545">
        <ele>242.39999389648</ele>
        <time>2015-02-01T10:20:10.000Z</time>
      </trkpt>
      <trkpt lat="43.61639" lon="1.20547">
        <ele>242.39999389648</ele>
        <time>2015-02-01T10:20:12.000Z</time>
      </trkpt>
      <trkpt lat="43.61637" lon="1.20548">
        <ele>242.39999389648</ele>
        <time>2015-02-01T10:20:20.000Z</time>
      </trkpt>
      <trkpt lat="43.61632" lon="1.20548">
        <ele>242.39999389648</ele>
        <time>2015-02-01T10:20:36.000Z</time>
      </trkpt>
      <trkpt lat="43.61637" lon="1.20552">
        <ele>242.39999389648</ele>
        <time>2015-02-01T10:20:41.000Z</time>
      </trkpt>
      <trkpt lat="43.61642" lon="1.20561">
        <ele>242.39999389648</ele>
        <time>2015-02-01T10:20:45.000Z</time>
      </trkpt>
      <trkpt lat="43.61645" lon="1.20583">
        <ele>241.80000305176</ele>
        <time>2015-02-01T10:20:51.000Z</time>
      </trkpt>
      <trkpt lat="43.61647" lon="1.20603">
        <ele>241</ele>
        <time>2015-02-01T10:20:57.000Z</time>
      </trkpt>
      <trkpt lat="43.61646" lon="1.20621">
        <ele>240</ele>
        <time>2015-02-01T10:21:01.000Z</time>
      </trkpt>
      <trkpt lat="43.61646" lon="1.20639">
        <ele>239</ele>
        <time>2015-02-01T10:21:06.000Z</time>
      </trkpt>
      <trkpt lat="43.61644" lon="1.20654">
        <ele>237.60000610352</ele>
        <time>2015-02-01T10:21:10.000Z</time>
      </trkpt>
      <trkpt lat="43.61637" lon="1.2067">
        <ele>235.60000610352</ele>
        <time>2015-02-01T10:21:15.000Z</time>
      </trkpt>
      <trkpt lat="43.61627" lon="1.20693">
        <ele>233.80000305176</ele>
        <time>2015-02-01T10:21:22.000Z</time>
      </trkpt>
      <trkpt lat="43.61617" lon="1.20717">
        <ele>232.39999389648</ele>
        <time>2015-02-01T10:21:29.000Z</time>
      </trkpt>
      <trkpt lat="43.61609" lon="1.20736">
        <ele>231.39999389648</ele>
        <time>2015-02-01T10:21:34.000Z</time>
      </trkpt>
      <trkpt lat="43.61604" lon="1.2075">
        <ele>230.60000610352</ele>
        <time>2015-02-01T10:21:38.000Z</time>
      </trkpt>
      <trkpt lat="43.61595" lon="1.20772">
        <ele>229</ele>
        <time>2015-02-01T10:21:43.000Z</time>
      </trkpt>
      <trkpt lat="43.61588" lon="1.2079">
        <ele>227.60000610352</ele>
        <time>2015-02-01T10:21:48.000Z</time>
      </trkpt>
      <trkpt lat="43.61578" lon="1.20811">
        <ele>226.19999694824</ele>
        <time>2015-02-01T10:21:54.000Z</time>
      </trkpt>
      <trkpt lat="43.61575" lon="1.20817">
        <ele>225.80000305176</ele>
        <time>2015-02-01T10:21:56.000Z</time>
      </trkpt>
      <trkpt lat="43.61567" lon="1.20837">
        <ele>224.60000610352</ele>
        <time>2015-02-01T10:22:01.000Z</time>
      </trkpt>
      <trkpt lat="43.6156" lon="1.2086">
        <ele>223.19999694824</ele>
        <time>2015-02-01T10:22:07.000Z</time>
      </trkpt>
      <trkpt lat="43.61554" lon="1.20875">
        <ele>222.19999694824</ele>
        <time>2015-02-01T10:22:11.000Z</time>
      </trkpt>
      <trkpt lat="43.61542" lon="1.20897">
        <ele>220.80000305176</ele>
        <time>2015-02-01T10:22:17.000Z</time>
      </trkpt>
      <trkpt lat="43.61532" lon="1.20919">
        <ele>218.19999694824</ele>
        <time>2015-02-01T10:22:23.000Z</time>
      </trkpt>
      <trkpt lat="43.61525" lon="1.20935">
        <ele>215.80000305176</ele>
        <time>2015-02-01T10:22:27.000Z</time>
      </trkpt>
      <trkpt lat="43.61514" lon="1.20953">
        <ele>212.39999389648</ele>
        <time>2015-02-01T10:22:33.000Z</time>
      </trkpt>
      <trkpt lat="43.6151" lon="1.20956">
        <ele>211.39999389648</ele>
        <time>2015-02-01T10:22:34.000Z</time>
      </trkpt>
      <trkpt lat="43.61502" lon="1.20954">
        <ele>210.39999389648</ele>
        <time>2015-02-01T10:22:37.000Z</time>
      </trkpt>
      <trkpt lat="43.615" lon="1.20952">
        <ele>210.39999389648</ele>
        <time>2015-02-01T10:22:38.000Z</time>
      </trkpt>
      <trkpt lat="43.6149" lon="1.20936">
        <ele>210.60000610352</ele>
        <time>2015-02-01T10:22:43.000Z</time>
      </trkpt>
      <trkpt lat="43.61477" lon="1.20919">
        <ele>210.60000610352</ele>
        <time>2015-02-01T10:22:50.000Z</time>
      </trkpt>
      <trkpt lat="43.61468" lon="1.20902">
        <ele>211.19999694824</ele>
        <time>2015-02-01T10:22:55.000Z</time>
      </trkpt>
      <trkpt lat="43.61457" lon="1.20883">
        <ele>211</ele>
        <time>2015-02-01T10:23:02.000Z</time>
      </trkpt>
      <trkpt lat="43.61446" lon="1.20867">
        <ele>210.39999389648</ele>
        <time>2015-02-01T10:23:07.000Z</time>
      </trkpt>
      <trkpt lat="43.61438" lon="1.20848">
        <ele>210.19999694824</ele>
        <time>2015-02-01T10:23:13.000Z</time>
      </trkpt>
      <trkpt lat="43.61433" lon="1.20832">
        <ele>210.60000610352</ele>
        <time>2015-02-01T10:23:18.000Z</time>
      </trkpt>
      <trkpt lat="43.61425" lon="1.20813">
        <ele>211</ele>
        <time>2015-02-01T10:23:24.000Z</time>
      </trkpt>
      <trkpt lat="43.61414" lon="1.20791">
        <ele>211</ele>
        <time>2015-02-01T10:23:31.000Z</time>
      </trkpt>
      <trkpt lat="43.61413" lon="1.20789">
        <ele>211</ele>
        <time>2015-02-01T10:23:32.000Z</time>
      </trkpt>
      <trkpt lat="43.61404" lon="1.20771">
        <ele>211.19999694824</ele>
        <time>2015-02-01T10:23:38.000Z</time>
      </trkpt>
      <trkpt lat="43.61401" lon="1.20768">
        <ele>211.19999694824</ele>
        <time>2015-02-01T10:23:39.000Z</time>
      </trkpt>
      <trkpt lat="43.61395" lon="1.20757">
        <ele>211.19999694824</ele>
        <time>2015-02-01T10:23:43.000Z</time>
      </trkpt>
      <trkpt lat="43.61393" lon="1.20755">
        <ele>211.19999694824</ele>
        <time>2015-02-01T10:23:44.000Z</time>
      </trkpt>
      <trkpt lat="43.61386" lon="1.2074">
        <ele>211.60000610352</ele>
        <time>2015-02-01T10:23:48.000Z</time>
      </trkpt>
      <trkpt lat="43.61375" lon="1.2072">
        <ele>211.60000610352</ele>
        <time>2015-02-01T10:23:54.000Z</time>
      </trkpt>
      <trkpt lat="43.61366" lon="1.20704">
        <ele>211.39999389648</ele>
        <time>2015-02-01T10:23:59.000Z</time>
      </trkpt>
      <trkpt lat="43.61356" lon="1.20688">
        <ele>211</ele>
        <time>2015-02-01T10:24:05.000Z</time>
      </trkpt>
      <trkpt lat="43.61348" lon="1.20674">
        <ele>211</ele>
        <time>2015-02-01T10:24:10.000Z</time>
      </trkpt>
      <trkpt lat="43.6134" lon="1.20659">
        <ele>211.19999694824</ele>
        <time>2015-02-01T10:24:15.000Z</time>
      </trkpt>
      <trkpt lat="43.61335" lon="1.20649">
        <ele>211.39999389648</ele>
        <time>2015-02-01T10:24:18.000Z</time>
      </trkpt>
      <trkpt lat="43.61318" lon="1.20624">
        <ele>211.39999389648</ele>
        <time>2015-02-01T10:24:27.000Z</time>
      </trkpt>
      <trkpt lat="43.61307" lon="1.2061">
        <ele>211.19999694824</ele>
        <time>2015-02-01T10:24:34.000Z</time>
      </trkpt>
      <trkpt lat="43.61304" lon="1.20607">
        <ele>211.19999694824</ele>
        <time>2015-02-01T10:24:38.000Z</time>
      </trkpt>
      <trkpt lat="43.61301" lon="1.206">
        <ele>211.39999389648</ele>
        <time>2015-02-01T10:24:43.000Z</time>
      </trkpt>
      <trkpt lat="43.61296" lon="1.20588">
        <ele>211.60000610352</ele>
        <time>2015-02-01T10:24:54.000Z</time>
      </trkpt>
      <trkpt lat="43.61295" lon="1.20585">
        <ele>211.80000305176</ele>
        <time>2015-02-01T10:24:56.000Z</time>
      </trkpt>
      <trkpt lat="43.61293" lon="1.20582">
        <ele>211.80000305176</ele>
        <time>2015-02-01T10:24:59.000Z</time>
      </trkpt>
      <trkpt lat="43.61287" lon="1.20574">
        <ele>211.60000610352</ele>
        <time>2015-02-01T10:25:06.000Z</time>
      </trkpt>
      <trkpt lat="43.61286" lon="1.20572">
        <ele>211.60000610352</ele>
        <time>2015-02-01T10:25:07.000Z</time>
      </trkpt>
      <trkpt lat="43.61283" lon="1.20566">
        <ele>211.60000610352</ele>
        <time>2015-02-01T10:25:10.000Z</time>
      </trkpt>
      <trkpt lat="43.61274" lon="1.20549">
        <ele>212.39999389648</ele>
        <time>2015-02-01T10:25:16.000Z</time>
      </trkpt>
      <trkpt lat="43.61268" lon="1.20537">
        <ele>213</ele>
        <time>2015-02-01T10:25:20.000Z</time>
      </trkpt>
      <trkpt lat="43.61255" lon="1.20519">
        <ele>214</ele>
        <time>2015-02-01T10:25:27.000Z</time>
      </trkpt>
      <trkpt lat="43.6125" lon="1.20511">
        <ele>214.60000610352</ele>
        <time>2015-02-01T10:25:30.000Z</time>
      </trkpt>
      <trkpt lat="43.61235" lon="1.20494">
        <ele>215.60000610352</ele>
        <time>2015-02-01T10:25:37.000Z</time>
      </trkpt>
      <trkpt lat="43.61223" lon="1.20483">
        <ele>216</ele>
        <time>2015-02-01T10:25:42.000Z</time>
      </trkpt>
      <trkpt lat="43.61221" lon="1.20481">
        <ele>216</ele>
        <time>2015-02-01T10:25:43.000Z</time>
      </trkpt>
      <trkpt lat="43.61208" lon="1.20476">
        <ele>216</ele>
        <time>2015-02-01T10:25:48.000Z</time>
      </trkpt>
      <trkpt lat="43.61197" lon="1.2047">
        <ele>216.19999694824</ele>
        <time>2015-02-01T10:25:53.000Z</time>
      </trkpt>
      <trkpt lat="43.61188" lon="1.20467">
        <ele>216.19999694824</ele>
        <time>2015-02-01T10:25:58.000Z</time>
      </trkpt>
      <trkpt lat="43.61179" lon="1.20464">
        <ele>216.19999694824</ele>
        <time>2015-02-01T10:26:02.000Z</time>
      </trkpt>
      <trkpt lat="43.61167" lon="1.20476">
        <ele>215.60000610352</ele>
        <time>2015-02-01T10:26:07.000Z</time>
      </trkpt>
      <trkpt lat="43.61149" lon="1.20487">
        <ele>215</ele>
        <time>2015-02-01T10:26:14.000Z</time>
      </trkpt>
      <trkpt lat="43.61134" lon="1.20492">
        <ele>214.80000305176</ele>
        <time>2015-02-01T10:26:20.000Z</time>
      </trkpt>
      <trkpt lat="43.61121" lon="1.20495">
        <ele>214.80000305176</ele>
        <time>2015-02-01T10:26:25.000Z</time>
      </trkpt>
      <trkpt lat="43.61114" lon="1.20493">
        <ele>215.19999694824</ele>
        <time>2015-02-01T10:26:28.000Z</time>
      </trkpt>
      <trkpt lat="43.61104" lon="1.2049">
        <ele>215.80000305176</ele>
        <time>2015-02-01T10:26:32.000Z</time>
      </trkpt>
      <trkpt lat="43.61089" lon="1.20483">
        <ele>217</ele>
        <time>2015-02-01T10:26:38.000Z</time>
      </trkpt>
      <trkpt lat="43.61072" lon="1.20471">
        <ele>218.60000610352</ele>
        <time>2015-02-01T10:26:45.000Z</time>
      </trkpt>
      <trkpt lat="43.61057" lon="1.20461">
        <ele>219.80000305176</ele>
        <time>2015-02-01T10:26:50.000Z</time>
      </trkpt>
      <trkpt lat="43.61041" lon="1.20455">
        <ele>220.80000305176</ele>
        <time>2015-02-01T10:26:56.000Z</time>
      </trkpt>
      <trkpt lat="43.61024" lon="1.20453">
        <ele>221.60000610352</ele>
        <time>2015-02-01T10:27:01.000Z</time>
      </trkpt>
      <trkpt lat="43.61012" lon="1.20449">
        <ele>222.19999694824</ele>
        <time>2015-02-01T10:27:05.000Z</time>
      </trkpt>
      <trkpt lat="43.61002" lon="1.20443">
        <ele>222.80000305176</ele>
        <time>2015-02-01T10:27:09.000Z</time>
      </trkpt>
      <trkpt lat="43.60995" lon="1.20439">
        <ele>223.19999694824</ele>
        <time>2015-02-01T10:27:12.000Z</time>
      </trkpt>
      <trkpt lat="43.6098" lon="1.2043">
        <ele>224</ele>
        <time>2015-02-01T10:27:18.000Z</time>
      </trkpt>
      <trkpt lat="43.60964" lon="1.20417">
        <ele>225</ele>
        <time>2015-02-01T10:27:25.000Z</time>
      </trkpt>
      <trkpt lat="43.60949" lon="1.20409">
        <ele>225.80000305176</ele>
        <time>2015-02-01T10:27:31.000Z</time>
      </trkpt>
      <trkpt lat="43.60939" lon="1.20406">
        <ele>226</ele>
        <time>2015-02-01T10:27:35.000Z</time>
      </trkpt>
      <trkpt lat="43.60915" lon="1.20413">
        <ele>224</ele>
        <time>2015-02-01T10:27:42.000Z</time>
      </trkpt>
      <trkpt lat="43.60896" lon="1.20414">
        <ele>222.80000305176</ele>
        <time>2015-02-01T10:27:48.000Z</time>
      </trkpt>
      <trkpt lat="43.60887" lon="1.20414">
        <ele>222.19999694824</ele>
        <time>2015-02-01T10:27:51.000Z</time>
      </trkpt>
      <trkpt lat="43.60864" lon="1.20424">
        <ele>221.19999694824</ele>
        <time>2015-02-01T10:27:58.000Z</time>
      </trkpt>
      <trkpt lat="43.60849" lon="1.20427">
        <ele>221.19999694824</ele>
        <time>2015-02-01T10:28:03.000Z</time>
      </trkpt>
      <trkpt lat="43.60831" lon="1.20438">
        <ele>220.19999694824</ele>
        <time>2015-02-01T10:28:09.000Z</time>
      </trkpt>
      <trkpt lat="43.60817" lon="1.2044">
        <ele>219.60000610352</ele>
        <time>2015-02-01T10:28:13.000Z</time>
      </trkpt>
      <trkpt lat="43.60797" lon="1.20434">
        <ele>218.60000610352</ele>
        <time>2015-02-01T10:28:20.000Z</time>
      </trkpt>
      <trkpt lat="43.60781" lon="1.20424">
        <ele>218</ele>
        <time>2015-02-01T10:28:25.000Z</time>
      </trkpt>
      <trkpt lat="43.60765" lon="1.20414">
        <ele>217.19999694824</ele>
        <time>2015-02-01T10:28:30.000Z</time>
      </trkpt>
      <trkpt lat="43.60747" lon="1.20406">
        <ele>215.80000305176</ele>
        <time>2015-02-01T10:28:36.000Z</time>
      </trkpt>
      <trkpt lat="43.6073" lon="1.20395">
        <ele>214.80000305176</ele>
        <time>2015-02-01T10:28:42.000Z</time>
      </trkpt>
      <trkpt lat="43.60713" lon="1.20383">
        <ele>213.60000610352</ele>
        <time>2015-02-01T10:28:48.000Z</time>
      </trkpt>
      <trkpt lat="43.60696" lon="1.20377">
        <ele>212</ele>
        <time>2015-02-01T10:28:54.000Z</time>
      </trkpt>
      <trkpt lat="43.60678" lon="1.2037">
        <ele>210.60000610352</ele>
        <time>2015-02-01T10:29:00.000Z</time>
      </trkpt>
      <trkpt lat="43.60663" lon="1.2036">
        <ele>209.60000610352</ele>
        <time>2015-02-01T10:29:05.000Z</time>
      </trkpt>
      <trkpt lat="43.60652" lon="1.20349">
        <ele>209</ele>
        <time>2015-02-01T10:29:09.000Z</time>
      </trkpt>
      <trkpt lat="43.60644" lon="1.2034">
        <ele>208.80000305176</ele>
        <time>2015-02-01T10:29:12.000Z</time>
      </trkpt>
      <trkpt lat="43.60631" lon="1.20323">
        <ele>208.19999694824</ele>
        <time>2015-02-01T10:29:18.000Z</time>
      </trkpt>
      <trkpt lat="43.60621" lon="1.20311">
        <ele>207.80000305176</ele>
        <time>2015-02-01T10:29:22.000Z</time>
      </trkpt>
      <trkpt lat="43.60608" lon="1.20294">
        <ele>207.80000305176</ele>
        <time>2015-02-01T10:29:28.000Z</time>
      </trkpt>
      <trkpt lat="43.60595" lon="1.20273">
        <ele>208.19999694824</ele>
        <time>2015-02-01T10:29:34.000Z</time>
      </trkpt>
      <trkpt lat="43.60583" lon="1.20253">
        <ele>208.80000305176</ele>
        <time>2015-02-01T10:29:40.000Z</time>
      </trkpt>
      <trkpt lat="43.60574" lon="1.20235">
        <ele>209.60000610352</ele>
        <time>2015-02-01T10:29:45.000Z</time>
      </trkpt>
      <trkpt lat="43.60566" lon="1.20217">
        <ele>209.80000305176</ele>
        <time>2015-02-01T10:29:50.000Z</time>
      </trkpt>
      <trkpt lat="43.60563" lon="1.2021">
        <ele>209.80000305176</ele>
        <time>2015-02-01T10:29:52.000Z</time>
      </trkpt>
      <trkpt lat="43.60556" lon="1.20193">
        <ele>210</ele>
        <time>2015-02-01T10:29:57.000Z</time>
      </trkpt>
      <trkpt lat="43.60554" lon="1.2019">
        <ele>210</ele>
        <time>2015-02-01T10:29:58.000Z</time>
      </trkpt>
      <trkpt lat="43.60547" lon="1.20167">
        <ele>210.39999389648</ele>
        <time>2015-02-01T10:30:04.000Z</time>
      </trkpt>
      <trkpt lat="43.6054" lon="1.20148">
        <ele>211.19999694824</ele>
        <time>2015-02-01T10:30:09.000Z</time>
      </trkpt>
      <trkpt lat="43.60538" lon="1.20141">
        <ele>211.39999389648</ele>
        <time>2015-02-01T10:30:11.000Z</time>
      </trkpt>
      <trkpt lat="43.60523" lon="1.20122">
        <ele>211.39999389648</ele>
        <time>2015-02-01T10:30:18.000Z</time>
      </trkpt>
      <trkpt lat="43.60513" lon="1.20109">
        <ele>211.39999389648</ele>
        <time>2015-02-01T10:30:23.000Z</time>
      </trkpt>
      <trkpt lat="43.605" lon="1.20093">
        <ele>211.19999694824</ele>
        <time>2015-02-01T10:30:29.000Z</time>
      </trkpt>
      <trkpt lat="43.60487" lon="1.20076">
        <ele>211</ele>
        <time>2015-02-01T10:30:35.000Z</time>
      </trkpt>
      <trkpt lat="43.6048" lon="1.20068">
        <ele>210.80000305176</ele>
        <time>2015-02-01T10:30:38.000Z</time>
      </trkpt>
      <trkpt lat="43.60466" lon="1.20053">
        <ele>210.60000610352</ele>
        <time>2015-02-01T10:30:44.000Z</time>
      </trkpt>
      <trkpt lat="43.60456" lon="1.2004">
        <ele>210.60000610352</ele>
        <time>2015-02-01T10:30:49.000Z</time>
      </trkpt>
      <trkpt lat="43.60443" lon="1.20023">
        <ele>210.60000610352</ele>
        <time>2015-02-01T10:30:55.000Z</time>
      </trkpt>
      <trkpt lat="43.60428" lon="1.20007">
        <ele>210.60000610352</ele>
        <time>2015-02-01T10:31:01.000Z</time>
      </trkpt>
      <trkpt lat="43.60417" lon="1.19996">
        <ele>210.80000305176</ele>
        <time>2015-02-01T10:31:06.000Z</time>
      </trkpt>
      <trkpt lat="43.60407" lon="1.19985">
        <ele>211</ele>
        <time>2015-02-01T10:31:11.000Z</time>
      </trkpt>
      <trkpt lat="43.60395" lon="1.19968">
        <ele>211.60000610352</ele>
        <time>2015-02-01T10:31:17.000Z</time>
      </trkpt>
      <trkpt lat="43.6038" lon="1.19947">
        <ele>212.39999389648</ele>
        <time>2015-02-01T10:31:24.000Z</time>
      </trkpt>
      <trkpt lat="43.60375" lon="1.19941">
        <ele>212.60000610352</ele>
        <time>2015-02-01T10:31:26.000Z</time>
      </trkpt>
      <trkpt lat="43.60363" lon="1.19929">
        <ele>212.60000610352</ele>
        <time>2015-02-01T10:31:31.000Z</time>
      </trkpt>
      <trkpt lat="43.6035" lon="1.19919">
        <ele>212.60000610352</ele>
        <time>2015-02-01T10:31:36.000Z</time>
      </trkpt>
      <trkpt lat="43.60339" lon="1.19904">
        <ele>213</ele>
        <time>2015-02-01T10:31:41.000Z</time>
      </trkpt>
      <trkpt lat="43.60331" lon="1.19887">
        <ele>213.60000610352</ele>
        <time>2015-02-01T10:31:46.000Z</time>
      </trkpt>
      <trkpt lat="43.60327" lon="1.19864">
        <ele>214.39999389648</ele>
        <time>2015-02-01T10:31:52.000Z</time>
      </trkpt>
      <trkpt lat="43.60324" lon="1.19838">
        <ele>216.39999389648</ele>
        <time>2015-02-01T10:31:58.000Z</time>
      </trkpt>
      <trkpt lat="43.60326" lon="1.19822">
        <ele>218.19999694824</ele>
        <time>2015-02-01T10:32:02.000Z</time>
      </trkpt>
      <trkpt lat="43.60326" lon="1.19803">
        <ele>219.39999389648</ele>
        <time>2015-02-01T10:32:07.000Z</time>
      </trkpt>
      <trkpt lat="43.60326" lon="1.19782">
        <ele>219.60000610352</ele>
        <time>2015-02-01T10:32:13.000Z</time>
      </trkpt>
      <trkpt lat="43.60324" lon="1.19755">
        <ele>219.39999389648</ele>
        <time>2015-02-01T10:32:20.000Z</time>
      </trkpt>
      <trkpt lat="43.60323" lon="1.19731">
        <ele>219.19999694824</ele>
        <time>2015-02-01T10:32:26.000Z</time>
      </trkpt>
      <trkpt lat="43.60322" lon="1.19704">
        <ele>219.19999694824</ele>
        <time>2015-02-01T10:32:33.000Z</time>
      </trkpt>
      <trkpt lat="43.60323" lon="1.19685">
        <ele>219.39999389648</ele>
        <time>2015-02-01T10:32:38.000Z</time>
      </trkpt>
      <trkpt lat="43.60323" lon="1.19666">
        <ele>219.60000610352</ele>
        <time>2015-02-01T10:32:43.000Z</time>
      </trkpt>
      <trkpt lat="43.60324" lon="1.19646">
        <ele>220</ele>
        <time>2015-02-01T10:32:48.000Z</time>
      </trkpt>
      <trkpt lat="43.60324" lon="1.19639">
        <ele>220.39999389648</ele>
        <time>2015-02-01T10:32:50.000Z</time>
      </trkpt>
      <trkpt lat="43.60326" lon="1.19629">
        <ele>221</ele>
        <time>2015-02-01T10:32:53.000Z</time>
      </trkpt>
      <trkpt lat="43.60329" lon="1.19616">
        <ele>222.19999694824</ele>
        <time>2015-02-01T10:32:57.000Z</time>
      </trkpt>
      <trkpt lat="43.60333" lon="1.19597">
        <ele>223.60000610352</ele>
        <time>2015-02-01T10:33:02.000Z</time>
      </trkpt>
      <trkpt lat="43.60335" lon="1.19575">
        <ele>225</ele>
        <time>2015-02-01T10:33:08.000Z</time>
      </trkpt>
      <trkpt lat="43.60337" lon="1.19557">
        <ele>226</ele>
        <time>2015-02-01T10:33:13.000Z</time>
      </trkpt>
      <trkpt lat="43.60341" lon="1.19533">
        <ele>226.60000610352</ele>
        <time>2015-02-01T10:33:20.000Z</time>
      </trkpt>
      <trkpt lat="43.60345" lon="1.1951">
        <ele>227.19999694824</ele>
        <time>2015-02-01T10:33:26.000Z</time>
      </trkpt>
      <trkpt lat="43.60349" lon="1.19491">
        <ele>227.60000610352</ele>
        <time>2015-02-01T10:33:31.000Z</time>
      </trkpt>
      <trkpt lat="43.60345" lon="1.19468">
        <ele>227.39999389648</ele>
        <time>2015-02-01T10:33:37.000Z</time>
      </trkpt>
      <trkpt lat="43.60341" lon="1.19452">
        <ele>227.39999389648</ele>
        <time>2015-02-01T10:33:42.000Z</time>
      </trkpt>
      <trkpt lat="43.60336" lon="1.19435">
        <ele>227.19999694824</ele>
        <time>2015-02-01T10:33:48.000Z</time>
      </trkpt>
      <trkpt lat="43.60325" lon="1.19419">
        <ele>226.19999694824</ele>
        <time>2015-02-01T10:33:54.000Z</time>
      </trkpt>
      <trkpt lat="43.60318" lon="1.19407">
        <ele>225.60000610352</ele>
        <time>2015-02-01T10:33:59.000Z</time>
      </trkpt>
      <trkpt lat="43.60312" lon="1.19395">
        <ele>225.19999694824</ele>
        <time>2015-02-01T10:34:03.000Z</time>
      </trkpt>
      <trkpt lat="43.60297" lon="1.19382">
        <ele>225.19999694824</ele>
        <time>2015-02-01T10:34:09.000Z</time>
      </trkpt>
      <trkpt lat="43.60295" lon="1.1938">
        <ele>225.19999694824</ele>
        <time>2015-02-01T10:34:10.000Z</time>
      </trkpt>
      <trkpt lat="43.60288" lon="1.19373">
        <ele>225.19999694824</ele>
        <time>2015-02-01T10:34:14.000Z</time>
      </trkpt>
      <trkpt lat="43.60286" lon="1.19372">
        <ele>225.19999694824</ele>
        <time>2015-02-01T10:34:15.000Z</time>
      </trkpt>
      <trkpt lat="43.60275" lon="1.19358">
        <ele>225.80000305176</ele>
        <time>2015-02-01T10:34:20.000Z</time>
      </trkpt>
      <trkpt lat="43.60266" lon="1.19346">
        <ele>226.19999694824</ele>
        <time>2015-02-01T10:34:25.000Z</time>
      </trkpt>
      <trkpt lat="43.60263" lon="1.1934">
        <ele>226.80000305176</ele>
        <time>2015-02-01T10:34:27.000Z</time>
      </trkpt>
      <trkpt lat="43.60252" lon="1.19327">
        <ele>227.80000305176</ele>
        <time>2015-02-01T10:34:33.000Z</time>
      </trkpt>
      <trkpt lat="43.6024" lon="1.19306">
        <ele>229.19999694824</ele>
        <time>2015-02-01T10:34:40.000Z</time>
      </trkpt>
      <trkpt lat="43.60239" lon="1.19303">
        <ele>229.39999389648</ele>
        <time>2015-02-01T10:34:41.000Z</time>
      </trkpt>
      <trkpt lat="43.60229" lon="1.19282">
        <ele>230</ele>
        <time>2015-02-01T10:34:47.000Z</time>
      </trkpt>
      <trkpt lat="43.60223" lon="1.19263">
        <ele>230.60000610352</ele>
        <time>2015-02-01T10:34:52.000Z</time>
      </trkpt>
      <trkpt lat="43.60222" lon="1.1926">
        <ele>230.80000305176</ele>
        <time>2015-02-01T10:34:53.000Z</time>
      </trkpt>
      <trkpt lat="43.60216" lon="1.19232">
        <ele>232</ele>
        <time>2015-02-01T10:35:00.000Z</time>
      </trkpt>
      <trkpt lat="43.60215" lon="1.19228">
        <ele>232.19999694824</ele>
        <time>2015-02-01T10:35:01.000Z</time>
      </trkpt>
      <trkpt lat="43.60211" lon="1.19213">
        <ele>233</ele>
        <time>2015-02-01T10:35:05.000Z</time>
      </trkpt>
      <trkpt lat="43.60208" lon="1.19205">
        <ele>233.39999389648</ele>
        <time>2015-02-01T10:35:09.000Z</time>
      </trkpt>
      <trkpt lat="43.60208" lon="1.19204">
        <ele>233.39999389648</ele>
        <time>2015-02-01T10:35:10.000Z</time>
      </trkpt>
      <trkpt lat="43.60206" lon="1.19202">
        <ele>233.39999389648</ele>
        <time>2015-02-01T10:35:16.000Z</time>
      </trkpt>
      <trkpt lat="43.60206" lon="1.192">
        <ele>233.60000610352</ele>
        <time>2015-02-01T10:35:28.000Z</time>
      </trkpt>
      <trkpt lat="43.60202" lon="1.19192">
        <ele>233.80000305176</ele>
        <time>2015-02-01T10:35:38.000Z</time>
      </trkpt>
      <trkpt lat="43.60191" lon="1.19179">
        <ele>234</ele>
        <time>2015-02-01T10:35:44.000Z</time>
      </trkpt>
      <trkpt lat="43.6018" lon="1.19165">
        <ele>234.60000610352</ele>
        <time>2015-02-01T10:35:49.000Z</time>
      </trkpt>
      <trkpt lat="43.60171" lon="1.19151">
        <ele>235.80000305176</ele>
        <time>2015-02-01T10:35:54.000Z</time>
      </trkpt>
      <trkpt lat="43.60165" lon="1.19146">
        <ele>236.19999694824</ele>
        <time>2015-02-01T10:35:57.000Z</time>
      </trkpt>
      <trkpt lat="43.60153" lon="1.19133">
        <ele>237.19999694824</ele>
        <time>2015-02-01T10:36:03.000Z</time>
      </trkpt>
      <trkpt lat="43.60142" lon="1.19124">
        <ele>238</ele>
        <time>2015-02-01T10:36:08.000Z</time>
      </trkpt>
      <trkpt lat="43.60135" lon="1.19117">
        <ele>238.60000610352</ele>
        <time>2015-02-01T10:36:12.000Z</time>
      </trkpt>
      <trkpt lat="43.60133" lon="1.19114">
        <ele>238.80000305176</ele>
        <time>2015-02-01T10:36:13.000Z</time>
      </trkpt>
      <trkpt lat="43.60119" lon="1.19102">
        <ele>239.80000305176</ele>
        <time>2015-02-01T10:36:20.000Z</time>
      </trkpt>
      <trkpt lat="43.60109" lon="1.19093">
        <ele>240.60000610352</ele>
        <time>2015-02-01T10:36:26.000Z</time>
      </trkpt>
      <trkpt lat="43.60099" lon="1.19084">
        <ele>241.60000610352</ele>
        <time>2015-02-01T10:36:31.000Z</time>
      </trkpt>
      <trkpt lat="43.60088" lon="1.19075">
        <ele>242.60000610352</ele>
        <time>2015-02-01T10:36:37.000Z</time>
      </trkpt>
      <trkpt lat="43.60086" lon="1.19074">
        <ele>242.60000610352</ele>
        <time>2015-02-01T10:36:38.000Z</time>
      </trkpt>
      <trkpt lat="43.60075" lon="1.19073">
        <ele>243</ele>
        <time>2015-02-01T10:36:43.000Z</time>
      </trkpt>
      <trkpt lat="43.60063" lon="1.19079">
        <ele>243.19999694824</ele>
        <time>2015-02-01T10:36:49.000Z</time>
      </trkpt>
      <trkpt lat="43.60051" lon="1.19082">
        <ele>243.39999389648</ele>
        <time>2015-02-01T10:36:55.000Z</time>
      </trkpt>
      <trkpt lat="43.60043" lon="1.19086">
        <ele>243.39999389648</ele>
        <time>2015-02-01T10:36:59.000Z</time>
      </trkpt>
      <trkpt lat="43.60032" lon="1.19092">
        <ele>242.19999694824</ele>
        <time>2015-02-01T10:37:05.000Z</time>
      </trkpt>
      <trkpt lat="43.60021" lon="1.19098">
        <ele>240.80000305176</ele>
        <time>2015-02-01T10:37:11.000Z</time>
      </trkpt>
      <trkpt lat="43.60013" lon="1.19099">
        <ele>240.19999694824</ele>
        <time>2015-02-01T10:37:16.000Z</time>
      </trkpt>
      <trkpt lat="43.60009" lon="1.191">
        <ele>239.80000305176</ele>
        <time>2015-02-01T10:37:18.000Z</time>
      </trkpt>
      <trkpt lat="43.60004" lon="1.19101">
        <ele>239.39999389648</ele>
        <time>2015-02-01T10:37:22.000Z</time>
      </trkpt>
      <trkpt lat="43.5999" lon="1.19103">
        <ele>238</ele>
        <time>2015-02-01T10:37:28.000Z</time>
      </trkpt>
      <trkpt lat="43.59981" lon="1.19102">
        <ele>237.60000610352</ele>
        <time>2015-02-01T10:37:31.000Z</time>
      </trkpt>
      <trkpt lat="43.59971" lon="1.19097">
        <ele>237.39999389648</ele>
        <time>2015-02-01T10:37:36.000Z</time>
      </trkpt>
      <trkpt lat="43.59968" lon="1.19096">
        <ele>237.39999389648</ele>
        <time>2015-02-01T10:37:37.000Z</time>
      </trkpt>
      <trkpt lat="43.59951" lon="1.1909">
        <ele>237.19999694824</ele>
        <time>2015-02-01T10:37:44.000Z</time>
      </trkpt>
      <trkpt lat="43.5994" lon="1.19087">
        <ele>236.80000305176</ele>
        <time>2015-02-01T10:37:49.000Z</time>
      </trkpt>
      <trkpt lat="43.59931" lon="1.19084">
        <ele>236.39999389648</ele>
        <time>2015-02-01T10:37:53.000Z</time>
      </trkpt>
      <trkpt lat="43.59917" lon="1.19083">
        <ele>234.60000610352</ele>
        <time>2015-02-01T10:37:58.000Z</time>
      </trkpt>
      <trkpt lat="43.59904" lon="1.19082">
        <ele>232.80000305176</ele>
        <time>2015-02-01T10:38:03.000Z</time>
      </trkpt>
      <trkpt lat="43.59895" lon="1.19082">
        <ele>231.39999389648</ele>
        <time>2015-02-01T10:38:07.000Z</time>
      </trkpt>
      <trkpt lat="43.5988" lon="1.19084">
        <ele>229.19999694824</ele>
        <time>2015-02-01T10:38:13.000Z</time>
      </trkpt>
      <trkpt lat="43.59873" lon="1.19077">
        <ele>229</ele>
        <time>2015-02-01T10:38:18.000Z</time>
      </trkpt>
      <trkpt lat="43.59883" lon="1.19051">
        <ele>233.39999389648</ele>
        <time>2015-02-01T10:38:29.000Z</time>
      </trkpt>
      <trkpt lat="43.59887" lon="1.19038">
        <ele>235.39999389648</ele>
        <time>2015-02-01T10:38:34.000Z</time>
      </trkpt>
      <trkpt lat="43.59893" lon="1.19013">
        <ele>238.39999389648</ele>
        <time>2015-02-01T10:38:42.000Z</time>
      </trkpt>
      <trkpt lat="43.59897" lon="1.18999">
        <ele>239.60000610352</ele>
        <time>2015-02-01T10:38:47.000Z</time>
      </trkpt>
      <trkpt lat="43.59903" lon="1.18983">
        <ele>241.19999694824</ele>
        <time>2015-02-01T10:38:53.000Z</time>
      </trkpt>
      <trkpt lat="43.59908" lon="1.18968">
        <ele>242.80000305176</ele>
        <time>2015-02-01T10:38:58.000Z</time>
      </trkpt>
      <trkpt lat="43.59914" lon="1.18953">
        <ele>244.80000305176</ele>
        <time>2015-02-01T10:39:04.000Z</time>
      </trkpt>
      <trkpt lat="43.59918" lon="1.18944">
        <ele>246</ele>
        <time>2015-02-01T10:39:08.000Z</time>
      </trkpt>
      <trkpt lat="43.59921" lon="1.18935">
        <ele>247.19999694824</ele>
        <time>2015-02-01T10:39:12.000Z</time>
      </trkpt>
      <trkpt lat="43.59927" lon="1.18916">
        <ele>249.39999389648</ele>
        <time>2015-02-01T10:39:19.000Z</time>
      </trkpt>
      <trkpt lat="43.59934" lon="1.18904">
        <ele>251.19999694824</ele>
        <time>2015-02-01T10:39:25.000Z</time>
      </trkpt>
      <trkpt lat="43.5994" lon="1.1889">
        <ele>252.19999694824</ele>
        <time>2015-02-01T10:39:31.000Z</time>
      </trkpt>
      <trkpt lat="43.59941" lon="1.18886">
        <ele>252.39999389648</ele>
        <time>2015-02-01T10:39:33.000Z</time>
      </trkpt>
      <trkpt lat="43.59945" lon="1.18875">
        <ele>253</ele>
        <time>2015-02-01T10:39:38.000Z</time>
      </trkpt>
      <trkpt lat="43.59949" lon="1.18862">
        <ele>253.60000610352</ele>
        <time>2015-02-01T10:39:44.000Z</time>
      </trkpt>
      <trkpt lat="43.59954" lon="1.18848">
        <ele>254.19999694824</ele>
        <time>2015-02-01T10:39:50.000Z</time>
      </trkpt>
      <trkpt lat="43.59959" lon="1.18836">
        <ele>254.60000610352</ele>
        <time>2015-02-01T10:39:55.000Z</time>
      </trkpt>
      <trkpt lat="43.59964" lon="1.18822">
        <ele>254.80000305176</ele>
        <time>2015-02-01T10:40:00.000Z</time>
      </trkpt>
      <trkpt lat="43.5997" lon="1.18808">
        <ele>255</ele>
        <time>2015-02-01T10:40:05.000Z</time>
      </trkpt>
      <trkpt lat="43.59975" lon="1.18795">
        <ele>254.80000305176</ele>
        <time>2015-02-01T10:40:11.000Z</time>
      </trkpt>
      <trkpt lat="43.5998" lon="1.18783">
        <ele>254.60000610352</ele>
        <time>2015-02-01T10:40:16.000Z</time>
      </trkpt>
      <trkpt lat="43.59986" lon="1.1877">
        <ele>254.80000305176</ele>
        <time>2015-02-01T10:40:22.000Z</time>
      </trkpt>
      <trkpt lat="43.59994" lon="1.18756">
        <ele>255</ele>
        <time>2015-02-01T10:40:29.000Z</time>
      </trkpt>
      <trkpt lat="43.59999" lon="1.18743">
        <ele>255.39999389648</ele>
        <time>2015-02-01T10:40:35.000Z</time>
      </trkpt>
      <trkpt lat="43.59999" lon="1.18741">
        <ele>255.39999389648</ele>
        <time>2015-02-01T10:40:36.000Z</time>
      </trkpt>
      <trkpt lat="43.59998" lon="1.18732">
        <ele>255.39999389648</ele>
        <time>2015-02-01T10:40:40.000Z</time>
      </trkpt>
      <trkpt lat="43.59996" lon="1.1873">
        <ele>255.39999389648</ele>
        <time>2015-02-01T10:40:41.000Z</time>
      </trkpt>
      <trkpt lat="43.59989" lon="1.18724">
        <ele>255.19999694824</ele>
        <time>2015-02-01T10:40:47.000Z</time>
      </trkpt>
      <trkpt lat="43.5998" lon="1.18718">
        <ele>255</ele>
        <time>2015-02-01T10:40:54.000Z</time>
      </trkpt>
      <trkpt lat="43.59967" lon="1.18709">
        <ele>254.80000305176</ele>
        <time>2015-02-01T10:41:02.000Z</time>
      </trkpt>
      <trkpt lat="43.59956" lon="1.18702">
        <ele>254.60000610352</ele>
        <time>2015-02-01T10:41:09.000Z</time>
      </trkpt>
      <trkpt lat="43.59946" lon="1.18693">
        <ele>254.19999694824</ele>
        <time>2015-02-01T10:41:16.000Z</time>
      </trkpt>
      <trkpt lat="43.59933" lon="1.18684">
        <ele>254</ele>
        <time>2015-02-01T10:41:24.000Z</time>
      </trkpt>
      <trkpt lat="43.59932" lon="1.18683">
        <ele>254</ele>
        <time>2015-02-01T10:41:25.000Z</time>
      </trkpt>
      <trkpt lat="43.59928" lon="1.1868">
        <ele>254</ele>
        <time>2015-02-01T10:41:30.000Z</time>
      </trkpt>
      <trkpt lat="43.59924" lon="1.18678">
        <ele>253.80000305176</ele>
        <time>2015-02-01T10:41:34.000Z</time>
      </trkpt>
      <trkpt lat="43.59917" lon="1.18673">
        <ele>253.80000305176</ele>
        <time>2015-02-01T10:41:42.000Z</time>
      </trkpt>
      <trkpt lat="43.59909" lon="1.18668">
        <ele>253.60000610352</ele>
        <time>2015-02-01T10:41:51.000Z</time>
      </trkpt>
      <trkpt lat="43.59908" lon="1.18668">
        <ele>253.60000610352</ele>
        <time>2015-02-01T10:41:52.000Z</time>
      </trkpt>
      <trkpt lat="43.59903" lon="1.1867">
        <ele>253.60000610352</ele>
        <time>2015-02-01T10:41:58.000Z</time>
      </trkpt>
      <trkpt lat="43.59899" lon="1.1867">
        <ele>253.60000610352</ele>
        <time>2015-02-01T10:42:02.000Z</time>
      </trkpt>
      <trkpt lat="43.59896" lon="1.18672">
        <ele>253.60000610352</ele>
        <time>2015-02-01T10:42:05.000Z</time>
      </trkpt>
    </trkseg>
  </trk>
</gpx>